<?xml version="1.0" encoding="UTF-8" standalone="no" ?>
<gpx xmlns="http://www.topografix.com/GPX/1/1" xmlns:xsi="http://www.w3.org/2001/XMLSchema-instance" xsi:schemaLocation="http://www.topografix.com/GPX/1/1 http://www.topografix.com/GPX/1/1/gpx.xsd" version="1.1" creator="VisuGPX - https://www.visugpx.com">
  <metadata>
    <name>Course en dordogne</name>
    <desc><![CDATA[Départ de Saint Sauveur de Bergerac en passant par tuilières puis Liorac , Lamonzie Montastruc et revenir sur Saint Sauveur.]]></desc>
  </metadata>
  <trk>
    <name><![CDATA[2013-05-19T07:05:25Z]]></name>
    <trkseg>
      <trkpt lat="44.87485" lon="0.60036">
        <ele>112.6115723</ele>
        <time>2013-05-19T07:05:25Z</time>
      </trkpt>
      <trkpt lat="44.87485" lon="0.60034">
        <ele>112.6115723</ele>
        <time>2013-05-19T07:05:26Z</time>
      </trkpt>
      <trkpt lat="44.87483" lon="0.60013">
        <ele>112.6115723</ele>
        <time>2013-05-19T07:05:33Z</time>
      </trkpt>
      <trkpt lat="44.87474" lon="0.60007">
        <ele>110.6888428</ele>
        <time>2013-05-19T07:05:37Z</time>
      </trkpt>
      <trkpt lat="44.87459" lon="0.60012">
        <ele>107.3243408</ele>
        <time>2013-05-19T07:05:43Z</time>
      </trkpt>
      <trkpt lat="44.87448" lon="0.60011">
        <ele>103.9597168</ele>
        <time>2013-05-19T07:05:48Z</time>
      </trkpt>
      <trkpt lat="44.87446" lon="0.6001">
        <ele>103.4790039</ele>
        <time>2013-05-19T07:05:49Z</time>
      </trkpt>
      <trkpt lat="44.87442" lon="0.59997">
        <ele>102.998291</ele>
        <time>2013-05-19T07:05:53Z</time>
      </trkpt>
      <trkpt lat="44.87439" lon="0.59976">
        <ele>103.9597168</ele>
        <time>2013-05-19T07:05:59Z</time>
      </trkpt>
      <trkpt lat="44.87436" lon="0.59958">
        <ele>103.9597168</ele>
        <time>2013-05-19T07:06:04Z</time>
      </trkpt>
      <trkpt lat="44.87433" lon="0.59938">
        <ele>102.998291</ele>
        <time>2013-05-19T07:06:09Z</time>
      </trkpt>
      <trkpt lat="44.87432" lon="0.59923">
        <ele>102.0371094</ele>
        <time>2013-05-19T07:06:13Z</time>
      </trkpt>
      <trkpt lat="44.8743" lon="0.59902">
        <ele>102.0371094</ele>
        <time>2013-05-19T07:06:19Z</time>
      </trkpt>
      <trkpt lat="44.87426" lon="0.59884">
        <ele>100.5950928</ele>
        <time>2013-05-19T07:06:24Z</time>
      </trkpt>
      <trkpt lat="44.87424" lon="0.59867">
        <ele>100.5950928</ele>
        <time>2013-05-19T07:06:29Z</time>
      </trkpt>
      <trkpt lat="44.8742" lon="0.59848">
        <ele>100.5950928</ele>
        <time>2013-05-19T07:06:35Z</time>
      </trkpt>
      <trkpt lat="44.87415" lon="0.59833">
        <ele>101.0756836</ele>
        <time>2013-05-19T07:06:40Z</time>
      </trkpt>
      <trkpt lat="44.8741" lon="0.59818">
        <ele>101.5563965</ele>
        <time>2013-05-19T07:06:44Z</time>
      </trkpt>
      <trkpt lat="44.87403" lon="0.59803">
        <ele>102.5177002</ele>
        <time>2013-05-19T07:06:49Z</time>
      </trkpt>
      <trkpt lat="44.87395" lon="0.59785">
        <ele>104.9210205</ele>
        <time>2013-05-19T07:06:55Z</time>
      </trkpt>
      <trkpt lat="44.87385" lon="0.59772">
        <ele>104.4404297</ele>
        <time>2013-05-19T07:07:01Z</time>
      </trkpt>
      <trkpt lat="44.87377" lon="0.59768">
        <ele>103.9597168</ele>
        <time>2013-05-19T07:07:05Z</time>
      </trkpt>
      <trkpt lat="44.87364" lon="0.59772">
        <ele>102.998291</ele>
        <time>2013-05-19T07:07:10Z</time>
      </trkpt>
      <trkpt lat="44.87354" lon="0.59775">
        <ele>102.0371094</ele>
        <time>2013-05-19T07:07:14Z</time>
      </trkpt>
      <trkpt lat="44.87342" lon="0.5978">
        <ele>100.5950928</ele>
        <time>2013-05-19T07:07:19Z</time>
      </trkpt>
      <trkpt lat="44.87326" lon="0.59786">
        <ele>100.114502</ele>
        <time>2013-05-19T07:07:25Z</time>
      </trkpt>
      <trkpt lat="44.8731" lon="0.59792">
        <ele>98.6724854</ele>
        <time>2013-05-19T07:07:31Z</time>
      </trkpt>
      <trkpt lat="44.87298" lon="0.59793">
        <ele>96.7498779</ele>
        <time>2013-05-19T07:07:36Z</time>
      </trkpt>
      <trkpt lat="44.87281" lon="0.59801">
        <ele>94.8271484</ele>
        <time>2013-05-19T07:07:42Z</time>
      </trkpt>
      <trkpt lat="44.87266" lon="0.59806">
        <ele>94.8271484</ele>
        <time>2013-05-19T07:07:48Z</time>
      </trkpt>
      <trkpt lat="44.87255" lon="0.59811">
        <ele>94.3465576</ele>
        <time>2013-05-19T07:07:53Z</time>
      </trkpt>
      <trkpt lat="44.87243" lon="0.59817">
        <ele>93.8658447</ele>
        <time>2013-05-19T07:07:58Z</time>
      </trkpt>
      <trkpt lat="44.87238" lon="0.59819">
        <ele>93.8658447</ele>
        <time>2013-05-19T07:08:01Z</time>
      </trkpt>
      <trkpt lat="44.87226" lon="0.59835">
        <ele>96.2692871</ele>
        <time>2013-05-19T07:08:08Z</time>
      </trkpt>
      <trkpt lat="44.87219" lon="0.59853">
        <ele>100.114502</ele>
        <time>2013-05-19T07:08:12Z</time>
      </trkpt>
      <trkpt lat="44.87213" lon="0.59866">
        <ele>103.4790039</ele>
        <time>2013-05-19T07:08:17Z</time>
      </trkpt>
      <trkpt lat="44.87206" lon="0.59884">
        <ele>101.5563965</ele>
        <time>2013-05-19T07:08:23Z</time>
      </trkpt>
      <trkpt lat="44.87205" lon="0.59886">
        <ele>101.5563965</ele>
        <time>2013-05-19T07:08:24Z</time>
      </trkpt>
      <trkpt lat="44.87201" lon="0.59906">
        <ele>104.4404297</ele>
        <time>2013-05-19T07:08:29Z</time>
      </trkpt>
      <trkpt lat="44.87199" lon="0.59915">
        <ele>103.9597168</ele>
        <time>2013-05-19T07:08:31Z</time>
      </trkpt>
      <trkpt lat="44.87194" lon="0.59933">
        <ele>102.5177002</ele>
        <time>2013-05-19T07:08:36Z</time>
      </trkpt>
      <trkpt lat="44.87181" lon="0.59945">
        <ele>96.2692871</ele>
        <time>2013-05-19T07:08:42Z</time>
      </trkpt>
      <trkpt lat="44.87175" lon="0.59948">
        <ele>94.8271484</ele>
        <time>2013-05-19T07:08:45Z</time>
      </trkpt>
      <trkpt lat="44.87164" lon="0.59951">
        <ele>91.4625244</ele>
        <time>2013-05-19T07:08:50Z</time>
      </trkpt>
      <trkpt lat="44.87162" lon="0.59951">
        <ele>90.5013428</ele>
        <time>2013-05-19T07:08:51Z</time>
      </trkpt>
      <trkpt lat="44.87145" lon="0.59956">
        <ele>83.7719727</ele>
        <time>2013-05-19T07:08:58Z</time>
      </trkpt>
      <trkpt lat="44.87133" lon="0.5996">
        <ele>78.9654541</ele>
        <time>2013-05-19T07:09:03Z</time>
      </trkpt>
      <trkpt lat="44.87121" lon="0.59967">
        <ele>74.6395264</ele>
        <time>2013-05-19T07:09:08Z</time>
      </trkpt>
      <trkpt lat="44.87108" lon="0.59976">
        <ele>71.2749023</ele>
        <time>2013-05-19T07:09:13Z</time>
      </trkpt>
      <trkpt lat="44.87105" lon="0.59978">
        <ele>69.8328857</ele>
        <time>2013-05-19T07:09:14Z</time>
      </trkpt>
      <trkpt lat="44.87094" lon="0.59984">
        <ele>65.5070801</ele>
        <time>2013-05-19T07:09:19Z</time>
      </trkpt>
      <trkpt lat="44.87079" lon="0.59981">
        <ele>70.3134766</ele>
        <time>2013-05-19T07:09:25Z</time>
      </trkpt>
      <trkpt lat="44.87073" lon="0.59978">
        <ele>67.4296875</ele>
        <time>2013-05-19T07:09:27Z</time>
      </trkpt>
      <trkpt lat="44.87053" lon="0.59971">
        <ele>66.4682617</ele>
        <time>2013-05-19T07:09:34Z</time>
      </trkpt>
      <trkpt lat="44.87042" lon="0.59972">
        <ele>66.4682617</ele>
        <time>2013-05-19T07:09:38Z</time>
      </trkpt>
      <trkpt lat="44.87028" lon="0.59977">
        <ele>69.8328857</ele>
        <time>2013-05-19T07:09:43Z</time>
      </trkpt>
      <trkpt lat="44.87008" lon="0.5998">
        <ele>72.2362061</ele>
        <time>2013-05-19T07:09:50Z</time>
      </trkpt>
      <trkpt lat="44.86991" lon="0.59982">
        <ele>73.1976318</ele>
        <time>2013-05-19T07:09:56Z</time>
      </trkpt>
      <trkpt lat="44.86978" lon="0.59981">
        <ele>74.6395264</ele>
        <time>2013-05-19T07:10:01Z</time>
      </trkpt>
      <trkpt lat="44.86966" lon="0.59977">
        <ele>76.5621338</ele>
        <time>2013-05-19T07:10:06Z</time>
      </trkpt>
      <trkpt lat="44.8695" lon="0.59967">
        <ele>78.0040283</ele>
        <time>2013-05-19T07:10:13Z</time>
      </trkpt>
      <trkpt lat="44.86939" lon="0.59956">
        <ele>76.5621338</ele>
        <time>2013-05-19T07:10:18Z</time>
      </trkpt>
      <trkpt lat="44.86935" lon="0.59953">
        <ele>75.6008301</ele>
        <time>2013-05-19T07:10:20Z</time>
      </trkpt>
      <trkpt lat="44.86922" lon="0.59942">
        <ele>74.6395264</ele>
        <time>2013-05-19T07:10:26Z</time>
      </trkpt>
      <trkpt lat="44.8691" lon="0.5993">
        <ele>73.1976318</ele>
        <time>2013-05-19T07:10:32Z</time>
      </trkpt>
      <trkpt lat="44.86897" lon="0.59917">
        <ele>72.7169189</ele>
        <time>2013-05-19T07:10:38Z</time>
      </trkpt>
      <trkpt lat="44.86889" lon="0.59907">
        <ele>73.6782227</ele>
        <time>2013-05-19T07:10:43Z</time>
      </trkpt>
      <trkpt lat="44.8688" lon="0.59897">
        <ele>74.6395264</ele>
        <time>2013-05-19T07:10:49Z</time>
      </trkpt>
      <trkpt lat="44.86871" lon="0.59889">
        <ele>76.0814209</ele>
        <time>2013-05-19T07:10:54Z</time>
      </trkpt>
      <trkpt lat="44.86864" lon="0.59884">
        <ele>77.0428467</ele>
        <time>2013-05-19T07:10:57Z</time>
      </trkpt>
      <trkpt lat="44.86852" lon="0.59871">
        <ele>77.5234375</ele>
        <time>2013-05-19T07:11:03Z</time>
      </trkpt>
      <trkpt lat="44.86844" lon="0.59872">
        <ele>79.4460449</ele>
        <time>2013-05-19T07:11:07Z</time>
      </trkpt>
      <trkpt lat="44.86838" lon="0.59879">
        <ele>78.9654541</ele>
        <time>2013-05-19T07:11:11Z</time>
      </trkpt>
      <trkpt lat="44.86834" lon="0.59889">
        <ele>79.9266357</ele>
        <time>2013-05-19T07:11:14Z</time>
      </trkpt>
      <trkpt lat="44.8683" lon="0.59906">
        <ele>82.3300781</ele>
        <time>2013-05-19T07:11:19Z</time>
      </trkpt>
      <trkpt lat="44.86828" lon="0.59912">
        <ele>82.810791</ele>
        <time>2013-05-19T07:11:21Z</time>
      </trkpt>
      <trkpt lat="44.86828" lon="0.59912">
        <ele>82.810791</ele>
        <time>2013-05-19T07:11:21Z</time>
      </trkpt>
      <trkpt lat="44.86826" lon="0.59922">
        <ele>83.7719727</ele>
        <time>2013-05-19T07:11:24Z</time>
      </trkpt>
      <trkpt lat="44.86823" lon="0.59941">
        <ele>86.6560059</ele>
        <time>2013-05-19T07:11:30Z</time>
      </trkpt>
      <trkpt lat="44.86821" lon="0.59952">
        <ele>89.0593262</ele>
        <time>2013-05-19T07:11:34Z</time>
      </trkpt>
      <trkpt lat="44.86821" lon="0.59971">
        <ele>91.4625244</ele>
        <time>2013-05-19T07:11:40Z</time>
      </trkpt>
      <trkpt lat="44.86818" lon="0.59984">
        <ele>95.7884521</ele>
        <time>2013-05-19T07:11:43Z</time>
      </trkpt>
      <trkpt lat="44.86812" lon="0.59997">
        <ele>93.8658447</ele>
        <time>2013-05-19T07:11:50Z</time>
      </trkpt>
      <trkpt lat="44.8681" lon="0.6">
        <ele>93.3851318</ele>
        <time>2013-05-19T07:11:52Z</time>
      </trkpt>
      <trkpt lat="44.86805" lon="0.60011">
        <ele>89.0593262</ele>
        <time>2013-05-19T07:11:58Z</time>
      </trkpt>
      <trkpt lat="44.86803" lon="0.60017">
        <ele>88.5787354</ele>
        <time>2013-05-19T07:12:00Z</time>
      </trkpt>
      <trkpt lat="44.868" lon="0.60032">
        <ele>91.4625244</ele>
        <time>2013-05-19T07:12:06Z</time>
      </trkpt>
      <trkpt lat="44.868" lon="0.60035">
        <ele>91.9432373</ele>
        <time>2013-05-19T07:12:07Z</time>
      </trkpt>
      <trkpt lat="44.86798" lon="0.60054">
        <ele>93.8658447</ele>
        <time>2013-05-19T07:12:14Z</time>
      </trkpt>
      <trkpt lat="44.868" lon="0.60067">
        <ele>93.8658447</ele>
        <time>2013-05-19T07:12:19Z</time>
      </trkpt>
      <trkpt lat="44.86801" lon="0.6007">
        <ele>93.3851318</ele>
        <time>2013-05-19T07:12:20Z</time>
      </trkpt>
      <trkpt lat="44.86801" lon="0.60077">
        <ele>92.904541</ele>
        <time>2013-05-19T07:12:23Z</time>
      </trkpt>
      <trkpt lat="44.86804" lon="0.60091">
        <ele>95.3077393</ele>
        <time>2013-05-19T07:12:28Z</time>
      </trkpt>
      <trkpt lat="44.8681" lon="0.60104">
        <ele>99.1530762</ele>
        <time>2013-05-19T07:12:33Z</time>
      </trkpt>
      <trkpt lat="44.86814" lon="0.60113">
        <ele>100.114502</ele>
        <time>2013-05-19T07:12:38Z</time>
      </trkpt>
      <trkpt lat="44.86822" lon="0.60123">
        <ele>102.998291</ele>
        <time>2013-05-19T07:12:44Z</time>
      </trkpt>
      <trkpt lat="44.86823" lon="0.60125">
        <ele>104.4404297</ele>
        <time>2013-05-19T07:12:45Z</time>
      </trkpt>
      <trkpt lat="44.86832" lon="0.60142">
        <ele>103.4790039</ele>
        <time>2013-05-19T07:12:52Z</time>
      </trkpt>
      <trkpt lat="44.86836" lon="0.60151">
        <ele>102.5177002</ele>
        <time>2013-05-19T07:12:55Z</time>
      </trkpt>
      <trkpt lat="44.86839" lon="0.6017">
        <ele>102.0371094</ele>
        <time>2013-05-19T07:13:01Z</time>
      </trkpt>
      <trkpt lat="44.86837" lon="0.60182">
        <ele>102.5177002</ele>
        <time>2013-05-19T07:13:06Z</time>
      </trkpt>
      <trkpt lat="44.86837" lon="0.60186">
        <ele>103.4790039</ele>
        <time>2013-05-19T07:13:07Z</time>
      </trkpt>
      <trkpt lat="44.86838" lon="0.60201">
        <ele>108.2856445</ele>
        <time>2013-05-19T07:13:13Z</time>
      </trkpt>
      <trkpt lat="44.86836" lon="0.60221">
        <ele>107.3243408</ele>
        <time>2013-05-19T07:13:18Z</time>
      </trkpt>
      <trkpt lat="44.86842" lon="0.60238">
        <ele>109.2469482</ele>
        <time>2013-05-19T07:13:23Z</time>
      </trkpt>
      <trkpt lat="44.86842" lon="0.60247">
        <ele>109.2469482</ele>
        <time>2013-05-19T07:13:26Z</time>
      </trkpt>
      <trkpt lat="44.86841" lon="0.60266">
        <ele>111.1695557</ele>
        <time>2013-05-19T07:13:32Z</time>
      </trkpt>
      <trkpt lat="44.86841" lon="0.6028">
        <ele>112.6115723</ele>
        <time>2013-05-19T07:13:37Z</time>
      </trkpt>
      <trkpt lat="44.8684" lon="0.60297">
        <ele>111.6502686</ele>
        <time>2013-05-19T07:13:42Z</time>
      </trkpt>
      <trkpt lat="44.8684" lon="0.603">
        <ele>112.1309814</ele>
        <time>2013-05-19T07:13:43Z</time>
      </trkpt>
      <trkpt lat="44.86837" lon="0.6032">
        <ele>111.1695557</ele>
        <time>2013-05-19T07:13:49Z</time>
      </trkpt>
      <trkpt lat="44.86836" lon="0.60327">
        <ele>109.7276611</ele>
        <time>2013-05-19T07:13:51Z</time>
      </trkpt>
      <trkpt lat="44.86832" lon="0.60351">
        <ele>107.3243408</ele>
        <time>2013-05-19T07:13:58Z</time>
      </trkpt>
      <trkpt lat="44.86831" lon="0.60358">
        <ele>107.8050537</ele>
        <time>2013-05-19T07:14:00Z</time>
      </trkpt>
      <trkpt lat="44.86823" lon="0.60383">
        <ele>107.8050537</ele>
        <time>2013-05-19T07:14:06Z</time>
      </trkpt>
      <trkpt lat="44.86813" lon="0.60406">
        <ele>110.6888428</ele>
        <time>2013-05-19T07:14:12Z</time>
      </trkpt>
      <trkpt lat="44.86809" lon="0.60414">
        <ele>111.1695557</ele>
        <time>2013-05-19T07:14:16Z</time>
      </trkpt>
      <trkpt lat="44.86802" lon="0.60424">
        <ele>108.7662354</ele>
        <time>2013-05-19T07:14:21Z</time>
      </trkpt>
      <trkpt lat="44.86795" lon="0.60439">
        <ele>106.3630371</ele>
        <time>2013-05-19T07:14:26Z</time>
      </trkpt>
      <trkpt lat="44.86787" lon="0.60455">
        <ele>106.3630371</ele>
        <time>2013-05-19T07:14:32Z</time>
      </trkpt>
      <trkpt lat="44.8678" lon="0.6047">
        <ele>106.8436279</ele>
        <time>2013-05-19T07:14:37Z</time>
      </trkpt>
      <trkpt lat="44.86774" lon="0.60488">
        <ele>106.8436279</ele>
        <time>2013-05-19T07:14:43Z</time>
      </trkpt>
      <trkpt lat="44.86765" lon="0.60512">
        <ele>105.8824463</ele>
        <time>2013-05-19T07:14:49Z</time>
      </trkpt>
      <trkpt lat="44.86759" lon="0.60527">
        <ele>104.4404297</ele>
        <time>2013-05-19T07:14:53Z</time>
      </trkpt>
      <trkpt lat="44.86754" lon="0.60544">
        <ele>103.4790039</ele>
        <time>2013-05-19T07:14:59Z</time>
      </trkpt>
      <trkpt lat="44.86748" lon="0.6056">
        <ele>103.4790039</ele>
        <time>2013-05-19T07:15:04Z</time>
      </trkpt>
      <trkpt lat="44.8674" lon="0.6058">
        <ele>103.4790039</ele>
        <time>2013-05-19T07:15:09Z</time>
      </trkpt>
      <trkpt lat="44.86734" lon="0.60597">
        <ele>104.4404297</ele>
        <time>2013-05-19T07:15:14Z</time>
      </trkpt>
      <trkpt lat="44.86728" lon="0.60613">
        <ele>105.8824463</ele>
        <time>2013-05-19T07:15:19Z</time>
      </trkpt>
      <trkpt lat="44.86719" lon="0.60632">
        <ele>104.9210205</ele>
        <time>2013-05-19T07:15:25Z</time>
      </trkpt>
      <trkpt lat="44.86713" lon="0.60641">
        <ele>105.4017334</ele>
        <time>2013-05-19T07:15:29Z</time>
      </trkpt>
      <trkpt lat="44.86704" lon="0.60653">
        <ele>105.4017334</ele>
        <time>2013-05-19T07:15:34Z</time>
      </trkpt>
      <trkpt lat="44.86695" lon="0.60642">
        <ele>105.8824463</ele>
        <time>2013-05-19T07:15:39Z</time>
      </trkpt>
      <trkpt lat="44.86687" lon="0.60626">
        <ele>104.9210205</ele>
        <time>2013-05-19T07:15:45Z</time>
      </trkpt>
      <trkpt lat="44.86679" lon="0.60611">
        <ele>104.9210205</ele>
        <time>2013-05-19T07:15:51Z</time>
      </trkpt>
      <trkpt lat="44.8667" lon="0.60598">
        <ele>106.8436279</ele>
        <time>2013-05-19T07:15:57Z</time>
      </trkpt>
      <trkpt lat="44.8666" lon="0.60587">
        <ele>105.8824463</ele>
        <time>2013-05-19T07:16:02Z</time>
      </trkpt>
      <trkpt lat="44.86652" lon="0.60578">
        <ele>106.3630371</ele>
        <time>2013-05-19T07:16:06Z</time>
      </trkpt>
      <trkpt lat="44.86644" lon="0.60579">
        <ele>107.8050537</ele>
        <time>2013-05-19T07:16:11Z</time>
      </trkpt>
      <trkpt lat="44.86629" lon="0.6059">
        <ele>101.5563965</ele>
        <time>2013-05-19T07:16:17Z</time>
      </trkpt>
      <trkpt lat="44.8662" lon="0.60593">
        <ele>97.7111816</ele>
        <time>2013-05-19T07:16:22Z</time>
      </trkpt>
      <trkpt lat="44.86611" lon="0.60598">
        <ele>94.8271484</ele>
        <time>2013-05-19T07:16:26Z</time>
      </trkpt>
      <trkpt lat="44.866" lon="0.60603">
        <ele>89.539917</ele>
        <time>2013-05-19T07:16:31Z</time>
      </trkpt>
      <trkpt lat="44.86589" lon="0.6061">
        <ele>88.5787354</ele>
        <time>2013-05-19T07:16:36Z</time>
      </trkpt>
      <trkpt lat="44.8658" lon="0.60619">
        <ele>89.0593262</ele>
        <time>2013-05-19T07:16:42Z</time>
      </trkpt>
      <trkpt lat="44.86577" lon="0.60622">
        <ele>89.0593262</ele>
        <time>2013-05-19T07:16:44Z</time>
      </trkpt>
      <trkpt lat="44.86566" lon="0.60635">
        <ele>94.3465576</ele>
        <time>2013-05-19T07:16:50Z</time>
      </trkpt>
      <trkpt lat="44.86558" lon="0.60644">
        <ele>96.7498779</ele>
        <time>2013-05-19T07:16:55Z</time>
      </trkpt>
      <trkpt lat="44.86551" lon="0.60655">
        <ele>98.6724854</ele>
        <time>2013-05-19T07:17:00Z</time>
      </trkpt>
      <trkpt lat="44.86549" lon="0.60675">
        <ele>104.4404297</ele>
        <time>2013-05-19T07:17:06Z</time>
      </trkpt>
      <trkpt lat="44.86546" lon="0.6069">
        <ele>108.2856445</ele>
        <time>2013-05-19T07:17:09Z</time>
      </trkpt>
      <trkpt lat="44.86538" lon="0.60717">
        <ele>118.8601074</ele>
        <time>2013-05-19T07:17:16Z</time>
      </trkpt>
      <trkpt lat="44.86531" lon="0.60737">
        <ele>122.7054443</ele>
        <time>2013-05-19T07:17:20Z</time>
      </trkpt>
      <trkpt lat="44.86532" lon="0.60751">
        <ele>122.2247314</ele>
        <time>2013-05-19T07:17:25Z</time>
      </trkpt>
      <trkpt lat="44.86531" lon="0.60774">
        <ele>123.1861572</ele>
        <time>2013-05-19T07:17:31Z</time>
      </trkpt>
      <trkpt lat="44.86533" lon="0.60791">
        <ele>121.2635498</ele>
        <time>2013-05-19T07:17:36Z</time>
      </trkpt>
      <trkpt lat="44.86532" lon="0.60809">
        <ele>124.1473389</ele>
        <time>2013-05-19T07:17:42Z</time>
      </trkpt>
      <trkpt lat="44.86531" lon="0.60816">
        <ele>124.1473389</ele>
        <time>2013-05-19T07:17:44Z</time>
      </trkpt>
      <trkpt lat="44.8653" lon="0.60825">
        <ele>126.5506592</ele>
        <time>2013-05-19T07:17:47Z</time>
      </trkpt>
      <trkpt lat="44.8653" lon="0.60825">
        <ele>126.5506592</ele>
        <time>2013-05-19T07:17:47Z</time>
      </trkpt>
      <trkpt lat="44.86528" lon="0.60836">
        <ele>125.1087646</ele>
        <time>2013-05-19T07:17:50Z</time>
      </trkpt>
      <trkpt lat="44.86528" lon="0.60847">
        <ele>123.1861572</ele>
        <time>2013-05-19T07:17:53Z</time>
      </trkpt>
      <trkpt lat="44.86531" lon="0.60867">
        <ele>121.2635498</ele>
        <time>2013-05-19T07:17:59Z</time>
      </trkpt>
      <trkpt lat="44.86532" lon="0.60869">
        <ele>120.7828369</ele>
        <time>2013-05-19T07:18:00Z</time>
      </trkpt>
      <trkpt lat="44.86531" lon="0.60886">
        <ele>121.2635498</ele>
        <time>2013-05-19T07:18:05Z</time>
      </trkpt>
      <trkpt lat="44.8653" lon="0.60895">
        <ele>120.7828369</ele>
        <time>2013-05-19T07:18:08Z</time>
      </trkpt>
      <trkpt lat="44.86531" lon="0.60922">
        <ele>124.6280518</ele>
        <time>2013-05-19T07:18:16Z</time>
      </trkpt>
      <trkpt lat="44.86534" lon="0.60938">
        <ele>127.0313721</ele>
        <time>2013-05-19T07:18:21Z</time>
      </trkpt>
      <trkpt lat="44.86537" lon="0.60955">
        <ele>127.0313721</ele>
        <time>2013-05-19T07:18:26Z</time>
      </trkpt>
      <trkpt lat="44.8654" lon="0.60968">
        <ele>127.0313721</ele>
        <time>2013-05-19T07:18:30Z</time>
      </trkpt>
      <trkpt lat="44.86539" lon="0.60987">
        <ele>126.5506592</ele>
        <time>2013-05-19T07:18:35Z</time>
      </trkpt>
      <trkpt lat="44.86534" lon="0.60998">
        <ele>125.5893555</ele>
        <time>2013-05-19T07:18:39Z</time>
      </trkpt>
      <trkpt lat="44.86532" lon="0.61003">
        <ele>126.0699463</ele>
        <time>2013-05-19T07:18:41Z</time>
      </trkpt>
      <trkpt lat="44.86524" lon="0.6102">
        <ele>125.5893555</ele>
        <time>2013-05-19T07:18:48Z</time>
      </trkpt>
      <trkpt lat="44.86515" lon="0.61032">
        <ele>124.1473389</ele>
        <time>2013-05-19T07:18:53Z</time>
      </trkpt>
      <trkpt lat="44.86514" lon="0.61035">
        <ele>124.1473389</ele>
        <time>2013-05-19T07:18:54Z</time>
      </trkpt>
      <trkpt lat="44.86515" lon="0.61053">
        <ele>127.0313721</ele>
        <time>2013-05-19T07:18:59Z</time>
      </trkpt>
      <trkpt lat="44.86515" lon="0.61073">
        <ele>129.4346924</ele>
        <time>2013-05-19T07:19:05Z</time>
      </trkpt>
      <trkpt lat="44.86514" lon="0.6109">
        <ele>132.3186035</ele>
        <time>2013-05-19T07:19:09Z</time>
      </trkpt>
      <trkpt lat="44.86504" lon="0.611">
        <ele>128.4733887</ele>
        <time>2013-05-19T07:19:14Z</time>
      </trkpt>
      <trkpt lat="44.86502" lon="0.6111">
        <ele>127.5119629</ele>
        <time>2013-05-19T07:19:18Z</time>
      </trkpt>
      <trkpt lat="44.86503" lon="0.61113">
        <ele>127.5119629</ele>
        <time>2013-05-19T07:19:19Z</time>
      </trkpt>
      <trkpt lat="44.86503" lon="0.61119">
        <ele>127.0313721</ele>
        <time>2013-05-19T07:19:21Z</time>
      </trkpt>
      <trkpt lat="44.86506" lon="0.61135">
        <ele>125.5893555</ele>
        <time>2013-05-19T07:19:26Z</time>
      </trkpt>
      <trkpt lat="44.86509" lon="0.6115">
        <ele>124.6280518</ele>
        <time>2013-05-19T07:19:31Z</time>
      </trkpt>
      <trkpt lat="44.86507" lon="0.61162">
        <ele>124.1473389</ele>
        <time>2013-05-19T07:19:35Z</time>
      </trkpt>
      <trkpt lat="44.86503" lon="0.61171">
        <ele>126.0699463</ele>
        <time>2013-05-19T07:19:38Z</time>
      </trkpt>
      <trkpt lat="44.86497" lon="0.6119">
        <ele>129.4346924</ele>
        <time>2013-05-19T07:19:44Z</time>
      </trkpt>
      <trkpt lat="44.86494" lon="0.61207">
        <ele>128.9541016</ele>
        <time>2013-05-19T07:19:49Z</time>
      </trkpt>
      <trkpt lat="44.8649" lon="0.61229">
        <ele>127.9925537</ele>
        <time>2013-05-19T07:19:55Z</time>
      </trkpt>
      <trkpt lat="44.86484" lon="0.61255">
        <ele>127.9925537</ele>
        <time>2013-05-19T07:20:02Z</time>
      </trkpt>
      <trkpt lat="44.86483" lon="0.61269">
        <ele>127.9925537</ele>
        <time>2013-05-19T07:20:06Z</time>
      </trkpt>
      <trkpt lat="44.86481" lon="0.61287">
        <ele>128.9541016</ele>
        <time>2013-05-19T07:20:11Z</time>
      </trkpt>
      <trkpt lat="44.86478" lon="0.61311">
        <ele>129.9152832</ele>
        <time>2013-05-19T07:20:17Z</time>
      </trkpt>
      <trkpt lat="44.86475" lon="0.61325">
        <ele>130.3959961</ele>
        <time>2013-05-19T07:20:21Z</time>
      </trkpt>
      <trkpt lat="44.86471" lon="0.61348">
        <ele>127.9925537</ele>
        <time>2013-05-19T07:20:27Z</time>
      </trkpt>
      <trkpt lat="44.86467" lon="0.61376">
        <ele>127.0313721</ele>
        <time>2013-05-19T07:20:34Z</time>
      </trkpt>
      <trkpt lat="44.86463" lon="0.61399">
        <ele>126.0699463</ele>
        <time>2013-05-19T07:20:40Z</time>
      </trkpt>
      <trkpt lat="44.86459" lon="0.61404">
        <ele>125.5893555</ele>
        <time>2013-05-19T07:20:42Z</time>
      </trkpt>
      <trkpt lat="44.86445" lon="0.61402">
        <ele>123.666748</ele>
        <time>2013-05-19T07:20:47Z</time>
      </trkpt>
      <trkpt lat="44.86432" lon="0.61393">
        <ele>123.666748</ele>
        <time>2013-05-19T07:20:53Z</time>
      </trkpt>
      <trkpt lat="44.86419" lon="0.61388">
        <ele>124.6280518</ele>
        <time>2013-05-19T07:20:58Z</time>
      </trkpt>
      <trkpt lat="44.86414" lon="0.61384">
        <ele>124.6280518</ele>
        <time>2013-05-19T07:21:00Z</time>
      </trkpt>
      <trkpt lat="44.86405" lon="0.6138">
        <ele>123.666748</ele>
        <time>2013-05-19T07:21:04Z</time>
      </trkpt>
      <trkpt lat="44.86393" lon="0.61376">
        <ele>123.666748</ele>
        <time>2013-05-19T07:21:09Z</time>
      </trkpt>
      <trkpt lat="44.86385" lon="0.61387">
        <ele>122.2247314</ele>
        <time>2013-05-19T07:21:14Z</time>
      </trkpt>
      <trkpt lat="44.86383" lon="0.61391">
        <ele>122.2247314</ele>
        <time>2013-05-19T07:21:15Z</time>
      </trkpt>
      <trkpt lat="44.86375" lon="0.61412">
        <ele>122.2247314</ele>
        <time>2013-05-19T07:21:21Z</time>
      </trkpt>
      <trkpt lat="44.86368" lon="0.61417">
        <ele>121.2635498</ele>
        <time>2013-05-19T07:21:24Z</time>
      </trkpt>
      <trkpt lat="44.86352" lon="0.61416">
        <ele>120.302124</ele>
        <time>2013-05-19T07:21:30Z</time>
      </trkpt>
      <trkpt lat="44.8634" lon="0.61411">
        <ele>119.3408203</ele>
        <time>2013-05-19T07:21:35Z</time>
      </trkpt>
      <trkpt lat="44.86327" lon="0.61405">
        <ele>117.4182129</ele>
        <time>2013-05-19T07:21:40Z</time>
      </trkpt>
      <trkpt lat="44.86312" lon="0.61403">
        <ele>115.0148926</ele>
        <time>2013-05-19T07:21:45Z</time>
      </trkpt>
      <trkpt lat="44.86292" lon="0.61399">
        <ele>111.6502686</ele>
        <time>2013-05-19T07:21:52Z</time>
      </trkpt>
      <trkpt lat="44.86277" lon="0.61392">
        <ele>110.208252</ele>
        <time>2013-05-19T07:21:58Z</time>
      </trkpt>
      <trkpt lat="44.86274" lon="0.61391">
        <ele>109.7276611</ele>
        <time>2013-05-19T07:21:59Z</time>
      </trkpt>
      <trkpt lat="44.86259" lon="0.61399">
        <ele>108.7662354</ele>
        <time>2013-05-19T07:22:05Z</time>
      </trkpt>
      <trkpt lat="44.86255" lon="0.61404">
        <ele>108.7662354</ele>
        <time>2013-05-19T07:22:07Z</time>
      </trkpt>
      <trkpt lat="44.8624" lon="0.61422">
        <ele>110.208252</ele>
        <time>2013-05-19T07:22:14Z</time>
      </trkpt>
      <trkpt lat="44.86229" lon="0.61435">
        <ele>109.2469482</ele>
        <time>2013-05-19T07:22:19Z</time>
      </trkpt>
      <trkpt lat="44.86217" lon="0.61448">
        <ele>109.2469482</ele>
        <time>2013-05-19T07:22:24Z</time>
      </trkpt>
      <trkpt lat="44.86204" lon="0.61456">
        <ele>108.2856445</ele>
        <time>2013-05-19T07:22:29Z</time>
      </trkpt>
      <trkpt lat="44.86196" lon="0.61459">
        <ele>107.8050537</ele>
        <time>2013-05-19T07:22:32Z</time>
      </trkpt>
      <trkpt lat="44.86181" lon="0.61453">
        <ele>107.8050537</ele>
        <time>2013-05-19T07:22:38Z</time>
      </trkpt>
      <trkpt lat="44.86166" lon="0.61442">
        <ele>106.3630371</ele>
        <time>2013-05-19T07:22:44Z</time>
      </trkpt>
      <trkpt lat="44.86153" lon="0.61434">
        <ele>104.4404297</ele>
        <time>2013-05-19T07:22:49Z</time>
      </trkpt>
      <trkpt lat="44.86136" lon="0.6143">
        <ele>103.9597168</ele>
        <time>2013-05-19T07:22:55Z</time>
      </trkpt>
      <trkpt lat="44.86128" lon="0.61428">
        <ele>103.4790039</ele>
        <time>2013-05-19T07:22:58Z</time>
      </trkpt>
      <trkpt lat="44.86117" lon="0.61442">
        <ele>104.4404297</ele>
        <time>2013-05-19T07:23:04Z</time>
      </trkpt>
      <trkpt lat="44.8611" lon="0.61461">
        <ele>106.3630371</ele>
        <time>2013-05-19T07:23:10Z</time>
      </trkpt>
      <trkpt lat="44.86106" lon="0.61473">
        <ele>107.3243408</ele>
        <time>2013-05-19T07:23:14Z</time>
      </trkpt>
      <trkpt lat="44.86101" lon="0.61489">
        <ele>109.7276611</ele>
        <time>2013-05-19T07:23:19Z</time>
      </trkpt>
      <trkpt lat="44.86093" lon="0.61505">
        <ele>110.208252</ele>
        <time>2013-05-19T07:23:25Z</time>
      </trkpt>
      <trkpt lat="44.86087" lon="0.61511">
        <ele>109.7276611</ele>
        <time>2013-05-19T07:23:28Z</time>
      </trkpt>
      <trkpt lat="44.86079" lon="0.61518">
        <ele>110.208252</ele>
        <time>2013-05-19T07:23:33Z</time>
      </trkpt>
      <trkpt lat="44.86077" lon="0.61525">
        <ele>110.208252</ele>
        <time>2013-05-19T07:23:35Z</time>
      </trkpt>
      <trkpt lat="44.86077" lon="0.61525">
        <ele>110.208252</ele>
        <time>2013-05-19T07:23:35Z</time>
      </trkpt>
      <trkpt lat="44.86074" lon="0.61542">
        <ele>111.1695557</ele>
        <time>2013-05-19T07:23:40Z</time>
      </trkpt>
      <trkpt lat="44.86071" lon="0.61562">
        <ele>113.572998</ele>
        <time>2013-05-19T07:23:46Z</time>
      </trkpt>
      <trkpt lat="44.8607" lon="0.6158">
        <ele>114.0535889</ele>
        <time>2013-05-19T07:23:51Z</time>
      </trkpt>
      <trkpt lat="44.86066" lon="0.61604">
        <ele>114.0535889</ele>
        <time>2013-05-19T07:23:58Z</time>
      </trkpt>
      <trkpt lat="44.86062" lon="0.61626">
        <ele>113.572998</ele>
        <time>2013-05-19T07:24:04Z</time>
      </trkpt>
      <trkpt lat="44.86058" lon="0.61648">
        <ele>112.1309814</ele>
        <time>2013-05-19T07:24:10Z</time>
      </trkpt>
      <trkpt lat="44.86053" lon="0.61671">
        <ele>110.208252</ele>
        <time>2013-05-19T07:24:16Z</time>
      </trkpt>
      <trkpt lat="44.86049" lon="0.61689">
        <ele>110.208252</ele>
        <time>2013-05-19T07:24:21Z</time>
      </trkpt>
      <trkpt lat="44.86046" lon="0.61711">
        <ele>110.6888428</ele>
        <time>2013-05-19T07:24:27Z</time>
      </trkpt>
      <trkpt lat="44.86042" lon="0.61734">
        <ele>110.6888428</ele>
        <time>2013-05-19T07:24:33Z</time>
      </trkpt>
      <trkpt lat="44.86039" lon="0.61761">
        <ele>110.208252</ele>
        <time>2013-05-19T07:24:40Z</time>
      </trkpt>
      <trkpt lat="44.86035" lon="0.61779">
        <ele>110.208252</ele>
        <time>2013-05-19T07:24:45Z</time>
      </trkpt>
      <trkpt lat="44.86031" lon="0.618">
        <ele>110.208252</ele>
        <time>2013-05-19T07:24:51Z</time>
      </trkpt>
      <trkpt lat="44.86027" lon="0.61822">
        <ele>110.6888428</ele>
        <time>2013-05-19T07:24:57Z</time>
      </trkpt>
      <trkpt lat="44.86024" lon="0.61839">
        <ele>110.6888428</ele>
        <time>2013-05-19T07:25:02Z</time>
      </trkpt>
      <trkpt lat="44.8602" lon="0.61861">
        <ele>112.6115723</ele>
        <time>2013-05-19T07:25:08Z</time>
      </trkpt>
      <trkpt lat="44.86016" lon="0.61873">
        <ele>113.572998</ele>
        <time>2013-05-19T07:25:12Z</time>
      </trkpt>
      <trkpt lat="44.86009" lon="0.61876">
        <ele>114.5341797</ele>
        <time>2013-05-19T07:25:16Z</time>
      </trkpt>
      <trkpt lat="44.85995" lon="0.6187">
        <ele>114.5341797</ele>
        <time>2013-05-19T07:25:22Z</time>
      </trkpt>
      <trkpt lat="44.85979" lon="0.61862">
        <ele>114.0535889</ele>
        <time>2013-05-19T07:25:28Z</time>
      </trkpt>
      <trkpt lat="44.85969" lon="0.61858">
        <ele>114.0535889</ele>
        <time>2013-05-19T07:25:32Z</time>
      </trkpt>
      <trkpt lat="44.85956" lon="0.61852">
        <ele>112.6115723</ele>
        <time>2013-05-19T07:25:37Z</time>
      </trkpt>
      <trkpt lat="44.8594" lon="0.61843">
        <ele>112.1309814</ele>
        <time>2013-05-19T07:25:44Z</time>
      </trkpt>
      <trkpt lat="44.8593" lon="0.61833">
        <ele>112.6115723</ele>
        <time>2013-05-19T07:25:49Z</time>
      </trkpt>
      <trkpt lat="44.85923" lon="0.61818">
        <ele>113.0922852</ele>
        <time>2013-05-19T07:25:55Z</time>
      </trkpt>
      <trkpt lat="44.85916" lon="0.61802">
        <ele>112.6115723</ele>
        <time>2013-05-19T07:26:00Z</time>
      </trkpt>
      <trkpt lat="44.85912" lon="0.61799">
        <ele>112.1309814</ele>
        <time>2013-05-19T07:26:02Z</time>
      </trkpt>
      <trkpt lat="44.85897" lon="0.61799">
        <ele>110.6888428</ele>
        <time>2013-05-19T07:26:08Z</time>
      </trkpt>
      <trkpt lat="44.8588" lon="0.61801">
        <ele>110.208252</ele>
        <time>2013-05-19T07:26:14Z</time>
      </trkpt>
      <trkpt lat="44.85876" lon="0.61802">
        <ele>109.7276611</ele>
        <time>2013-05-19T07:26:15Z</time>
      </trkpt>
      <trkpt lat="44.85865" lon="0.61802">
        <ele>109.2469482</ele>
        <time>2013-05-19T07:26:19Z</time>
      </trkpt>
      <trkpt lat="44.85862" lon="0.61802">
        <ele>108.7662354</ele>
        <time>2013-05-19T07:26:20Z</time>
      </trkpt>
      <trkpt lat="44.85848" lon="0.61795">
        <ele>106.3630371</ele>
        <time>2013-05-19T07:26:26Z</time>
      </trkpt>
      <trkpt lat="44.85827" lon="0.61797">
        <ele>103.9597168</ele>
        <time>2013-05-19T07:26:33Z</time>
      </trkpt>
      <trkpt lat="44.85815" lon="0.61799">
        <ele>101.0756836</ele>
        <time>2013-05-19T07:26:37Z</time>
      </trkpt>
      <trkpt lat="44.85798" lon="0.61804">
        <ele>97.2304688</ele>
        <time>2013-05-19T07:26:43Z</time>
      </trkpt>
      <trkpt lat="44.85791" lon="0.6181">
        <ele>96.7498779</ele>
        <time>2013-05-19T07:26:46Z</time>
      </trkpt>
      <trkpt lat="44.85776" lon="0.61823">
        <ele>96.2692871</ele>
        <time>2013-05-19T07:26:52Z</time>
      </trkpt>
      <trkpt lat="44.85761" lon="0.61838">
        <ele>93.3851318</ele>
        <time>2013-05-19T07:26:58Z</time>
      </trkpt>
      <trkpt lat="44.8575" lon="0.6185">
        <ele>92.904541</ele>
        <time>2013-05-19T07:27:03Z</time>
      </trkpt>
      <trkpt lat="44.85738" lon="0.61857">
        <ele>92.4239502</ele>
        <time>2013-05-19T07:27:07Z</time>
      </trkpt>
      <trkpt lat="44.85727" lon="0.61861">
        <ele>92.904541</ele>
        <time>2013-05-19T07:27:11Z</time>
      </trkpt>
      <trkpt lat="44.85724" lon="0.61862">
        <ele>93.3851318</ele>
        <time>2013-05-19T07:27:12Z</time>
      </trkpt>
      <trkpt lat="44.85711" lon="0.61858">
        <ele>94.3465576</ele>
        <time>2013-05-19T07:27:17Z</time>
      </trkpt>
      <trkpt lat="44.85698" lon="0.61855">
        <ele>94.3465576</ele>
        <time>2013-05-19T07:27:22Z</time>
      </trkpt>
      <trkpt lat="44.85685" lon="0.61853">
        <ele>92.904541</ele>
        <time>2013-05-19T07:27:27Z</time>
      </trkpt>
      <trkpt lat="44.85682" lon="0.61852">
        <ele>92.4239502</ele>
        <time>2013-05-19T07:27:28Z</time>
      </trkpt>
      <trkpt lat="44.85664" lon="0.61854">
        <ele>91.9432373</ele>
        <time>2013-05-19T07:27:34Z</time>
      </trkpt>
      <trkpt lat="44.85646" lon="0.61858">
        <ele>90.5013428</ele>
        <time>2013-05-19T07:27:40Z</time>
      </trkpt>
      <trkpt lat="44.85631" lon="0.61864">
        <ele>89.539917</ele>
        <time>2013-05-19T07:27:45Z</time>
      </trkpt>
      <trkpt lat="44.85623" lon="0.61869">
        <ele>89.539917</ele>
        <time>2013-05-19T07:27:48Z</time>
      </trkpt>
      <trkpt lat="44.85608" lon="0.61881">
        <ele>91.4625244</ele>
        <time>2013-05-19T07:27:54Z</time>
      </trkpt>
      <trkpt lat="44.85605" lon="0.61884">
        <ele>91.9432373</ele>
        <time>2013-05-19T07:27:56Z</time>
      </trkpt>
      <trkpt lat="44.85589" lon="0.619">
        <ele>90.0206299</ele>
        <time>2013-05-19T07:28:03Z</time>
      </trkpt>
      <trkpt lat="44.85579" lon="0.61913">
        <ele>90.0206299</ele>
        <time>2013-05-19T07:28:08Z</time>
      </trkpt>
      <trkpt lat="44.85568" lon="0.61926">
        <ele>89.539917</ele>
        <time>2013-05-19T07:28:13Z</time>
      </trkpt>
      <trkpt lat="44.85566" lon="0.61929">
        <ele>90.0206299</ele>
        <time>2013-05-19T07:28:14Z</time>
      </trkpt>
      <trkpt lat="44.85552" lon="0.6194">
        <ele>88.0980225</ele>
        <time>2013-05-19T07:28:20Z</time>
      </trkpt>
      <trkpt lat="44.8555" lon="0.61942">
        <ele>88.0980225</ele>
        <time>2013-05-19T07:28:21Z</time>
      </trkpt>
      <trkpt lat="44.85538" lon="0.6196">
        <ele>86.6560059</ele>
        <time>2013-05-19T07:28:28Z</time>
      </trkpt>
      <trkpt lat="44.85527" lon="0.61973">
        <ele>84.7333984</ele>
        <time>2013-05-19T07:28:33Z</time>
      </trkpt>
      <trkpt lat="44.85514" lon="0.61972">
        <ele>80.4074707</ele>
        <time>2013-05-19T07:28:38Z</time>
      </trkpt>
      <trkpt lat="44.85501" lon="0.61967">
        <ele>76.5621338</ele>
        <time>2013-05-19T07:28:43Z</time>
      </trkpt>
      <trkpt lat="44.85488" lon="0.61958">
        <ele>76.0814209</ele>
        <time>2013-05-19T07:28:48Z</time>
      </trkpt>
      <trkpt lat="44.85477" lon="0.61947">
        <ele>75.6008301</ele>
        <time>2013-05-19T07:28:53Z</time>
      </trkpt>
      <trkpt lat="44.85468" lon="0.61932">
        <ele>74.1588135</ele>
        <time>2013-05-19T07:28:58Z</time>
      </trkpt>
      <trkpt lat="44.85459" lon="0.61912">
        <ele>72.7169189</ele>
        <time>2013-05-19T07:29:04Z</time>
      </trkpt>
      <trkpt lat="44.85455" lon="0.619">
        <ele>72.7169189</ele>
        <time>2013-05-19T07:29:08Z</time>
      </trkpt>
      <trkpt lat="44.85454" lon="0.61897">
        <ele>72.2362061</ele>
        <time>2013-05-19T07:29:09Z</time>
      </trkpt>
      <trkpt lat="44.85454" lon="0.61897">
        <ele>72.2362061</ele>
        <time>2013-05-19T07:29:09Z</time>
      </trkpt>
      <trkpt lat="44.85449" lon="0.6188">
        <ele>71.7554932</ele>
        <time>2013-05-19T07:29:14Z</time>
      </trkpt>
      <trkpt lat="44.85442" lon="0.61863">
        <ele>71.7554932</ele>
        <time>2013-05-19T07:29:19Z</time>
      </trkpt>
      <trkpt lat="44.85441" lon="0.6186">
        <ele>71.7554932</ele>
        <time>2013-05-19T07:29:20Z</time>
      </trkpt>
      <trkpt lat="44.85427" lon="0.61848">
        <ele>69.3522949</ele>
        <time>2013-05-19T07:29:26Z</time>
      </trkpt>
      <trkpt lat="44.8542" lon="0.61844">
        <ele>67.9102783</ele>
        <time>2013-05-19T07:29:29Z</time>
      </trkpt>
      <trkpt lat="44.85404" lon="0.61836">
        <ele>64.0650635</ele>
        <time>2013-05-19T07:29:35Z</time>
      </trkpt>
      <trkpt lat="44.85394" lon="0.61829">
        <ele>60.7003174</ele>
        <time>2013-05-19T07:29:40Z</time>
      </trkpt>
      <trkpt lat="44.85381" lon="0.61818">
        <ele>57.3358154</ele>
        <time>2013-05-19T07:29:46Z</time>
      </trkpt>
      <trkpt lat="44.85369" lon="0.61809">
        <ele>53.9711914</ele>
        <time>2013-05-19T07:29:51Z</time>
      </trkpt>
      <trkpt lat="44.85359" lon="0.61803">
        <ele>52.048584</ele>
        <time>2013-05-19T07:29:55Z</time>
      </trkpt>
      <trkpt lat="44.85347" lon="0.61794">
        <ele>49.1645508</ele>
        <time>2013-05-19T07:30:00Z</time>
      </trkpt>
      <trkpt lat="44.85334" lon="0.61787">
        <ele>46.7612305</ele>
        <time>2013-05-19T07:30:05Z</time>
      </trkpt>
      <trkpt lat="44.85322" lon="0.61779">
        <ele>44.3580322</ele>
        <time>2013-05-19T07:30:10Z</time>
      </trkpt>
      <trkpt lat="44.85317" lon="0.61775">
        <ele>43.8773193</ele>
        <time>2013-05-19T07:30:12Z</time>
      </trkpt>
      <trkpt lat="44.85306" lon="0.61766">
        <ele>42.9160156</ele>
        <time>2013-05-19T07:30:17Z</time>
      </trkpt>
      <trkpt lat="44.85297" lon="0.6176">
        <ele>42.4354248</ele>
        <time>2013-05-19T07:30:21Z</time>
      </trkpt>
      <trkpt lat="44.85286" lon="0.61763">
        <ele>42.4354248</ele>
        <time>2013-05-19T07:30:25Z</time>
      </trkpt>
      <trkpt lat="44.85276" lon="0.61781">
        <ele>44.3580322</ele>
        <time>2013-05-19T07:30:30Z</time>
      </trkpt>
      <trkpt lat="44.85271" lon="0.61789">
        <ele>45.3192139</ele>
        <time>2013-05-19T07:30:33Z</time>
      </trkpt>
      <trkpt lat="44.85256" lon="0.61799">
        <ele>44.838623</ele>
        <time>2013-05-19T07:30:39Z</time>
      </trkpt>
      <trkpt lat="44.85254" lon="0.61799">
        <ele>44.838623</ele>
        <time>2013-05-19T07:30:40Z</time>
      </trkpt>
      <trkpt lat="44.85238" lon="0.61794">
        <ele>41.473999</ele>
        <time>2013-05-19T07:30:46Z</time>
      </trkpt>
      <trkpt lat="44.85233" lon="0.61792">
        <ele>40.5128174</ele>
        <time>2013-05-19T07:30:48Z</time>
      </trkpt>
      <trkpt lat="44.85217" lon="0.61791">
        <ele>35.2254639</ele>
        <time>2013-05-19T07:30:54Z</time>
      </trkpt>
      <trkpt lat="44.85204" lon="0.61792">
        <ele>32.8222656</ele>
        <time>2013-05-19T07:30:58Z</time>
      </trkpt>
      <trkpt lat="44.85192" lon="0.61786">
        <ele>30.8995361</ele>
        <time>2013-05-19T07:31:03Z</time>
      </trkpt>
      <trkpt lat="44.85174" lon="0.61778">
        <ele>32.3415527</ele>
        <time>2013-05-19T07:31:09Z</time>
      </trkpt>
      <trkpt lat="44.85162" lon="0.61779">
        <ele>32.3415527</ele>
        <time>2013-05-19T07:31:14Z</time>
      </trkpt>
      <trkpt lat="44.85151" lon="0.61795">
        <ele>34.744873</ele>
        <time>2013-05-19T07:31:20Z</time>
      </trkpt>
      <trkpt lat="44.85147" lon="0.61816">
        <ele>35.7060547</ele>
        <time>2013-05-19T07:31:26Z</time>
      </trkpt>
      <trkpt lat="44.85144" lon="0.61834">
        <ele>35.7060547</ele>
        <time>2013-05-19T07:31:31Z</time>
      </trkpt>
      <trkpt lat="44.85143" lon="0.61847">
        <ele>36.1867676</ele>
        <time>2013-05-19T07:31:35Z</time>
      </trkpt>
      <trkpt lat="44.85139" lon="0.61862">
        <ele>38.109375</ele>
        <time>2013-05-19T07:31:39Z</time>
      </trkpt>
      <trkpt lat="44.85134" lon="0.61883">
        <ele>39.0706787</ele>
        <time>2013-05-19T07:31:45Z</time>
      </trkpt>
      <trkpt lat="44.85129" lon="0.61907">
        <ele>38.109375</ele>
        <time>2013-05-19T07:31:52Z</time>
      </trkpt>
      <trkpt lat="44.85126" lon="0.61924">
        <ele>38.5900879</ele>
        <time>2013-05-19T07:31:57Z</time>
      </trkpt>
      <trkpt lat="44.8512" lon="0.61947">
        <ele>40.5128174</ele>
        <time>2013-05-19T07:32:04Z</time>
      </trkpt>
      <trkpt lat="44.8512" lon="0.61951">
        <ele>40.5128174</ele>
        <time>2013-05-19T07:32:05Z</time>
      </trkpt>
      <trkpt lat="44.85116" lon="0.61965">
        <ele>40.9934082</ele>
        <time>2013-05-19T07:32:09Z</time>
      </trkpt>
      <trkpt lat="44.85114" lon="0.61987">
        <ele>42.4354248</ele>
        <time>2013-05-19T07:32:15Z</time>
      </trkpt>
      <trkpt lat="44.85114" lon="0.62008">
        <ele>43.3966064</ele>
        <time>2013-05-19T07:32:21Z</time>
      </trkpt>
      <trkpt lat="44.85117" lon="0.62025">
        <ele>44.838623</ele>
        <time>2013-05-19T07:32:26Z</time>
      </trkpt>
      <trkpt lat="44.85121" lon="0.62045">
        <ele>45.3192139</ele>
        <time>2013-05-19T07:32:32Z</time>
      </trkpt>
      <trkpt lat="44.85123" lon="0.62061">
        <ele>44.3580322</ele>
        <time>2013-05-19T07:32:37Z</time>
      </trkpt>
      <trkpt lat="44.85127" lon="0.62085">
        <ele>44.3580322</ele>
        <time>2013-05-19T07:32:44Z</time>
      </trkpt>
      <trkpt lat="44.8513" lon="0.62102">
        <ele>44.838623</ele>
        <time>2013-05-19T07:32:49Z</time>
      </trkpt>
      <trkpt lat="44.85134" lon="0.62122">
        <ele>45.3192139</ele>
        <time>2013-05-19T07:32:55Z</time>
      </trkpt>
      <trkpt lat="44.85137" lon="0.6214">
        <ele>45.7999268</ele>
        <time>2013-05-19T07:33:00Z</time>
      </trkpt>
      <trkpt lat="44.8514" lon="0.62154">
        <ele>46.2806396</ele>
        <time>2013-05-19T07:33:04Z</time>
      </trkpt>
      <trkpt lat="44.85142" lon="0.62167">
        <ele>45.7999268</ele>
        <time>2013-05-19T07:33:08Z</time>
      </trkpt>
      <trkpt lat="44.85146" lon="0.62188">
        <ele>45.3192139</ele>
        <time>2013-05-19T07:33:14Z</time>
      </trkpt>
      <trkpt lat="44.85151" lon="0.62204">
        <ele>45.3192139</ele>
        <time>2013-05-19T07:33:19Z</time>
      </trkpt>
      <trkpt lat="44.85159" lon="0.62224">
        <ele>46.2806396</ele>
        <time>2013-05-19T07:33:25Z</time>
      </trkpt>
      <trkpt lat="44.85167" lon="0.62246">
        <ele>46.7612305</ele>
        <time>2013-05-19T07:33:32Z</time>
      </trkpt>
      <trkpt lat="44.85175" lon="0.62268">
        <ele>47.2418213</ele>
        <time>2013-05-19T07:33:39Z</time>
      </trkpt>
      <trkpt lat="44.85181" lon="0.62283">
        <ele>47.7225342</ele>
        <time>2013-05-19T07:33:44Z</time>
      </trkpt>
      <trkpt lat="44.85187" lon="0.62299">
        <ele>48.68396</ele>
        <time>2013-05-19T07:33:49Z</time>
      </trkpt>
      <trkpt lat="44.85195" lon="0.62321">
        <ele>48.68396</ele>
        <time>2013-05-19T07:33:56Z</time>
      </trkpt>
      <trkpt lat="44.85201" lon="0.62341">
        <ele>49.1645508</ele>
        <time>2013-05-19T07:34:02Z</time>
      </trkpt>
      <trkpt lat="44.85208" lon="0.62361">
        <ele>49.6452637</ele>
        <time>2013-05-19T07:34:08Z</time>
      </trkpt>
      <trkpt lat="44.85218" lon="0.62379">
        <ele>49.1645508</ele>
        <time>2013-05-19T07:34:14Z</time>
      </trkpt>
      <trkpt lat="44.85226" lon="0.62398">
        <ele>48.68396</ele>
        <time>2013-05-19T07:34:20Z</time>
      </trkpt>
      <trkpt lat="44.85235" lon="0.62411">
        <ele>51.0871582</ele>
        <time>2013-05-19T07:34:25Z</time>
      </trkpt>
      <trkpt lat="44.85247" lon="0.6243">
        <ele>53.4904785</ele>
        <time>2013-05-19T07:34:32Z</time>
      </trkpt>
      <trkpt lat="44.85254" lon="0.62445">
        <ele>53.9711914</ele>
        <time>2013-05-19T07:34:37Z</time>
      </trkpt>
      <trkpt lat="44.85263" lon="0.62463">
        <ele>54.4517822</ele>
        <time>2013-05-19T07:34:43Z</time>
      </trkpt>
      <trkpt lat="44.8527" lon="0.62477">
        <ele>54.932373</ele>
        <time>2013-05-19T07:34:48Z</time>
      </trkpt>
      <trkpt lat="44.85277" lon="0.62492">
        <ele>56.3745117</ele>
        <time>2013-05-19T07:34:53Z</time>
      </trkpt>
      <trkpt lat="44.85279" lon="0.62495">
        <ele>56.8551025</ele>
        <time>2013-05-19T07:34:54Z</time>
      </trkpt>
      <trkpt lat="44.85279" lon="0.62495">
        <ele>56.8551025</ele>
        <time>2013-05-19T07:34:54Z</time>
      </trkpt>
      <trkpt lat="44.85283" lon="0.62512">
        <ele>57.8165283</ele>
        <time>2013-05-19T07:34:59Z</time>
      </trkpt>
      <trkpt lat="44.85284" lon="0.62535">
        <ele>58.2971191</ele>
        <time>2013-05-19T07:35:05Z</time>
      </trkpt>
      <trkpt lat="44.85284" lon="0.62558">
        <ele>57.8165283</ele>
        <time>2013-05-19T07:35:11Z</time>
      </trkpt>
      <trkpt lat="44.85285" lon="0.62582">
        <ele>56.8551025</ele>
        <time>2013-05-19T07:35:17Z</time>
      </trkpt>
      <trkpt lat="44.85286" lon="0.62605">
        <ele>55.8937988</ele>
        <time>2013-05-19T07:35:23Z</time>
      </trkpt>
      <trkpt lat="44.85288" lon="0.62631">
        <ele>55.4130859</ele>
        <time>2013-05-19T07:35:30Z</time>
      </trkpt>
      <trkpt lat="44.85291" lon="0.62653">
        <ele>54.4517822</ele>
        <time>2013-05-19T07:35:36Z</time>
      </trkpt>
      <trkpt lat="44.85295" lon="0.62675">
        <ele>53.9711914</ele>
        <time>2013-05-19T07:35:42Z</time>
      </trkpt>
      <trkpt lat="44.853" lon="0.62693">
        <ele>54.4517822</ele>
        <time>2013-05-19T07:35:47Z</time>
      </trkpt>
      <trkpt lat="44.85304" lon="0.62717">
        <ele>53.0097656</ele>
        <time>2013-05-19T07:35:54Z</time>
      </trkpt>
      <trkpt lat="44.85311" lon="0.62738">
        <ele>53.4904785</ele>
        <time>2013-05-19T07:36:00Z</time>
      </trkpt>
      <trkpt lat="44.85313" lon="0.62756">
        <ele>53.4904785</ele>
        <time>2013-05-19T07:36:05Z</time>
      </trkpt>
      <trkpt lat="44.85315" lon="0.62782">
        <ele>53.4904785</ele>
        <time>2013-05-19T07:36:12Z</time>
      </trkpt>
      <trkpt lat="44.8532" lon="0.62794">
        <ele>53.4904785</ele>
        <time>2013-05-19T07:36:16Z</time>
      </trkpt>
      <trkpt lat="44.85327" lon="0.62808">
        <ele>54.4517822</ele>
        <time>2013-05-19T07:36:21Z</time>
      </trkpt>
      <trkpt lat="44.85337" lon="0.62825">
        <ele>55.8937988</ele>
        <time>2013-05-19T07:36:27Z</time>
      </trkpt>
      <trkpt lat="44.85346" lon="0.62842">
        <ele>56.8551025</ele>
        <time>2013-05-19T07:36:33Z</time>
      </trkpt>
      <trkpt lat="44.85348" lon="0.62857">
        <ele>56.3745117</ele>
        <time>2013-05-19T07:36:37Z</time>
      </trkpt>
      <trkpt lat="44.8535" lon="0.62883">
        <ele>56.8551025</ele>
        <time>2013-05-19T07:36:44Z</time>
      </trkpt>
      <trkpt lat="44.8535" lon="0.62897">
        <ele>57.8165283</ele>
        <time>2013-05-19T07:36:48Z</time>
      </trkpt>
      <trkpt lat="44.85351" lon="0.62915">
        <ele>58.2971191</ele>
        <time>2013-05-19T07:36:53Z</time>
      </trkpt>
      <trkpt lat="44.85354" lon="0.62933">
        <ele>58.2971191</ele>
        <time>2013-05-19T07:36:58Z</time>
      </trkpt>
      <trkpt lat="44.85364" lon="0.62953">
        <ele>59.2584229</ele>
        <time>2013-05-19T07:37:05Z</time>
      </trkpt>
      <trkpt lat="44.8537" lon="0.62967">
        <ele>59.7391357</ele>
        <time>2013-05-19T07:37:10Z</time>
      </trkpt>
      <trkpt lat="44.85376" lon="0.62981">
        <ele>60.2197266</ele>
        <time>2013-05-19T07:37:15Z</time>
      </trkpt>
      <trkpt lat="44.85383" lon="0.62997">
        <ele>60.7003174</ele>
        <time>2013-05-19T07:37:21Z</time>
      </trkpt>
      <trkpt lat="44.85387" lon="0.63008">
        <ele>60.2197266</ele>
        <time>2013-05-19T07:37:25Z</time>
      </trkpt>
      <trkpt lat="44.85386" lon="0.6302">
        <ele>60.7003174</ele>
        <time>2013-05-19T07:37:30Z</time>
      </trkpt>
      <trkpt lat="44.85389" lon="0.63026">
        <ele>60.2197266</ele>
        <time>2013-05-19T07:37:32Z</time>
      </trkpt>
      <trkpt lat="44.85398" lon="0.63044">
        <ele>60.2197266</ele>
        <time>2013-05-19T07:37:38Z</time>
      </trkpt>
      <trkpt lat="44.85404" lon="0.63065">
        <ele>60.2197266</ele>
        <time>2013-05-19T07:37:44Z</time>
      </trkpt>
      <trkpt lat="44.85401" lon="0.63084">
        <ele>60.2197266</ele>
        <time>2013-05-19T07:37:50Z</time>
      </trkpt>
      <trkpt lat="44.85398" lon="0.63096">
        <ele>61.1810303</ele>
        <time>2013-05-19T07:37:54Z</time>
      </trkpt>
      <trkpt lat="44.85395" lon="0.63107">
        <ele>60.7003174</ele>
        <time>2013-05-19T07:37:58Z</time>
      </trkpt>
      <trkpt lat="44.85387" lon="0.63123">
        <ele>61.6617432</ele>
        <time>2013-05-19T07:38:04Z</time>
      </trkpt>
      <trkpt lat="44.85373" lon="0.6314">
        <ele>61.1810303</ele>
        <time>2013-05-19T07:38:11Z</time>
      </trkpt>
      <trkpt lat="44.85364" lon="0.63149">
        <ele>60.7003174</ele>
        <time>2013-05-19T07:38:16Z</time>
      </trkpt>
      <trkpt lat="44.85353" lon="0.63154">
        <ele>59.7391357</ele>
        <time>2013-05-19T07:38:21Z</time>
      </trkpt>
      <trkpt lat="44.85334" lon="0.63164">
        <ele>56.3745117</ele>
        <time>2013-05-19T07:38:29Z</time>
      </trkpt>
      <trkpt lat="44.85321" lon="0.63171">
        <ele>55.8937988</ele>
        <time>2013-05-19T07:38:34Z</time>
      </trkpt>
      <trkpt lat="44.85318" lon="0.63176">
        <ele>56.3745117</ele>
        <time>2013-05-19T07:38:36Z</time>
      </trkpt>
      <trkpt lat="44.85313" lon="0.63196">
        <ele>55.4130859</ele>
        <time>2013-05-19T07:38:41Z</time>
      </trkpt>
      <trkpt lat="44.85309" lon="0.63227">
        <ele>53.4904785</ele>
        <time>2013-05-19T07:38:49Z</time>
      </trkpt>
      <trkpt lat="44.85307" lon="0.63247">
        <ele>52.048584</ele>
        <time>2013-05-19T07:38:54Z</time>
      </trkpt>
      <trkpt lat="44.85306" lon="0.63274">
        <ele>51.0871582</ele>
        <time>2013-05-19T07:39:01Z</time>
      </trkpt>
      <trkpt lat="44.85307" lon="0.63293">
        <ele>51.5678711</ele>
        <time>2013-05-19T07:39:06Z</time>
      </trkpt>
      <trkpt lat="44.85314" lon="0.63311">
        <ele>52.048584</ele>
        <time>2013-05-19T07:39:11Z</time>
      </trkpt>
      <trkpt lat="44.85323" lon="0.63331">
        <ele>51.5678711</ele>
        <time>2013-05-19T07:39:17Z</time>
      </trkpt>
      <trkpt lat="44.8533" lon="0.63348">
        <ele>50.1259766</ele>
        <time>2013-05-19T07:39:22Z</time>
      </trkpt>
      <trkpt lat="44.85337" lon="0.63366">
        <ele>49.1645508</ele>
        <time>2013-05-19T07:39:27Z</time>
      </trkpt>
      <trkpt lat="44.85345" lon="0.63381">
        <ele>46.7612305</ele>
        <time>2013-05-19T07:39:32Z</time>
      </trkpt>
      <trkpt lat="44.8535" lon="0.63399">
        <ele>44.838623</ele>
        <time>2013-05-19T07:39:37Z</time>
      </trkpt>
      <trkpt lat="44.85356" lon="0.63411">
        <ele>43.3966064</ele>
        <time>2013-05-19T07:39:41Z</time>
      </trkpt>
      <trkpt lat="44.85363" lon="0.6343">
        <ele>41.9547119</ele>
        <time>2013-05-19T07:39:47Z</time>
      </trkpt>
      <trkpt lat="44.85368" lon="0.63447">
        <ele>43.3966064</ele>
        <time>2013-05-19T07:39:52Z</time>
      </trkpt>
      <trkpt lat="44.85376" lon="0.63462">
        <ele>45.7999268</ele>
        <time>2013-05-19T07:39:57Z</time>
      </trkpt>
      <trkpt lat="44.85383" lon="0.6348">
        <ele>49.6452637</ele>
        <time>2013-05-19T07:40:02Z</time>
      </trkpt>
      <trkpt lat="44.85384" lon="0.63483">
        <ele>49.6452637</ele>
        <time>2013-05-19T07:40:03Z</time>
      </trkpt>
      <trkpt lat="44.8539" lon="0.63504">
        <ele>50.1259766</ele>
        <time>2013-05-19T07:40:09Z</time>
      </trkpt>
      <trkpt lat="44.85398" lon="0.63524">
        <ele>50.1259766</ele>
        <time>2013-05-19T07:40:15Z</time>
      </trkpt>
      <trkpt lat="44.85404" lon="0.63541">
        <ele>49.1645508</ele>
        <time>2013-05-19T07:40:20Z</time>
      </trkpt>
      <trkpt lat="44.85409" lon="0.63555">
        <ele>49.6452637</ele>
        <time>2013-05-19T07:40:24Z</time>
      </trkpt>
      <trkpt lat="44.85412" lon="0.63574">
        <ele>48.68396</ele>
        <time>2013-05-19T07:40:30Z</time>
      </trkpt>
      <trkpt lat="44.85417" lon="0.63592">
        <ele>49.1645508</ele>
        <time>2013-05-19T07:40:35Z</time>
      </trkpt>
      <trkpt lat="44.85423" lon="0.63607">
        <ele>49.1645508</ele>
        <time>2013-05-19T07:40:39Z</time>
      </trkpt>
      <trkpt lat="44.85423" lon="0.63607">
        <ele>49.1645508</ele>
        <time>2013-05-19T07:40:39Z</time>
      </trkpt>
      <trkpt lat="44.85424" lon="0.6361">
        <ele>49.1645508</ele>
        <time>2013-05-19T07:40:40Z</time>
      </trkpt>
      <trkpt lat="44.85431" lon="0.63619">
        <ele>49.1645508</ele>
        <time>2013-05-19T07:40:44Z</time>
      </trkpt>
      <trkpt lat="44.85435" lon="0.63627">
        <ele>51.5678711</ele>
        <time>2013-05-19T07:40:47Z</time>
      </trkpt>
      <trkpt lat="44.85439" lon="0.63644">
        <ele>53.0097656</ele>
        <time>2013-05-19T07:40:53Z</time>
      </trkpt>
      <trkpt lat="44.85442" lon="0.63661">
        <ele>53.9711914</ele>
        <time>2013-05-19T07:40:58Z</time>
      </trkpt>
      <trkpt lat="44.8545" lon="0.63681">
        <ele>54.4517822</ele>
        <time>2013-05-19T07:41:05Z</time>
      </trkpt>
      <trkpt lat="44.85452" lon="0.63686">
        <ele>55.8937988</ele>
        <time>2013-05-19T07:41:07Z</time>
      </trkpt>
      <trkpt lat="44.85459" lon="0.63694">
        <ele>55.8937988</ele>
        <time>2013-05-19T07:41:11Z</time>
      </trkpt>
      <trkpt lat="44.85465" lon="0.63696">
        <ele>58.2971191</ele>
        <time>2013-05-19T07:41:14Z</time>
      </trkpt>
      <trkpt lat="44.85474" lon="0.63702">
        <ele>64.0650635</ele>
        <time>2013-05-19T07:41:19Z</time>
      </trkpt>
      <trkpt lat="44.8548" lon="0.63704">
        <ele>64.5456543</ele>
        <time>2013-05-19T07:41:22Z</time>
      </trkpt>
      <trkpt lat="44.85495" lon="0.6371">
        <ele>66.9489746</ele>
        <time>2013-05-19T07:41:29Z</time>
      </trkpt>
      <trkpt lat="44.85508" lon="0.63713">
        <ele>66.4682617</ele>
        <time>2013-05-19T07:41:35Z</time>
      </trkpt>
      <trkpt lat="44.85522" lon="0.63716">
        <ele>69.3522949</ele>
        <time>2013-05-19T07:41:41Z</time>
      </trkpt>
      <trkpt lat="44.85535" lon="0.63719">
        <ele>65.5070801</ele>
        <time>2013-05-19T07:41:46Z</time>
      </trkpt>
      <trkpt lat="44.85547" lon="0.63722">
        <ele>64.0650635</ele>
        <time>2013-05-19T07:41:51Z</time>
      </trkpt>
      <trkpt lat="44.85559" lon="0.63729">
        <ele>63.5843506</ele>
        <time>2013-05-19T07:41:56Z</time>
      </trkpt>
      <trkpt lat="44.8557" lon="0.63738">
        <ele>60.7003174</ele>
        <time>2013-05-19T07:42:01Z</time>
      </trkpt>
      <trkpt lat="44.85583" lon="0.63742">
        <ele>59.2584229</ele>
        <time>2013-05-19T07:42:06Z</time>
      </trkpt>
      <trkpt lat="44.85592" lon="0.63741">
        <ele>58.2971191</ele>
        <time>2013-05-19T07:42:10Z</time>
      </trkpt>
      <trkpt lat="44.85595" lon="0.6374">
        <ele>58.2971191</ele>
        <time>2013-05-19T07:42:11Z</time>
      </trkpt>
      <trkpt lat="44.85606" lon="0.63735">
        <ele>58.2971191</ele>
        <time>2013-05-19T07:42:16Z</time>
      </trkpt>
      <trkpt lat="44.85619" lon="0.63734">
        <ele>61.6617432</ele>
        <time>2013-05-19T07:42:22Z</time>
      </trkpt>
      <trkpt lat="44.85622" lon="0.63733">
        <ele>63.1036377</ele>
        <time>2013-05-19T07:42:23Z</time>
      </trkpt>
      <trkpt lat="44.85642" lon="0.63731">
        <ele>65.5070801</ele>
        <time>2013-05-19T07:42:31Z</time>
      </trkpt>
      <trkpt lat="44.85646" lon="0.63732">
        <ele>65.9876709</ele>
        <time>2013-05-19T07:42:33Z</time>
      </trkpt>
      <trkpt lat="44.85649" lon="0.63739">
        <ele>68.3908691</ele>
        <time>2013-05-19T07:42:37Z</time>
      </trkpt>
      <trkpt lat="44.85637" lon="0.63746">
        <ele>67.9102783</ele>
        <time>2013-05-19T07:42:43Z</time>
      </trkpt>
      <trkpt lat="44.85625" lon="0.63756">
        <ele>68.871582</ele>
        <time>2013-05-19T07:42:49Z</time>
      </trkpt>
      <trkpt lat="44.85617" lon="0.63768">
        <ele>67.9102783</ele>
        <time>2013-05-19T07:42:55Z</time>
      </trkpt>
      <trkpt lat="44.85613" lon="0.63784">
        <ele>67.4296875</ele>
        <time>2013-05-19T07:43:01Z</time>
      </trkpt>
      <trkpt lat="44.85623" lon="0.63791">
        <ele>67.9102783</ele>
        <time>2013-05-19T07:43:07Z</time>
      </trkpt>
      <trkpt lat="44.85624" lon="0.63792">
        <ele>68.3908691</ele>
        <time>2013-05-19T07:43:08Z</time>
      </trkpt>
      <trkpt lat="44.85635" lon="0.638">
        <ele>70.3134766</ele>
        <time>2013-05-19T07:43:14Z</time>
      </trkpt>
      <trkpt lat="44.85639" lon="0.63803">
        <ele>71.2749023</ele>
        <time>2013-05-19T07:43:16Z</time>
      </trkpt>
      <trkpt lat="44.85651" lon="0.63808">
        <ele>74.1588135</ele>
        <time>2013-05-19T07:43:22Z</time>
      </trkpt>
      <trkpt lat="44.85656" lon="0.63815">
        <ele>76.0814209</ele>
        <time>2013-05-19T07:43:26Z</time>
      </trkpt>
      <trkpt lat="44.85664" lon="0.63822">
        <ele>77.0428467</ele>
        <time>2013-05-19T07:43:32Z</time>
      </trkpt>
      <trkpt lat="44.85676" lon="0.63824">
        <ele>81.8493652</ele>
        <time>2013-05-19T07:43:38Z</time>
      </trkpt>
      <trkpt lat="44.85687" lon="0.63829">
        <ele>83.2913818</ele>
        <time>2013-05-19T07:43:43Z</time>
      </trkpt>
      <trkpt lat="44.85689" lon="0.63831">
        <ele>82.810791</ele>
        <time>2013-05-19T07:43:44Z</time>
      </trkpt>
      <trkpt lat="44.85694" lon="0.63843">
        <ele>81.8493652</ele>
        <time>2013-05-19T07:43:49Z</time>
      </trkpt>
      <trkpt lat="44.85696" lon="0.63851">
        <ele>83.2913818</ele>
        <time>2013-05-19T07:43:53Z</time>
      </trkpt>
      <trkpt lat="44.85698" lon="0.63858">
        <ele>85.2139893</ele>
        <time>2013-05-19T07:43:56Z</time>
      </trkpt>
      <trkpt lat="44.85699" lon="0.63866">
        <ele>84.7333984</ele>
        <time>2013-05-19T07:43:59Z</time>
      </trkpt>
      <trkpt lat="44.85702" lon="0.63877">
        <ele>88.0980225</ele>
        <time>2013-05-19T07:44:03Z</time>
      </trkpt>
      <trkpt lat="44.85701" lon="0.63889">
        <ele>89.539917</ele>
        <time>2013-05-19T07:44:06Z</time>
      </trkpt>
      <trkpt lat="44.85701" lon="0.63899">
        <ele>93.3851318</ele>
        <time>2013-05-19T07:44:10Z</time>
      </trkpt>
      <trkpt lat="44.85701" lon="0.63916">
        <ele>96.7498779</ele>
        <time>2013-05-19T07:44:15Z</time>
      </trkpt>
      <trkpt lat="44.85706" lon="0.63924">
        <ele>96.7498779</ele>
        <time>2013-05-19T07:44:19Z</time>
      </trkpt>
      <trkpt lat="44.85715" lon="0.63936">
        <ele>96.7498779</ele>
        <time>2013-05-19T07:44:26Z</time>
      </trkpt>
      <trkpt lat="44.85721" lon="0.6394">
        <ele>97.2304688</ele>
        <time>2013-05-19T07:44:29Z</time>
      </trkpt>
      <trkpt lat="44.85731" lon="0.63953">
        <ele>94.3465576</ele>
        <time>2013-05-19T07:44:37Z</time>
      </trkpt>
      <trkpt lat="44.85744" lon="0.63963">
        <ele>97.2304688</ele>
        <time>2013-05-19T07:44:43Z</time>
      </trkpt>
      <trkpt lat="44.85752" lon="0.6397">
        <ele>99.1530762</ele>
        <time>2013-05-19T07:44:47Z</time>
      </trkpt>
      <trkpt lat="44.85764" lon="0.63985">
        <ele>101.5563965</ele>
        <time>2013-05-19T07:44:54Z</time>
      </trkpt>
      <trkpt lat="44.85769" lon="0.63989">
        <ele>102.5177002</ele>
        <time>2013-05-19T07:44:56Z</time>
      </trkpt>
      <trkpt lat="44.8578" lon="0.64002">
        <ele>103.4790039</ele>
        <time>2013-05-19T07:45:02Z</time>
      </trkpt>
      <trkpt lat="44.85782" lon="0.64004">
        <ele>102.5177002</ele>
        <time>2013-05-19T07:45:03Z</time>
      </trkpt>
      <trkpt lat="44.85795" lon="0.64018">
        <ele>102.5177002</ele>
        <time>2013-05-19T07:45:10Z</time>
      </trkpt>
      <trkpt lat="44.85805" lon="0.64028">
        <ele>102.0371094</ele>
        <time>2013-05-19T07:45:15Z</time>
      </trkpt>
      <trkpt lat="44.85813" lon="0.64031">
        <ele>105.8824463</ele>
        <time>2013-05-19T07:45:19Z</time>
      </trkpt>
      <trkpt lat="44.85826" lon="0.64029">
        <ele>106.8436279</ele>
        <time>2013-05-19T07:45:25Z</time>
      </trkpt>
      <trkpt lat="44.85839" lon="0.64027">
        <ele>106.3630371</ele>
        <time>2013-05-19T07:45:31Z</time>
      </trkpt>
      <trkpt lat="44.85848" lon="0.64022">
        <ele>106.3630371</ele>
        <time>2013-05-19T07:45:36Z</time>
      </trkpt>
      <trkpt lat="44.85862" lon="0.64023">
        <ele>105.4017334</ele>
        <time>2013-05-19T07:45:42Z</time>
      </trkpt>
      <trkpt lat="44.85866" lon="0.64024">
        <ele>103.9597168</ele>
        <time>2013-05-19T07:45:44Z</time>
      </trkpt>
      <trkpt lat="44.8588" lon="0.64024">
        <ele>103.9597168</ele>
        <time>2013-05-19T07:45:50Z</time>
      </trkpt>
      <trkpt lat="44.85893" lon="0.64024">
        <ele>103.9597168</ele>
        <time>2013-05-19T07:45:55Z</time>
      </trkpt>
      <trkpt lat="44.85903" lon="0.64022">
        <ele>106.3630371</ele>
        <time>2013-05-19T07:45:59Z</time>
      </trkpt>
      <trkpt lat="44.85911" lon="0.6402">
        <ele>108.2856445</ele>
        <time>2013-05-19T07:46:03Z</time>
      </trkpt>
      <trkpt lat="44.85922" lon="0.6401">
        <ele>107.3243408</ele>
        <time>2013-05-19T07:46:08Z</time>
      </trkpt>
      <trkpt lat="44.85934" lon="0.64014">
        <ele>109.2469482</ele>
        <time>2013-05-19T07:46:14Z</time>
      </trkpt>
      <trkpt lat="44.85947" lon="0.64012">
        <ele>109.7276611</ele>
        <time>2013-05-19T07:46:20Z</time>
      </trkpt>
      <trkpt lat="44.85956" lon="0.6401">
        <ele>108.7662354</ele>
        <time>2013-05-19T07:46:24Z</time>
      </trkpt>
      <trkpt lat="44.85971" lon="0.64008">
        <ele>106.3630371</ele>
        <time>2013-05-19T07:46:31Z</time>
      </trkpt>
      <trkpt lat="44.85984" lon="0.63999">
        <ele>105.8824463</ele>
        <time>2013-05-19T07:46:37Z</time>
      </trkpt>
      <trkpt lat="44.85997" lon="0.63995">
        <ele>106.8436279</ele>
        <time>2013-05-19T07:46:42Z</time>
      </trkpt>
      <trkpt lat="44.86001" lon="0.63993">
        <ele>106.3630371</ele>
        <time>2013-05-19T07:46:44Z</time>
      </trkpt>
      <trkpt lat="44.86015" lon="0.63986">
        <ele>105.8824463</ele>
        <time>2013-05-19T07:46:50Z</time>
      </trkpt>
      <trkpt lat="44.86017" lon="0.63985">
        <ele>109.2469482</ele>
        <time>2013-05-19T07:46:51Z</time>
      </trkpt>
      <trkpt lat="44.8603" lon="0.63986">
        <ele>110.6888428</ele>
        <time>2013-05-19T07:46:56Z</time>
      </trkpt>
      <trkpt lat="44.86038" lon="0.63983">
        <ele>111.6502686</ele>
        <time>2013-05-19T07:47:00Z</time>
      </trkpt>
      <trkpt lat="44.86052" lon="0.6398">
        <ele>112.6115723</ele>
        <time>2013-05-19T07:47:06Z</time>
      </trkpt>
      <trkpt lat="44.86058" lon="0.63977">
        <ele>114.5341797</ele>
        <time>2013-05-19T07:47:09Z</time>
      </trkpt>
      <trkpt lat="44.86069" lon="0.63972">
        <ele>117.4182129</ele>
        <time>2013-05-19T07:47:13Z</time>
      </trkpt>
      <trkpt lat="44.86082" lon="0.63967">
        <ele>115.4956055</ele>
        <time>2013-05-19T07:47:18Z</time>
      </trkpt>
      <trkpt lat="44.8609" lon="0.63966">
        <ele>114.5341797</ele>
        <time>2013-05-19T07:47:21Z</time>
      </trkpt>
      <trkpt lat="44.86091" lon="0.63965">
        <ele>115.0148926</ele>
        <time>2013-05-19T07:47:22Z</time>
      </trkpt>
      <trkpt lat="44.86091" lon="0.63965">
        <ele>115.0148926</ele>
        <time>2013-05-19T07:47:22Z</time>
      </trkpt>
      <trkpt lat="44.86102" lon="0.63963">
        <ele>115.0148926</ele>
        <time>2013-05-19T07:47:27Z</time>
      </trkpt>
      <trkpt lat="44.86108" lon="0.63959">
        <ele>113.572998</ele>
        <time>2013-05-19T07:47:30Z</time>
      </trkpt>
      <trkpt lat="44.86121" lon="0.63949">
        <ele>110.208252</ele>
        <time>2013-05-19T07:47:36Z</time>
      </trkpt>
      <trkpt lat="44.86137" lon="0.63937">
        <ele>106.3630371</ele>
        <time>2013-05-19T07:47:43Z</time>
      </trkpt>
      <trkpt lat="44.86145" lon="0.63927">
        <ele>103.9597168</ele>
        <time>2013-05-19T07:47:47Z</time>
      </trkpt>
      <trkpt lat="44.86156" lon="0.6391">
        <ele>99.1530762</ele>
        <time>2013-05-19T07:47:54Z</time>
      </trkpt>
      <trkpt lat="44.86162" lon="0.63893">
        <ele>97.7111816</ele>
        <time>2013-05-19T07:47:59Z</time>
      </trkpt>
      <trkpt lat="44.86168" lon="0.63871">
        <ele>96.7498779</ele>
        <time>2013-05-19T07:48:05Z</time>
      </trkpt>
      <trkpt lat="44.86172" lon="0.63856">
        <ele>97.7111816</ele>
        <time>2013-05-19T07:48:10Z</time>
      </trkpt>
      <trkpt lat="44.86169" lon="0.6384">
        <ele>98.1918945</ele>
        <time>2013-05-19T07:48:14Z</time>
      </trkpt>
      <trkpt lat="44.86166" lon="0.63821">
        <ele>97.7111816</ele>
        <time>2013-05-19T07:48:19Z</time>
      </trkpt>
      <trkpt lat="44.86169" lon="0.63799">
        <ele>94.8271484</ele>
        <time>2013-05-19T07:48:25Z</time>
      </trkpt>
      <trkpt lat="44.8617" lon="0.63788">
        <ele>94.3465576</ele>
        <time>2013-05-19T07:48:28Z</time>
      </trkpt>
      <trkpt lat="44.86177" lon="0.63783">
        <ele>93.3851318</ele>
        <time>2013-05-19T07:48:32Z</time>
      </trkpt>
      <trkpt lat="44.86188" lon="0.63786">
        <ele>93.3851318</ele>
        <time>2013-05-19T07:48:37Z</time>
      </trkpt>
      <trkpt lat="44.86198" lon="0.63787">
        <ele>94.3465576</ele>
        <time>2013-05-19T07:48:41Z</time>
      </trkpt>
      <trkpt lat="44.8621" lon="0.63789">
        <ele>95.7884521</ele>
        <time>2013-05-19T07:48:46Z</time>
      </trkpt>
      <trkpt lat="44.86227" lon="0.6379">
        <ele>97.7111816</ele>
        <time>2013-05-19T07:48:53Z</time>
      </trkpt>
      <trkpt lat="44.86242" lon="0.63787">
        <ele>98.6724854</ele>
        <time>2013-05-19T07:48:59Z</time>
      </trkpt>
      <trkpt lat="44.86252" lon="0.63786">
        <ele>100.5950928</ele>
        <time>2013-05-19T07:49:03Z</time>
      </trkpt>
      <trkpt lat="44.86265" lon="0.63784">
        <ele>101.0756836</ele>
        <time>2013-05-19T07:49:09Z</time>
      </trkpt>
      <trkpt lat="44.86278" lon="0.6378">
        <ele>103.4790039</ele>
        <time>2013-05-19T07:49:15Z</time>
      </trkpt>
      <trkpt lat="44.86288" lon="0.63777">
        <ele>107.3243408</ele>
        <time>2013-05-19T07:49:20Z</time>
      </trkpt>
      <trkpt lat="44.86302" lon="0.63776">
        <ele>111.1695557</ele>
        <time>2013-05-19T07:49:26Z</time>
      </trkpt>
      <trkpt lat="44.86311" lon="0.63778">
        <ele>113.0922852</ele>
        <time>2013-05-19T07:49:30Z</time>
      </trkpt>
      <trkpt lat="44.86312" lon="0.63789">
        <ele>116.9375</ele>
        <time>2013-05-19T07:49:34Z</time>
      </trkpt>
      <trkpt lat="44.8631" lon="0.63801">
        <ele>117.4182129</ele>
        <time>2013-05-19T07:49:38Z</time>
      </trkpt>
      <trkpt lat="44.8631" lon="0.63809">
        <ele>119.8214111</ele>
        <time>2013-05-19T07:49:42Z</time>
      </trkpt>
      <trkpt lat="44.86304" lon="0.63823">
        <ele>120.302124</ele>
        <time>2013-05-19T07:49:47Z</time>
      </trkpt>
      <trkpt lat="44.86299" lon="0.63839">
        <ele>122.7054443</ele>
        <time>2013-05-19T07:49:52Z</time>
      </trkpt>
      <trkpt lat="44.86302" lon="0.63851">
        <ele>122.7054443</ele>
        <time>2013-05-19T07:49:56Z</time>
      </trkpt>
      <trkpt lat="44.86312" lon="0.63855">
        <ele>125.5893555</ele>
        <time>2013-05-19T07:50:01Z</time>
      </trkpt>
      <trkpt lat="44.86322" lon="0.63858">
        <ele>128.4733887</ele>
        <time>2013-05-19T07:50:06Z</time>
      </trkpt>
      <trkpt lat="44.86329" lon="0.6386">
        <ele>127.9925537</ele>
        <time>2013-05-19T07:50:09Z</time>
      </trkpt>
      <trkpt lat="44.86342" lon="0.63862">
        <ele>127.5119629</ele>
        <time>2013-05-19T07:50:14Z</time>
      </trkpt>
      <trkpt lat="44.86354" lon="0.63865">
        <ele>127.9925537</ele>
        <time>2013-05-19T07:50:19Z</time>
      </trkpt>
      <trkpt lat="44.8636" lon="0.63865">
        <ele>128.9541016</ele>
        <time>2013-05-19T07:50:21Z</time>
      </trkpt>
      <trkpt lat="44.8637" lon="0.63867">
        <ele>129.4346924</ele>
        <time>2013-05-19T07:50:25Z</time>
      </trkpt>
      <trkpt lat="44.86384" lon="0.63866">
        <ele>127.9925537</ele>
        <time>2013-05-19T07:50:30Z</time>
      </trkpt>
      <trkpt lat="44.86401" lon="0.63864">
        <ele>124.1473389</ele>
        <time>2013-05-19T07:50:36Z</time>
      </trkpt>
      <trkpt lat="44.86416" lon="0.63864">
        <ele>125.5893555</ele>
        <time>2013-05-19T07:50:41Z</time>
      </trkpt>
      <trkpt lat="44.86428" lon="0.63865">
        <ele>125.5893555</ele>
        <time>2013-05-19T07:50:46Z</time>
      </trkpt>
      <trkpt lat="44.86441" lon="0.63867">
        <ele>122.7054443</ele>
        <time>2013-05-19T07:50:51Z</time>
      </trkpt>
      <trkpt lat="44.86446" lon="0.63869">
        <ele>122.2247314</ele>
        <time>2013-05-19T07:50:53Z</time>
      </trkpt>
      <trkpt lat="44.86456" lon="0.63867">
        <ele>121.2635498</ele>
        <time>2013-05-19T07:50:57Z</time>
      </trkpt>
      <trkpt lat="44.86471" lon="0.63866">
        <ele>115.9761963</ele>
        <time>2013-05-19T07:51:04Z</time>
      </trkpt>
      <trkpt lat="44.86478" lon="0.63865">
        <ele>115.9761963</ele>
        <time>2013-05-19T07:51:06Z</time>
      </trkpt>
      <trkpt lat="44.86489" lon="0.63867">
        <ele>117.8988037</ele>
        <time>2013-05-19T07:51:10Z</time>
      </trkpt>
      <trkpt lat="44.86508" lon="0.6387">
        <ele>119.8214111</ele>
        <time>2013-05-19T07:51:17Z</time>
      </trkpt>
      <trkpt lat="44.86515" lon="0.6387">
        <ele>119.8214111</ele>
        <time>2013-05-19T07:51:20Z</time>
      </trkpt>
      <trkpt lat="44.8653" lon="0.63871">
        <ele>117.8988037</ele>
        <time>2013-05-19T07:51:26Z</time>
      </trkpt>
      <trkpt lat="44.86543" lon="0.63875">
        <ele>120.7828369</ele>
        <time>2013-05-19T07:51:31Z</time>
      </trkpt>
      <trkpt lat="44.86548" lon="0.63887">
        <ele>117.4182129</ele>
        <time>2013-05-19T07:51:35Z</time>
      </trkpt>
      <trkpt lat="44.86556" lon="0.63902">
        <ele>118.3793945</ele>
        <time>2013-05-19T07:51:40Z</time>
      </trkpt>
      <trkpt lat="44.8656" lon="0.63916">
        <ele>118.8601074</ele>
        <time>2013-05-19T07:51:47Z</time>
      </trkpt>
      <trkpt lat="44.86561" lon="0.63928">
        <ele>119.3408203</ele>
        <time>2013-05-19T07:51:52Z</time>
      </trkpt>
      <trkpt lat="44.86563" lon="0.6393">
        <ele>119.3408203</ele>
        <time>2013-05-19T07:51:55Z</time>
      </trkpt>
      <trkpt lat="44.8657" lon="0.63941">
        <ele>117.4182129</ele>
        <time>2013-05-19T07:52:00Z</time>
      </trkpt>
      <trkpt lat="44.86578" lon="0.63957">
        <ele>115.0148926</ele>
        <time>2013-05-19T07:52:06Z</time>
      </trkpt>
      <trkpt lat="44.86588" lon="0.63975">
        <ele>115.9761963</ele>
        <time>2013-05-19T07:52:12Z</time>
      </trkpt>
      <trkpt lat="44.86598" lon="0.63988">
        <ele>119.8214111</ele>
        <time>2013-05-19T07:52:16Z</time>
      </trkpt>
      <trkpt lat="44.86609" lon="0.64004">
        <ele>120.7828369</ele>
        <time>2013-05-19T07:52:21Z</time>
      </trkpt>
      <trkpt lat="44.8662" lon="0.6402">
        <ele>122.7054443</ele>
        <time>2013-05-19T07:52:27Z</time>
      </trkpt>
      <trkpt lat="44.8663" lon="0.64034">
        <ele>122.7054443</ele>
        <time>2013-05-19T07:52:33Z</time>
      </trkpt>
      <trkpt lat="44.8664" lon="0.64052">
        <ele>117.4182129</ele>
        <time>2013-05-19T07:52:39Z</time>
      </trkpt>
      <trkpt lat="44.86641" lon="0.64055">
        <ele>116.9375</ele>
        <time>2013-05-19T07:52:40Z</time>
      </trkpt>
      <trkpt lat="44.86647" lon="0.64064">
        <ele>115.4956055</ele>
        <time>2013-05-19T07:52:43Z</time>
      </trkpt>
      <trkpt lat="44.86659" lon="0.64083">
        <ele>112.1309814</ele>
        <time>2013-05-19T07:52:49Z</time>
      </trkpt>
      <trkpt lat="44.86668" lon="0.64097">
        <ele>108.7662354</ele>
        <time>2013-05-19T07:52:54Z</time>
      </trkpt>
      <trkpt lat="44.86679" lon="0.64113">
        <ele>107.8050537</ele>
        <time>2013-05-19T07:53:00Z</time>
      </trkpt>
      <trkpt lat="44.86686" lon="0.64118">
        <ele>106.8436279</ele>
        <time>2013-05-19T07:53:03Z</time>
      </trkpt>
      <trkpt lat="44.86692" lon="0.64111">
        <ele>106.3630371</ele>
        <time>2013-05-19T07:53:09Z</time>
      </trkpt>
      <trkpt lat="44.86696" lon="0.64101">
        <ele>103.9597168</ele>
        <time>2013-05-19T07:53:13Z</time>
      </trkpt>
      <trkpt lat="44.867" lon="0.64086">
        <ele>100.5950928</ele>
        <time>2013-05-19T07:53:20Z</time>
      </trkpt>
      <trkpt lat="44.86705" lon="0.64083">
        <ele>99.1530762</ele>
        <time>2013-05-19T07:53:24Z</time>
      </trkpt>
      <trkpt lat="44.86715" lon="0.64078">
        <ele>98.1918945</ele>
        <time>2013-05-19T07:53:30Z</time>
      </trkpt>
      <trkpt lat="44.86726" lon="0.64072">
        <ele>98.6724854</ele>
        <time>2013-05-19T07:53:35Z</time>
      </trkpt>
      <trkpt lat="44.86733" lon="0.64072">
        <ele>99.1530762</ele>
        <time>2013-05-19T07:53:38Z</time>
      </trkpt>
      <trkpt lat="44.86736" lon="0.64074">
        <ele>99.1530762</ele>
        <time>2013-05-19T07:53:39Z</time>
      </trkpt>
      <trkpt lat="44.86736" lon="0.64074">
        <ele>99.1530762</ele>
        <time>2013-05-19T07:53:39Z</time>
      </trkpt>
      <trkpt lat="44.86744" lon="0.64078">
        <ele>101.0756836</ele>
        <time>2013-05-19T07:53:44Z</time>
      </trkpt>
      <trkpt lat="44.8675" lon="0.64081">
        <ele>100.5950928</ele>
        <time>2013-05-19T07:53:47Z</time>
      </trkpt>
      <trkpt lat="44.86768" lon="0.64081">
        <ele>103.4790039</ele>
        <time>2013-05-19T07:53:54Z</time>
      </trkpt>
      <trkpt lat="44.86782" lon="0.64082">
        <ele>107.3243408</ele>
        <time>2013-05-19T07:53:59Z</time>
      </trkpt>
      <trkpt lat="44.86796" lon="0.64088">
        <ele>109.2469482</ele>
        <time>2013-05-19T07:54:04Z</time>
      </trkpt>
      <trkpt lat="44.8681" lon="0.64091">
        <ele>111.1695557</ele>
        <time>2013-05-19T07:54:09Z</time>
      </trkpt>
      <trkpt lat="44.86821" lon="0.6409">
        <ele>112.1309814</ele>
        <time>2013-05-19T07:54:13Z</time>
      </trkpt>
      <trkpt lat="44.8683" lon="0.64086">
        <ele>114.0535889</ele>
        <time>2013-05-19T07:54:18Z</time>
      </trkpt>
      <trkpt lat="44.86838" lon="0.64083">
        <ele>117.4182129</ele>
        <time>2013-05-19T07:54:21Z</time>
      </trkpt>
      <trkpt lat="44.8685" lon="0.64083">
        <ele>117.4182129</ele>
        <time>2013-05-19T07:54:26Z</time>
      </trkpt>
      <trkpt lat="44.86862" lon="0.6409">
        <ele>116.4567871</ele>
        <time>2013-05-19T07:54:31Z</time>
      </trkpt>
      <trkpt lat="44.86871" lon="0.64096">
        <ele>115.9761963</ele>
        <time>2013-05-19T07:54:36Z</time>
      </trkpt>
      <trkpt lat="44.86875" lon="0.64098">
        <ele>116.4567871</ele>
        <time>2013-05-19T07:54:38Z</time>
      </trkpt>
      <trkpt lat="44.86885" lon="0.64104">
        <ele>115.9761963</ele>
        <time>2013-05-19T07:54:44Z</time>
      </trkpt>
      <trkpt lat="44.86887" lon="0.64105">
        <ele>115.4956055</ele>
        <time>2013-05-19T07:54:45Z</time>
      </trkpt>
      <trkpt lat="44.86901" lon="0.64112">
        <ele>120.302124</ele>
        <time>2013-05-19T07:54:52Z</time>
      </trkpt>
      <trkpt lat="44.86913" lon="0.64117">
        <ele>118.8601074</ele>
        <time>2013-05-19T07:54:57Z</time>
      </trkpt>
      <trkpt lat="44.86924" lon="0.64113">
        <ele>118.3793945</ele>
        <time>2013-05-19T07:55:02Z</time>
      </trkpt>
      <trkpt lat="44.86934" lon="0.64104">
        <ele>115.0148926</ele>
        <time>2013-05-19T07:55:07Z</time>
      </trkpt>
      <trkpt lat="44.86943" lon="0.64095">
        <ele>113.572998</ele>
        <time>2013-05-19T07:55:12Z</time>
      </trkpt>
      <trkpt lat="44.8695" lon="0.64084">
        <ele>119.3408203</ele>
        <time>2013-05-19T07:55:17Z</time>
      </trkpt>
      <trkpt lat="44.86961" lon="0.64072">
        <ele>123.1861572</ele>
        <time>2013-05-19T07:55:23Z</time>
      </trkpt>
      <trkpt lat="44.8697" lon="0.64063">
        <ele>124.1473389</ele>
        <time>2013-05-19T07:55:28Z</time>
      </trkpt>
      <trkpt lat="44.8698" lon="0.64054">
        <ele>125.5893555</ele>
        <time>2013-05-19T07:55:33Z</time>
      </trkpt>
      <trkpt lat="44.86992" lon="0.64044">
        <ele>125.5893555</ele>
        <time>2013-05-19T07:55:39Z</time>
      </trkpt>
      <trkpt lat="44.87001" lon="0.64038">
        <ele>123.666748</ele>
        <time>2013-05-19T07:55:43Z</time>
      </trkpt>
      <trkpt lat="44.87012" lon="0.6403">
        <ele>124.1473389</ele>
        <time>2013-05-19T07:55:48Z</time>
      </trkpt>
      <trkpt lat="44.87027" lon="0.64025">
        <ele>125.5893555</ele>
        <time>2013-05-19T07:55:54Z</time>
      </trkpt>
      <trkpt lat="44.87043" lon="0.64019">
        <ele>126.0699463</ele>
        <time>2013-05-19T07:56:00Z</time>
      </trkpt>
      <trkpt lat="44.87052" lon="0.64016">
        <ele>124.1473389</ele>
        <time>2013-05-19T07:56:04Z</time>
      </trkpt>
      <trkpt lat="44.87069" lon="0.64016">
        <ele>124.6280518</ele>
        <time>2013-05-19T07:56:11Z</time>
      </trkpt>
      <trkpt lat="44.87083" lon="0.6402">
        <ele>125.1087646</ele>
        <time>2013-05-19T07:56:17Z</time>
      </trkpt>
      <trkpt lat="44.87098" lon="0.64022">
        <ele>127.9925537</ele>
        <time>2013-05-19T07:56:23Z</time>
      </trkpt>
      <trkpt lat="44.87114" lon="0.6402">
        <ele>130.876709</ele>
        <time>2013-05-19T07:56:29Z</time>
      </trkpt>
      <trkpt lat="44.8713" lon="0.64021">
        <ele>131.8378906</ele>
        <time>2013-05-19T07:56:35Z</time>
      </trkpt>
      <trkpt lat="44.87141" lon="0.64019">
        <ele>131.8378906</ele>
        <time>2013-05-19T07:56:40Z</time>
      </trkpt>
      <trkpt lat="44.87155" lon="0.64026">
        <ele>131.8378906</ele>
        <time>2013-05-19T07:56:45Z</time>
      </trkpt>
      <trkpt lat="44.87169" lon="0.64034">
        <ele>132.7993164</ele>
        <time>2013-05-19T07:56:51Z</time>
      </trkpt>
      <trkpt lat="44.87179" lon="0.64039">
        <ele>132.3186035</ele>
        <time>2013-05-19T07:56:55Z</time>
      </trkpt>
      <trkpt lat="44.87187" lon="0.64045">
        <ele>131.3572998</ele>
        <time>2013-05-19T07:56:58Z</time>
      </trkpt>
      <trkpt lat="44.87201" lon="0.64053">
        <ele>133.760498</ele>
        <time>2013-05-19T07:57:04Z</time>
      </trkpt>
      <trkpt lat="44.87214" lon="0.64059">
        <ele>136.6446533</ele>
        <time>2013-05-19T07:57:09Z</time>
      </trkpt>
      <trkpt lat="44.87228" lon="0.64067">
        <ele>140.0091553</ele>
        <time>2013-05-19T07:57:14Z</time>
      </trkpt>
      <trkpt lat="44.87233" lon="0.64082">
        <ele>139.0478516</ele>
        <time>2013-05-19T07:57:18Z</time>
      </trkpt>
      <trkpt lat="44.87239" lon="0.64101">
        <ele>135.6831055</ele>
        <time>2013-05-19T07:57:23Z</time>
      </trkpt>
      <trkpt lat="44.87244" lon="0.64123">
        <ele>132.7993164</ele>
        <time>2013-05-19T07:57:29Z</time>
      </trkpt>
      <trkpt lat="44.8724" lon="0.64137">
        <ele>132.3186035</ele>
        <time>2013-05-19T07:57:33Z</time>
      </trkpt>
      <trkpt lat="44.87232" lon="0.64152">
        <ele>135.6831055</ele>
        <time>2013-05-19T07:57:39Z</time>
      </trkpt>
      <trkpt lat="44.87222" lon="0.64168">
        <ele>131.8378906</ele>
        <time>2013-05-19T07:57:44Z</time>
      </trkpt>
      <trkpt lat="44.87216" lon="0.64175">
        <ele>130.3959961</ele>
        <time>2013-05-19T07:57:47Z</time>
      </trkpt>
      <trkpt lat="44.87206" lon="0.64179">
        <ele>125.5893555</ele>
        <time>2013-05-19T07:57:52Z</time>
      </trkpt>
      <trkpt lat="44.87189" lon="0.64195">
        <ele>121.2635498</ele>
        <time>2013-05-19T07:57:59Z</time>
      </trkpt>
      <trkpt lat="44.87177" lon="0.64212">
        <ele>119.8214111</ele>
        <time>2013-05-19T07:58:04Z</time>
      </trkpt>
      <trkpt lat="44.87173" lon="0.64226">
        <ele>120.7828369</ele>
        <time>2013-05-19T07:58:09Z</time>
      </trkpt>
      <trkpt lat="44.87173" lon="0.6424">
        <ele>117.8988037</ele>
        <time>2013-05-19T07:58:14Z</time>
      </trkpt>
      <trkpt lat="44.8717" lon="0.64261">
        <ele>121.2635498</ele>
        <time>2013-05-19T07:58:20Z</time>
      </trkpt>
      <trkpt lat="44.8717" lon="0.64263">
        <ele>121.2635498</ele>
        <time>2013-05-19T07:58:21Z</time>
      </trkpt>
      <trkpt lat="44.87166" lon="0.64284">
        <ele>121.7441406</ele>
        <time>2013-05-19T07:58:27Z</time>
      </trkpt>
      <trkpt lat="44.87161" lon="0.64297">
        <ele>121.7441406</ele>
        <time>2013-05-19T07:58:31Z</time>
      </trkpt>
      <trkpt lat="44.87153" lon="0.64318">
        <ele>121.7441406</ele>
        <time>2013-05-19T07:58:37Z</time>
      </trkpt>
      <trkpt lat="44.87151" lon="0.64331">
        <ele>120.7828369</ele>
        <time>2013-05-19T07:58:41Z</time>
      </trkpt>
      <trkpt lat="44.87152" lon="0.64349">
        <ele>120.302124</ele>
        <time>2013-05-19T07:58:46Z</time>
      </trkpt>
      <trkpt lat="44.87155" lon="0.64354">
        <ele>120.7828369</ele>
        <time>2013-05-19T07:58:48Z</time>
      </trkpt>
      <trkpt lat="44.87159" lon="0.64366">
        <ele>120.7828369</ele>
        <time>2013-05-19T07:58:52Z</time>
      </trkpt>
      <trkpt lat="44.87162" lon="0.64372">
        <ele>120.302124</ele>
        <time>2013-05-19T07:58:54Z</time>
      </trkpt>
      <trkpt lat="44.87167" lon="0.64383">
        <ele>121.7441406</ele>
        <time>2013-05-19T07:58:58Z</time>
      </trkpt>
      <trkpt lat="44.87174" lon="0.64396">
        <ele>124.6280518</ele>
        <time>2013-05-19T07:59:03Z</time>
      </trkpt>
      <trkpt lat="44.87176" lon="0.64409">
        <ele>125.5893555</ele>
        <time>2013-05-19T07:59:07Z</time>
      </trkpt>
      <trkpt lat="44.87185" lon="0.6442">
        <ele>125.1087646</ele>
        <time>2013-05-19T07:59:11Z</time>
      </trkpt>
      <trkpt lat="44.87189" lon="0.64431">
        <ele>124.6280518</ele>
        <time>2013-05-19T07:59:15Z</time>
      </trkpt>
      <trkpt lat="44.87191" lon="0.6444">
        <ele>125.1087646</ele>
        <time>2013-05-19T07:59:18Z</time>
      </trkpt>
      <trkpt lat="44.87203" lon="0.64463">
        <ele>123.666748</ele>
        <time>2013-05-19T07:59:25Z</time>
      </trkpt>
      <trkpt lat="44.87208" lon="0.64476">
        <ele>124.6280518</ele>
        <time>2013-05-19T07:59:29Z</time>
      </trkpt>
      <trkpt lat="44.87217" lon="0.64493">
        <ele>121.7441406</ele>
        <time>2013-05-19T07:59:35Z</time>
      </trkpt>
      <trkpt lat="44.87224" lon="0.64512">
        <ele>122.2247314</ele>
        <time>2013-05-19T07:59:41Z</time>
      </trkpt>
      <trkpt lat="44.87224" lon="0.64515">
        <ele>122.2247314</ele>
        <time>2013-05-19T07:59:42Z</time>
      </trkpt>
      <trkpt lat="44.87224" lon="0.64515">
        <ele>122.2247314</ele>
        <time>2013-05-19T07:59:42Z</time>
      </trkpt>
      <trkpt lat="44.87226" lon="0.64529">
        <ele>120.302124</ele>
        <time>2013-05-19T07:59:46Z</time>
      </trkpt>
      <trkpt lat="44.87233" lon="0.64547">
        <ele>119.3408203</ele>
        <time>2013-05-19T07:59:51Z</time>
      </trkpt>
      <trkpt lat="44.87236" lon="0.64564">
        <ele>115.9761963</ele>
        <time>2013-05-19T07:59:55Z</time>
      </trkpt>
      <trkpt lat="44.87238" lon="0.64574">
        <ele>118.3793945</ele>
        <time>2013-05-19T07:59:58Z</time>
      </trkpt>
      <trkpt lat="44.87245" lon="0.64583">
        <ele>119.3408203</ele>
        <time>2013-05-19T08:00:02Z</time>
      </trkpt>
      <trkpt lat="44.87255" lon="0.64598">
        <ele>121.7441406</ele>
        <time>2013-05-19T08:00:08Z</time>
      </trkpt>
      <trkpt lat="44.87266" lon="0.64603">
        <ele>124.6280518</ele>
        <time>2013-05-19T08:00:13Z</time>
      </trkpt>
      <trkpt lat="44.8728" lon="0.646">
        <ele>127.5119629</ele>
        <time>2013-05-19T08:00:18Z</time>
      </trkpt>
      <trkpt lat="44.87288" lon="0.64596">
        <ele>128.9541016</ele>
        <time>2013-05-19T08:00:21Z</time>
      </trkpt>
      <trkpt lat="44.87303" lon="0.64596">
        <ele>128.9541016</ele>
        <time>2013-05-19T08:00:27Z</time>
      </trkpt>
      <trkpt lat="44.87308" lon="0.64597">
        <ele>129.9152832</ele>
        <time>2013-05-19T08:00:29Z</time>
      </trkpt>
      <trkpt lat="44.87324" lon="0.64611">
        <ele>125.5893555</ele>
        <time>2013-05-19T08:00:37Z</time>
      </trkpt>
      <trkpt lat="44.87332" lon="0.64622">
        <ele>124.1473389</ele>
        <time>2013-05-19T08:00:41Z</time>
      </trkpt>
      <trkpt lat="44.87342" lon="0.64637">
        <ele>125.1087646</ele>
        <time>2013-05-19T08:00:47Z</time>
      </trkpt>
      <trkpt lat="44.8735" lon="0.64652">
        <ele>122.2247314</ele>
        <time>2013-05-19T08:00:52Z</time>
      </trkpt>
      <trkpt lat="44.87357" lon="0.64667">
        <ele>121.2635498</ele>
        <time>2013-05-19T08:00:57Z</time>
      </trkpt>
      <trkpt lat="44.87367" lon="0.64677">
        <ele>120.302124</ele>
        <time>2013-05-19T08:01:02Z</time>
      </trkpt>
      <trkpt lat="44.87376" lon="0.64683">
        <ele>119.8214111</ele>
        <time>2013-05-19T08:01:06Z</time>
      </trkpt>
      <trkpt lat="44.87382" lon="0.64689">
        <ele>118.3793945</ele>
        <time>2013-05-19T08:01:08Z</time>
      </trkpt>
      <trkpt lat="44.8739" lon="0.64709">
        <ele>118.3793945</ele>
        <time>2013-05-19T08:01:13Z</time>
      </trkpt>
      <trkpt lat="44.87396" lon="0.64729">
        <ele>115.0148926</ele>
        <time>2013-05-19T08:01:18Z</time>
      </trkpt>
      <trkpt lat="44.87397" lon="0.64733">
        <ele>114.0535889</ele>
        <time>2013-05-19T08:01:19Z</time>
      </trkpt>
      <trkpt lat="44.87399" lon="0.6474">
        <ele>113.0922852</ele>
        <time>2013-05-19T08:01:21Z</time>
      </trkpt>
      <trkpt lat="44.87405" lon="0.64751">
        <ele>108.2856445</ele>
        <time>2013-05-19T08:01:25Z</time>
      </trkpt>
      <trkpt lat="44.87424" lon="0.64757">
        <ele>107.8050537</ele>
        <time>2013-05-19T08:01:32Z</time>
      </trkpt>
      <trkpt lat="44.87434" lon="0.64758">
        <ele>110.6888428</ele>
        <time>2013-05-19T08:01:36Z</time>
      </trkpt>
      <trkpt lat="44.87441" lon="0.64762">
        <ele>107.3243408</ele>
        <time>2013-05-19T08:01:39Z</time>
      </trkpt>
      <trkpt lat="44.8745" lon="0.64773">
        <ele>107.3243408</ele>
        <time>2013-05-19T08:01:44Z</time>
      </trkpt>
      <trkpt lat="44.87456" lon="0.64784">
        <ele>111.1695557</ele>
        <time>2013-05-19T08:01:47Z</time>
      </trkpt>
      <trkpt lat="44.8746" lon="0.64804">
        <ele>105.8824463</ele>
        <time>2013-05-19T08:01:52Z</time>
      </trkpt>
      <trkpt lat="44.87464" lon="0.64819">
        <ele>106.8436279</ele>
        <time>2013-05-19T08:01:56Z</time>
      </trkpt>
      <trkpt lat="44.87472" lon="0.64837">
        <ele>100.5950928</ele>
        <time>2013-05-19T08:02:02Z</time>
      </trkpt>
      <trkpt lat="44.87481" lon="0.64851">
        <ele>95.3077393</ele>
        <time>2013-05-19T08:02:07Z</time>
      </trkpt>
      <trkpt lat="44.87487" lon="0.64862">
        <ele>95.3077393</ele>
        <time>2013-05-19T08:02:11Z</time>
      </trkpt>
      <trkpt lat="44.87489" lon="0.64863">
        <ele>95.3077393</ele>
        <time>2013-05-19T08:02:12Z</time>
      </trkpt>
      <trkpt lat="44.87503" lon="0.64871">
        <ele>91.9432373</ele>
        <time>2013-05-19T08:02:17Z</time>
      </trkpt>
      <trkpt lat="44.87509" lon="0.64874">
        <ele>91.9432373</ele>
        <time>2013-05-19T08:02:19Z</time>
      </trkpt>
      <trkpt lat="44.8752" lon="0.64891">
        <ele>91.9432373</ele>
        <time>2013-05-19T08:02:25Z</time>
      </trkpt>
      <trkpt lat="44.87534" lon="0.64909">
        <ele>92.4239502</ele>
        <time>2013-05-19T08:02:31Z</time>
      </trkpt>
      <trkpt lat="44.87542" lon="0.64925">
        <ele>92.904541</ele>
        <time>2013-05-19T08:02:36Z</time>
      </trkpt>
      <trkpt lat="44.8755" lon="0.64937">
        <ele>100.5950928</ele>
        <time>2013-05-19T08:02:42Z</time>
      </trkpt>
      <trkpt lat="44.87552" lon="0.64938">
        <ele>102.0371094</ele>
        <time>2013-05-19T08:02:43Z</time>
      </trkpt>
      <trkpt lat="44.87561" lon="0.64932">
        <ele>98.6724854</ele>
        <time>2013-05-19T08:02:49Z</time>
      </trkpt>
      <trkpt lat="44.87568" lon="0.64928">
        <ele>98.1918945</ele>
        <time>2013-05-19T08:02:52Z</time>
      </trkpt>
      <trkpt lat="44.87577" lon="0.64941">
        <ele>99.6337891</ele>
        <time>2013-05-19T08:02:57Z</time>
      </trkpt>
      <trkpt lat="44.8758" lon="0.64945">
        <ele>99.6337891</ele>
        <time>2013-05-19T08:02:59Z</time>
      </trkpt>
      <trkpt lat="44.87589" lon="0.64938">
        <ele>102.5177002</ele>
        <time>2013-05-19T08:03:06Z</time>
      </trkpt>
      <trkpt lat="44.87599" lon="0.6493">
        <ele>102.998291</ele>
        <time>2013-05-19T08:03:11Z</time>
      </trkpt>
      <trkpt lat="44.87602" lon="0.64928">
        <ele>102.998291</ele>
        <time>2013-05-19T08:03:12Z</time>
      </trkpt>
      <trkpt lat="44.87615" lon="0.64919">
        <ele>97.7111816</ele>
        <time>2013-05-19T08:03:18Z</time>
      </trkpt>
      <trkpt lat="44.87625" lon="0.64907">
        <ele>93.3851318</ele>
        <time>2013-05-19T08:03:23Z</time>
      </trkpt>
      <trkpt lat="44.87638" lon="0.64909">
        <ele>91.9432373</ele>
        <time>2013-05-19T08:03:28Z</time>
      </trkpt>
      <trkpt lat="44.87644" lon="0.64914">
        <ele>96.2692871</ele>
        <time>2013-05-19T08:03:32Z</time>
      </trkpt>
      <trkpt lat="44.87657" lon="0.64923">
        <ele>104.9210205</ele>
        <time>2013-05-19T08:03:39Z</time>
      </trkpt>
      <trkpt lat="44.8766" lon="0.64927">
        <ele>107.3243408</ele>
        <time>2013-05-19T08:03:41Z</time>
      </trkpt>
      <trkpt lat="44.87674" lon="0.64934">
        <ele>118.3793945</ele>
        <time>2013-05-19T08:03:47Z</time>
      </trkpt>
      <trkpt lat="44.87677" lon="0.64934">
        <ele>120.302124</ele>
        <time>2013-05-19T08:03:48Z</time>
      </trkpt>
      <trkpt lat="44.87684" lon="0.64934">
        <ele>122.2247314</ele>
        <time>2013-05-19T08:03:51Z</time>
      </trkpt>
      <trkpt lat="44.87695" lon="0.64941">
        <ele>122.7054443</ele>
        <time>2013-05-19T08:03:56Z</time>
      </trkpt>
      <trkpt lat="44.87708" lon="0.6495">
        <ele>126.0699463</ele>
        <time>2013-05-19T08:04:01Z</time>
      </trkpt>
      <trkpt lat="44.87717" lon="0.6496">
        <ele>117.8988037</ele>
        <time>2013-05-19T08:04:06Z</time>
      </trkpt>
      <trkpt lat="44.87726" lon="0.64973">
        <ele>110.208252</ele>
        <time>2013-05-19T08:04:12Z</time>
      </trkpt>
      <trkpt lat="44.87735" lon="0.64986">
        <ele>108.7662354</ele>
        <time>2013-05-19T08:04:17Z</time>
      </trkpt>
      <trkpt lat="44.8774" lon="0.64996">
        <ele>102.998291</ele>
        <time>2013-05-19T08:04:21Z</time>
      </trkpt>
      <trkpt lat="44.87743" lon="0.65">
        <ele>102.0371094</ele>
        <time>2013-05-19T08:04:23Z</time>
      </trkpt>
      <trkpt lat="44.87754" lon="0.65013">
        <ele>101.0756836</ele>
        <time>2013-05-19T08:04:30Z</time>
      </trkpt>
      <trkpt lat="44.87764" lon="0.65021">
        <ele>103.4790039</ele>
        <time>2013-05-19T08:04:35Z</time>
      </trkpt>
      <trkpt lat="44.87777" lon="0.65032">
        <ele>104.4404297</ele>
        <time>2013-05-19T08:04:42Z</time>
      </trkpt>
      <trkpt lat="44.87781" lon="0.65037">
        <ele>106.3630371</ele>
        <time>2013-05-19T08:04:45Z</time>
      </trkpt>
      <trkpt lat="44.87794" lon="0.65047">
        <ele>110.208252</ele>
        <time>2013-05-19T08:04:51Z</time>
      </trkpt>
      <trkpt lat="44.87804" lon="0.65057">
        <ele>113.0922852</ele>
        <time>2013-05-19T08:04:56Z</time>
      </trkpt>
      <trkpt lat="44.87814" lon="0.65064">
        <ele>115.9761963</ele>
        <time>2013-05-19T08:05:00Z</time>
      </trkpt>
      <trkpt lat="44.87818" lon="0.65066">
        <ele>116.4567871</ele>
        <time>2013-05-19T08:05:02Z</time>
      </trkpt>
      <trkpt lat="44.87827" lon="0.65077">
        <ele>118.3793945</ele>
        <time>2013-05-19T08:05:08Z</time>
      </trkpt>
      <trkpt lat="44.87835" lon="0.65086">
        <ele>118.3793945</ele>
        <time>2013-05-19T08:05:13Z</time>
      </trkpt>
      <trkpt lat="44.8785" lon="0.65098">
        <ele>118.3793945</ele>
        <time>2013-05-19T08:05:19Z</time>
      </trkpt>
      <trkpt lat="44.87859" lon="0.6511">
        <ele>120.302124</ele>
        <time>2013-05-19T08:05:24Z</time>
      </trkpt>
      <trkpt lat="44.87866" lon="0.65115">
        <ele>120.302124</ele>
        <time>2013-05-19T08:05:27Z</time>
      </trkpt>
      <trkpt lat="44.87879" lon="0.65121">
        <ele>120.7828369</ele>
        <time>2013-05-19T08:05:32Z</time>
      </trkpt>
      <trkpt lat="44.87893" lon="0.6513">
        <ele>120.302124</ele>
        <time>2013-05-19T08:05:37Z</time>
      </trkpt>
      <trkpt lat="44.87895" lon="0.65132">
        <ele>120.7828369</ele>
        <time>2013-05-19T08:05:38Z</time>
      </trkpt>
      <trkpt lat="44.87911" lon="0.65141">
        <ele>124.6280518</ele>
        <time>2013-05-19T08:05:44Z</time>
      </trkpt>
      <trkpt lat="44.87913" lon="0.65143">
        <ele>125.1087646</ele>
        <time>2013-05-19T08:05:45Z</time>
      </trkpt>
      <trkpt lat="44.87913" lon="0.65143">
        <ele>125.1087646</ele>
        <time>2013-05-19T08:05:45Z</time>
      </trkpt>
      <trkpt lat="44.87924" lon="0.65149">
        <ele>123.666748</ele>
        <time>2013-05-19T08:05:49Z</time>
      </trkpt>
      <trkpt lat="44.87936" lon="0.65157">
        <ele>124.6280518</ele>
        <time>2013-05-19T08:05:54Z</time>
      </trkpt>
      <trkpt lat="44.87948" lon="0.65161">
        <ele>126.0699463</ele>
        <time>2013-05-19T08:05:58Z</time>
      </trkpt>
      <trkpt lat="44.87958" lon="0.65168">
        <ele>127.0313721</ele>
        <time>2013-05-19T08:06:02Z</time>
      </trkpt>
      <trkpt lat="44.87967" lon="0.65174">
        <ele>122.2247314</ele>
        <time>2013-05-19T08:06:06Z</time>
      </trkpt>
      <trkpt lat="44.87982" lon="0.65172">
        <ele>122.2247314</ele>
        <time>2013-05-19T08:06:12Z</time>
      </trkpt>
      <trkpt lat="44.87993" lon="0.65164">
        <ele>131.3572998</ele>
        <time>2013-05-19T08:06:17Z</time>
      </trkpt>
      <trkpt lat="44.88011" lon="0.65157">
        <ele>134.7219238</ele>
        <time>2013-05-19T08:06:23Z</time>
      </trkpt>
      <trkpt lat="44.88024" lon="0.65155">
        <ele>134.7219238</ele>
        <time>2013-05-19T08:06:29Z</time>
      </trkpt>
      <trkpt lat="44.88034" lon="0.65158">
        <ele>130.876709</ele>
        <time>2013-05-19T08:06:33Z</time>
      </trkpt>
      <trkpt lat="44.88043" lon="0.65161">
        <ele>127.9925537</ele>
        <time>2013-05-19T08:06:37Z</time>
      </trkpt>
      <trkpt lat="44.88052" lon="0.65167">
        <ele>121.2635498</ele>
        <time>2013-05-19T08:06:41Z</time>
      </trkpt>
      <trkpt lat="44.88068" lon="0.65171">
        <ele>121.2635498</ele>
        <time>2013-05-19T08:06:47Z</time>
      </trkpt>
      <trkpt lat="44.88081" lon="0.65171">
        <ele>121.7441406</ele>
        <time>2013-05-19T08:06:52Z</time>
      </trkpt>
      <trkpt lat="44.88099" lon="0.65159">
        <ele>121.2635498</ele>
        <time>2013-05-19T08:06:59Z</time>
      </trkpt>
      <trkpt lat="44.88101" lon="0.65158">
        <ele>120.7828369</ele>
        <time>2013-05-19T08:07:00Z</time>
      </trkpt>
      <trkpt lat="44.88114" lon="0.65144">
        <ele>114.5341797</ele>
        <time>2013-05-19T08:07:07Z</time>
      </trkpt>
      <trkpt lat="44.88116" lon="0.65142">
        <ele>114.0535889</ele>
        <time>2013-05-19T08:07:08Z</time>
      </trkpt>
      <trkpt lat="44.88129" lon="0.65129">
        <ele>112.6115723</ele>
        <time>2013-05-19T08:07:14Z</time>
      </trkpt>
      <trkpt lat="44.88141" lon="0.65115">
        <ele>112.6115723</ele>
        <time>2013-05-19T08:07:20Z</time>
      </trkpt>
      <trkpt lat="44.88151" lon="0.65102">
        <ele>114.0535889</ele>
        <time>2013-05-19T08:07:25Z</time>
      </trkpt>
      <trkpt lat="44.88163" lon="0.65085">
        <ele>121.7441406</ele>
        <time>2013-05-19T08:07:32Z</time>
      </trkpt>
      <trkpt lat="44.88175" lon="0.65071">
        <ele>120.7828369</ele>
        <time>2013-05-19T08:07:38Z</time>
      </trkpt>
      <trkpt lat="44.88188" lon="0.65055">
        <ele>120.7828369</ele>
        <time>2013-05-19T08:07:45Z</time>
      </trkpt>
      <trkpt lat="44.882" lon="0.6504">
        <ele>119.8214111</ele>
        <time>2013-05-19T08:07:51Z</time>
      </trkpt>
      <trkpt lat="44.88212" lon="0.65026">
        <ele>118.3793945</ele>
        <time>2013-05-19T08:07:57Z</time>
      </trkpt>
      <trkpt lat="44.88223" lon="0.65014">
        <ele>116.9375</ele>
        <time>2013-05-19T08:08:02Z</time>
      </trkpt>
      <trkpt lat="44.88236" lon="0.65">
        <ele>115.0148926</ele>
        <time>2013-05-19T08:08:08Z</time>
      </trkpt>
      <trkpt lat="44.88249" lon="0.64991">
        <ele>114.5341797</ele>
        <time>2013-05-19T08:08:13Z</time>
      </trkpt>
      <trkpt lat="44.88261" lon="0.64981">
        <ele>113.572998</ele>
        <time>2013-05-19T08:08:18Z</time>
      </trkpt>
      <trkpt lat="44.88274" lon="0.64973">
        <ele>113.0922852</ele>
        <time>2013-05-19T08:08:24Z</time>
      </trkpt>
      <trkpt lat="44.88285" lon="0.64967">
        <ele>113.572998</ele>
        <time>2013-05-19T08:08:29Z</time>
      </trkpt>
      <trkpt lat="44.88296" lon="0.64961">
        <ele>113.0922852</ele>
        <time>2013-05-19T08:08:34Z</time>
      </trkpt>
      <trkpt lat="44.88301" lon="0.64958">
        <ele>113.0922852</ele>
        <time>2013-05-19T08:08:36Z</time>
      </trkpt>
      <trkpt lat="44.88312" lon="0.64951">
        <ele>114.0535889</ele>
        <time>2013-05-19T08:08:42Z</time>
      </trkpt>
      <trkpt lat="44.88327" lon="0.64941">
        <ele>113.0922852</ele>
        <time>2013-05-19T08:08:49Z</time>
      </trkpt>
      <trkpt lat="44.88334" lon="0.64936">
        <ele>109.7276611</ele>
        <time>2013-05-19T08:08:53Z</time>
      </trkpt>
      <trkpt lat="44.88346" lon="0.6493">
        <ele>109.7276611</ele>
        <time>2013-05-19T08:08:58Z</time>
      </trkpt>
      <trkpt lat="44.88361" lon="0.64919">
        <ele>113.0922852</ele>
        <time>2013-05-19T08:09:04Z</time>
      </trkpt>
      <trkpt lat="44.88373" lon="0.64912">
        <ele>113.0922852</ele>
        <time>2013-05-19T08:09:09Z</time>
      </trkpt>
      <trkpt lat="44.88386" lon="0.64906">
        <ele>114.0535889</ele>
        <time>2013-05-19T08:09:15Z</time>
      </trkpt>
      <trkpt lat="44.88398" lon="0.64899">
        <ele>117.4182129</ele>
        <time>2013-05-19T08:09:21Z</time>
      </trkpt>
      <trkpt lat="44.88409" lon="0.64893">
        <ele>120.7828369</ele>
        <time>2013-05-19T08:09:26Z</time>
      </trkpt>
      <trkpt lat="44.8842" lon="0.64887">
        <ele>124.1473389</ele>
        <time>2013-05-19T08:09:31Z</time>
      </trkpt>
      <trkpt lat="44.88433" lon="0.64879">
        <ele>126.5506592</ele>
        <time>2013-05-19T08:09:37Z</time>
      </trkpt>
      <trkpt lat="44.88443" lon="0.64872">
        <ele>125.5893555</ele>
        <time>2013-05-19T08:09:42Z</time>
      </trkpt>
      <trkpt lat="44.88454" lon="0.64866">
        <ele>128.9541016</ele>
        <time>2013-05-19T08:09:47Z</time>
      </trkpt>
      <trkpt lat="44.88458" lon="0.64863">
        <ele>133.2799072</ele>
        <time>2013-05-19T08:09:51Z</time>
      </trkpt>
      <trkpt lat="44.88458" lon="0.64862">
        <ele>132.3186035</ele>
        <time>2013-05-19T08:11:43Z</time>
      </trkpt>
      <trkpt lat="44.88459" lon="0.64861">
        <ele>132.7993164</ele>
        <time>2013-05-19T08:11:44Z</time>
      </trkpt>
      <trkpt lat="44.8846" lon="0.64857">
        <ele>132.3186035</ele>
        <time>2013-05-19T08:11:45Z</time>
      </trkpt>
      <trkpt lat="44.88462" lon="0.6484">
        <ele>127.9925537</ele>
        <time>2013-05-19T08:11:51Z</time>
      </trkpt>
      <trkpt lat="44.88464" lon="0.6483">
        <ele>126.0699463</ele>
        <time>2013-05-19T08:11:54Z</time>
      </trkpt>
      <trkpt lat="44.88468" lon="0.64802">
        <ele>124.1473389</ele>
        <time>2013-05-19T08:12:01Z</time>
      </trkpt>
      <trkpt lat="44.88471" lon="0.64776">
        <ele>122.7054443</ele>
        <time>2013-05-19T08:12:07Z</time>
      </trkpt>
      <trkpt lat="44.88473" lon="0.64751">
        <ele>121.2635498</ele>
        <time>2013-05-19T08:12:13Z</time>
      </trkpt>
      <trkpt lat="44.88473" lon="0.64732">
        <ele>122.2247314</ele>
        <time>2013-05-19T08:12:18Z</time>
      </trkpt>
      <trkpt lat="44.88471" lon="0.64711">
        <ele>122.7054443</ele>
        <time>2013-05-19T08:12:23Z</time>
      </trkpt>
      <trkpt lat="44.88469" lon="0.64691">
        <ele>122.7054443</ele>
        <time>2013-05-19T08:12:28Z</time>
      </trkpt>
      <trkpt lat="44.88467" lon="0.64671">
        <ele>123.666748</ele>
        <time>2013-05-19T08:12:33Z</time>
      </trkpt>
      <trkpt lat="44.88464" lon="0.64648">
        <ele>125.1087646</ele>
        <time>2013-05-19T08:12:39Z</time>
      </trkpt>
      <trkpt lat="44.88461" lon="0.64629">
        <ele>124.1473389</ele>
        <time>2013-05-19T08:12:44Z</time>
      </trkpt>
      <trkpt lat="44.88457" lon="0.6461">
        <ele>127.5119629</ele>
        <time>2013-05-19T08:12:49Z</time>
      </trkpt>
      <trkpt lat="44.88449" lon="0.64586">
        <ele>129.4346924</ele>
        <time>2013-05-19T08:12:55Z</time>
      </trkpt>
      <trkpt lat="44.88445" lon="0.64568">
        <ele>127.9925537</ele>
        <time>2013-05-19T08:13:00Z</time>
      </trkpt>
      <trkpt lat="44.88443" lon="0.64546">
        <ele>125.5893555</ele>
        <time>2013-05-19T08:13:06Z</time>
      </trkpt>
      <trkpt lat="44.88444" lon="0.64525">
        <ele>121.7441406</ele>
        <time>2013-05-19T08:13:12Z</time>
      </trkpt>
      <trkpt lat="44.88443" lon="0.64503">
        <ele>121.7441406</ele>
        <time>2013-05-19T08:13:18Z</time>
      </trkpt>
      <trkpt lat="44.88438" lon="0.64484">
        <ele>121.7441406</ele>
        <time>2013-05-19T08:13:23Z</time>
      </trkpt>
      <trkpt lat="44.88435" lon="0.64477">
        <ele>121.2635498</ele>
        <time>2013-05-19T08:13:25Z</time>
      </trkpt>
      <trkpt lat="44.88435" lon="0.64477">
        <ele>121.2635498</ele>
        <time>2013-05-19T08:13:25Z</time>
      </trkpt>
      <trkpt lat="44.8843" lon="0.64464">
        <ele>122.2247314</ele>
        <time>2013-05-19T08:13:29Z</time>
      </trkpt>
      <trkpt lat="44.88421" lon="0.64445">
        <ele>123.1861572</ele>
        <time>2013-05-19T08:13:35Z</time>
      </trkpt>
      <trkpt lat="44.88415" lon="0.64428">
        <ele>124.1473389</ele>
        <time>2013-05-19T08:13:40Z</time>
      </trkpt>
      <trkpt lat="44.88407" lon="0.64413">
        <ele>122.2247314</ele>
        <time>2013-05-19T08:13:45Z</time>
      </trkpt>
      <trkpt lat="44.88401" lon="0.64396">
        <ele>122.7054443</ele>
        <time>2013-05-19T08:13:50Z</time>
      </trkpt>
      <trkpt lat="44.88393" lon="0.64374">
        <ele>125.5893555</ele>
        <time>2013-05-19T08:13:56Z</time>
      </trkpt>
      <trkpt lat="44.88388" lon="0.64358">
        <ele>127.5119629</ele>
        <time>2013-05-19T08:14:00Z</time>
      </trkpt>
      <trkpt lat="44.88383" lon="0.64338">
        <ele>133.2799072</ele>
        <time>2013-05-19T08:14:05Z</time>
      </trkpt>
      <trkpt lat="44.88379" lon="0.64325">
        <ele>133.2799072</ele>
        <time>2013-05-19T08:14:09Z</time>
      </trkpt>
      <trkpt lat="44.88374" lon="0.64306">
        <ele>133.2799072</ele>
        <time>2013-05-19T08:14:14Z</time>
      </trkpt>
      <trkpt lat="44.88362" lon="0.64288">
        <ele>133.2799072</ele>
        <time>2013-05-19T08:14:20Z</time>
      </trkpt>
      <trkpt lat="44.88359" lon="0.64281">
        <ele>132.7993164</ele>
        <time>2013-05-19T08:14:22Z</time>
      </trkpt>
      <trkpt lat="44.88354" lon="0.64263">
        <ele>133.2799072</ele>
        <time>2013-05-19T08:14:27Z</time>
      </trkpt>
      <trkpt lat="44.88346" lon="0.64244">
        <ele>132.7993164</ele>
        <time>2013-05-19T08:14:33Z</time>
      </trkpt>
      <trkpt lat="44.88345" lon="0.64237">
        <ele>131.8378906</ele>
        <time>2013-05-19T08:14:35Z</time>
      </trkpt>
      <trkpt lat="44.88356" lon="0.64231">
        <ele>129.9152832</ele>
        <time>2013-05-19T08:14:40Z</time>
      </trkpt>
      <trkpt lat="44.8837" lon="0.64231">
        <ele>127.9925537</ele>
        <time>2013-05-19T08:14:45Z</time>
      </trkpt>
      <trkpt lat="44.88383" lon="0.64228">
        <ele>126.0699463</ele>
        <time>2013-05-19T08:14:50Z</time>
      </trkpt>
      <trkpt lat="44.88401" lon="0.64225">
        <ele>124.1473389</ele>
        <time>2013-05-19T08:14:56Z</time>
      </trkpt>
      <trkpt lat="44.88417" lon="0.64222">
        <ele>123.666748</ele>
        <time>2013-05-19T08:15:02Z</time>
      </trkpt>
      <trkpt lat="44.8842" lon="0.64222">
        <ele>124.1473389</ele>
        <time>2013-05-19T08:15:03Z</time>
      </trkpt>
      <trkpt lat="44.88421" lon="0.64212">
        <ele>123.1861572</ele>
        <time>2013-05-19T08:15:08Z</time>
      </trkpt>
      <trkpt lat="44.88417" lon="0.64208">
        <ele>122.2247314</ele>
        <time>2013-05-19T08:15:10Z</time>
      </trkpt>
      <trkpt lat="44.88407" lon="0.64195">
        <ele>120.302124</ele>
        <time>2013-05-19T08:15:16Z</time>
      </trkpt>
      <trkpt lat="44.884" lon="0.64178">
        <ele>119.3408203</ele>
        <time>2013-05-19T08:15:21Z</time>
      </trkpt>
      <trkpt lat="44.88395" lon="0.64165">
        <ele>119.3408203</ele>
        <time>2013-05-19T08:15:25Z</time>
      </trkpt>
      <trkpt lat="44.88388" lon="0.64143">
        <ele>120.7828369</ele>
        <time>2013-05-19T08:15:31Z</time>
      </trkpt>
      <trkpt lat="44.88381" lon="0.64121">
        <ele>122.2247314</ele>
        <time>2013-05-19T08:15:37Z</time>
      </trkpt>
      <trkpt lat="44.88374" lon="0.641">
        <ele>124.6280518</ele>
        <time>2013-05-19T08:15:43Z</time>
      </trkpt>
      <trkpt lat="44.88368" lon="0.64081">
        <ele>126.0699463</ele>
        <time>2013-05-19T08:15:48Z</time>
      </trkpt>
      <trkpt lat="44.88363" lon="0.6406">
        <ele>127.5119629</ele>
        <time>2013-05-19T08:15:54Z</time>
      </trkpt>
      <trkpt lat="44.88357" lon="0.64041">
        <ele>127.0313721</ele>
        <time>2013-05-19T08:15:59Z</time>
      </trkpt>
      <trkpt lat="44.88347" lon="0.64013">
        <ele>124.6280518</ele>
        <time>2013-05-19T08:16:07Z</time>
      </trkpt>
      <trkpt lat="44.88339" lon="0.63991">
        <ele>124.6280518</ele>
        <time>2013-05-19T08:16:13Z</time>
      </trkpt>
      <trkpt lat="44.88328" lon="0.63967">
        <ele>123.666748</ele>
        <time>2013-05-19T08:16:20Z</time>
      </trkpt>
      <trkpt lat="44.88318" lon="0.6395">
        <ele>122.2247314</ele>
        <time>2013-05-19T08:16:26Z</time>
      </trkpt>
      <trkpt lat="44.88307" lon="0.63939">
        <ele>120.302124</ele>
        <time>2013-05-19T08:16:31Z</time>
      </trkpt>
      <trkpt lat="44.88302" lon="0.63935">
        <ele>120.302124</ele>
        <time>2013-05-19T08:16:33Z</time>
      </trkpt>
      <trkpt lat="44.88297" lon="0.63918">
        <ele>119.3408203</ele>
        <time>2013-05-19T08:16:38Z</time>
      </trkpt>
      <trkpt lat="44.8829" lon="0.63908">
        <ele>119.3408203</ele>
        <time>2013-05-19T08:16:42Z</time>
      </trkpt>
      <trkpt lat="44.88286" lon="0.63904">
        <ele>120.7828369</ele>
        <time>2013-05-19T08:16:44Z</time>
      </trkpt>
      <trkpt lat="44.88282" lon="0.63901">
        <ele>122.7054443</ele>
        <time>2013-05-19T08:16:46Z</time>
      </trkpt>
      <trkpt lat="44.88272" lon="0.6389">
        <ele>122.2247314</ele>
        <time>2013-05-19T08:16:51Z</time>
      </trkpt>
      <trkpt lat="44.88267" lon="0.63877">
        <ele>122.7054443</ele>
        <time>2013-05-19T08:16:55Z</time>
      </trkpt>
      <trkpt lat="44.88267" lon="0.63873">
        <ele>123.1861572</ele>
        <time>2013-05-19T08:16:56Z</time>
      </trkpt>
      <trkpt lat="44.88269" lon="0.63861">
        <ele>124.1473389</ele>
        <time>2013-05-19T08:16:59Z</time>
      </trkpt>
      <trkpt lat="44.88267" lon="0.63842">
        <ele>127.9925537</ele>
        <time>2013-05-19T08:17:04Z</time>
      </trkpt>
      <trkpt lat="44.8826" lon="0.63821">
        <ele>126.0699463</ele>
        <time>2013-05-19T08:17:11Z</time>
      </trkpt>
      <trkpt lat="44.88256" lon="0.63802">
        <ele>123.666748</ele>
        <time>2013-05-19T08:17:17Z</time>
      </trkpt>
      <trkpt lat="44.88255" lon="0.63795">
        <ele>121.2635498</ele>
        <time>2013-05-19T08:17:19Z</time>
      </trkpt>
      <trkpt lat="44.88255" lon="0.63776">
        <ele>116.9375</ele>
        <time>2013-05-19T08:17:24Z</time>
      </trkpt>
      <trkpt lat="44.8826" lon="0.6376">
        <ele>111.1695557</ele>
        <time>2013-05-19T08:17:29Z</time>
      </trkpt>
      <trkpt lat="44.88264" lon="0.63741">
        <ele>109.2469482</ele>
        <time>2013-05-19T08:17:34Z</time>
      </trkpt>
      <trkpt lat="44.88271" lon="0.63729">
        <ele>104.9210205</ele>
        <time>2013-05-19T08:17:38Z</time>
      </trkpt>
      <trkpt lat="44.88279" lon="0.63716">
        <ele>99.1530762</ele>
        <time>2013-05-19T08:17:43Z</time>
      </trkpt>
      <trkpt lat="44.88282" lon="0.63701">
        <ele>95.7884521</ele>
        <time>2013-05-19T08:17:48Z</time>
      </trkpt>
      <trkpt lat="44.88284" lon="0.63694">
        <ele>93.3851318</ele>
        <time>2013-05-19T08:17:50Z</time>
      </trkpt>
      <trkpt lat="44.88292" lon="0.63668">
        <ele>93.3851318</ele>
        <time>2013-05-19T08:17:57Z</time>
      </trkpt>
      <trkpt lat="44.88298" lon="0.63649">
        <ele>94.8271484</ele>
        <time>2013-05-19T08:18:01Z</time>
      </trkpt>
      <trkpt lat="44.883" lon="0.63645">
        <ele>94.3465576</ele>
        <time>2013-05-19T08:18:02Z</time>
      </trkpt>
      <trkpt lat="44.88315" lon="0.63641">
        <ele>93.8658447</ele>
        <time>2013-05-19T08:18:08Z</time>
      </trkpt>
      <trkpt lat="44.88325" lon="0.6364">
        <ele>95.7884521</ele>
        <time>2013-05-19T08:18:12Z</time>
      </trkpt>
      <trkpt lat="44.88338" lon="0.63639">
        <ele>95.7884521</ele>
        <time>2013-05-19T08:18:17Z</time>
      </trkpt>
      <trkpt lat="44.88352" lon="0.63637">
        <ele>96.2692871</ele>
        <time>2013-05-19T08:18:22Z</time>
      </trkpt>
      <trkpt lat="44.88368" lon="0.63636">
        <ele>99.6337891</ele>
        <time>2013-05-19T08:18:28Z</time>
      </trkpt>
      <trkpt lat="44.88384" lon="0.63634">
        <ele>98.1918945</ele>
        <time>2013-05-19T08:18:34Z</time>
      </trkpt>
      <trkpt lat="44.884" lon="0.63632">
        <ele>99.6337891</ele>
        <time>2013-05-19T08:18:40Z</time>
      </trkpt>
      <trkpt lat="44.88415" lon="0.6363">
        <ele>100.114502</ele>
        <time>2013-05-19T08:18:45Z</time>
      </trkpt>
      <trkpt lat="44.88434" lon="0.63627">
        <ele>99.6337891</ele>
        <time>2013-05-19T08:18:52Z</time>
      </trkpt>
      <trkpt lat="44.88447" lon="0.63625">
        <ele>99.6337891</ele>
        <time>2013-05-19T08:18:57Z</time>
      </trkpt>
      <trkpt lat="44.88449" lon="0.63625">
        <ele>99.6337891</ele>
        <time>2013-05-19T08:18:58Z</time>
      </trkpt>
      <trkpt lat="44.88449" lon="0.63625">
        <ele>99.6337891</ele>
        <time>2013-05-19T08:18:58Z</time>
      </trkpt>
      <trkpt lat="44.88463" lon="0.63624">
        <ele>102.0371094</ele>
        <time>2013-05-19T08:19:03Z</time>
      </trkpt>
      <trkpt lat="44.88475" lon="0.63623">
        <ele>103.9597168</ele>
        <time>2013-05-19T08:19:08Z</time>
      </trkpt>
      <trkpt lat="44.88486" lon="0.63622">
        <ele>105.4017334</ele>
        <time>2013-05-19T08:19:12Z</time>
      </trkpt>
      <trkpt lat="44.88503" lon="0.6362">
        <ele>105.8824463</ele>
        <time>2013-05-19T08:19:18Z</time>
      </trkpt>
      <trkpt lat="44.88523" lon="0.63619">
        <ele>104.9210205</ele>
        <time>2013-05-19T08:19:25Z</time>
      </trkpt>
      <trkpt lat="44.88537" lon="0.63617">
        <ele>109.2469482</ele>
        <time>2013-05-19T08:19:30Z</time>
      </trkpt>
      <trkpt lat="44.88553" lon="0.63616">
        <ele>108.7662354</ele>
        <time>2013-05-19T08:19:36Z</time>
      </trkpt>
      <trkpt lat="44.88568" lon="0.63615">
        <ele>108.7662354</ele>
        <time>2013-05-19T08:19:41Z</time>
      </trkpt>
      <trkpt lat="44.88583" lon="0.63616">
        <ele>108.7662354</ele>
        <time>2013-05-19T08:19:46Z</time>
      </trkpt>
      <trkpt lat="44.88601" lon="0.63615">
        <ele>112.1309814</ele>
        <time>2013-05-19T08:19:52Z</time>
      </trkpt>
      <trkpt lat="44.88613" lon="0.63613">
        <ele>110.6888428</ele>
        <time>2013-05-19T08:19:57Z</time>
      </trkpt>
      <trkpt lat="44.8863" lon="0.63612">
        <ele>108.7662354</ele>
        <time>2013-05-19T08:20:03Z</time>
      </trkpt>
      <trkpt lat="44.88644" lon="0.63612">
        <ele>107.8050537</ele>
        <time>2013-05-19T08:20:08Z</time>
      </trkpt>
      <trkpt lat="44.88657" lon="0.63615">
        <ele>107.3243408</ele>
        <time>2013-05-19T08:20:12Z</time>
      </trkpt>
      <trkpt lat="44.88668" lon="0.63613">
        <ele>103.9597168</ele>
        <time>2013-05-19T08:20:17Z</time>
      </trkpt>
      <trkpt lat="44.88684" lon="0.63612">
        <ele>99.6337891</ele>
        <time>2013-05-19T08:20:23Z</time>
      </trkpt>
      <trkpt lat="44.88695" lon="0.63604">
        <ele>97.7111816</ele>
        <time>2013-05-19T08:20:28Z</time>
      </trkpt>
      <trkpt lat="44.88696" lon="0.63601">
        <ele>96.7498779</ele>
        <time>2013-05-19T08:20:29Z</time>
      </trkpt>
      <trkpt lat="44.88701" lon="0.63577">
        <ele>93.3851318</ele>
        <time>2013-05-19T08:20:36Z</time>
      </trkpt>
      <trkpt lat="44.88711" lon="0.63561">
        <ele>94.3465576</ele>
        <time>2013-05-19T08:20:41Z</time>
      </trkpt>
      <trkpt lat="44.88722" lon="0.63554">
        <ele>93.8658447</ele>
        <time>2013-05-19T08:20:45Z</time>
      </trkpt>
      <trkpt lat="44.8874" lon="0.63545">
        <ele>92.4239502</ele>
        <time>2013-05-19T08:20:52Z</time>
      </trkpt>
      <trkpt lat="44.88749" lon="0.63537">
        <ele>92.4239502</ele>
        <time>2013-05-19T08:20:56Z</time>
      </trkpt>
      <trkpt lat="44.88754" lon="0.63534">
        <ele>92.904541</ele>
        <time>2013-05-19T08:20:58Z</time>
      </trkpt>
      <trkpt lat="44.88767" lon="0.63522">
        <ele>91.9432373</ele>
        <time>2013-05-19T08:21:04Z</time>
      </trkpt>
      <trkpt lat="44.88772" lon="0.63513">
        <ele>89.539917</ele>
        <time>2013-05-19T08:21:08Z</time>
      </trkpt>
      <trkpt lat="44.88786" lon="0.63509">
        <ele>88.5787354</ele>
        <time>2013-05-19T08:21:14Z</time>
      </trkpt>
      <trkpt lat="44.88791" lon="0.63508">
        <ele>90.0206299</ele>
        <time>2013-05-19T08:21:16Z</time>
      </trkpt>
      <trkpt lat="44.88802" lon="0.63497">
        <ele>90.5013428</ele>
        <time>2013-05-19T08:21:22Z</time>
      </trkpt>
      <trkpt lat="44.88804" lon="0.63495">
        <ele>89.539917</ele>
        <time>2013-05-19T08:21:23Z</time>
      </trkpt>
      <trkpt lat="44.88821" lon="0.63484">
        <ele>91.4625244</ele>
        <time>2013-05-19T08:21:31Z</time>
      </trkpt>
      <trkpt lat="44.88829" lon="0.63484">
        <ele>91.4625244</ele>
        <time>2013-05-19T08:21:35Z</time>
      </trkpt>
      <trkpt lat="44.8884" lon="0.63481">
        <ele>92.4239502</ele>
        <time>2013-05-19T08:21:40Z</time>
      </trkpt>
      <trkpt lat="44.88853" lon="0.63474">
        <ele>93.3851318</ele>
        <time>2013-05-19T08:21:45Z</time>
      </trkpt>
      <trkpt lat="44.88865" lon="0.6347">
        <ele>92.904541</ele>
        <time>2013-05-19T08:21:50Z</time>
      </trkpt>
      <trkpt lat="44.88875" lon="0.63458">
        <ele>95.7884521</ele>
        <time>2013-05-19T08:21:56Z</time>
      </trkpt>
      <trkpt lat="44.88884" lon="0.63459">
        <ele>95.7884521</ele>
        <time>2013-05-19T08:22:01Z</time>
      </trkpt>
      <trkpt lat="44.8889" lon="0.63472">
        <ele>94.3465576</ele>
        <time>2013-05-19T08:22:06Z</time>
      </trkpt>
      <trkpt lat="44.88895" lon="0.63479">
        <ele>93.8658447</ele>
        <time>2013-05-19T08:22:10Z</time>
      </trkpt>
      <trkpt lat="44.88898" lon="0.63484">
        <ele>93.8658447</ele>
        <time>2013-05-19T08:22:13Z</time>
      </trkpt>
      <trkpt lat="44.889" lon="0.63489">
        <ele>94.3465576</ele>
        <time>2013-05-19T08:22:15Z</time>
      </trkpt>
      <trkpt lat="44.88905" lon="0.63506">
        <ele>95.7884521</ele>
        <time>2013-05-19T08:22:21Z</time>
      </trkpt>
      <trkpt lat="44.88904" lon="0.6352">
        <ele>103.9597168</ele>
        <time>2013-05-19T08:22:25Z</time>
      </trkpt>
      <trkpt lat="44.88907" lon="0.63533">
        <ele>109.7276611</ele>
        <time>2013-05-19T08:22:29Z</time>
      </trkpt>
      <trkpt lat="44.88913" lon="0.63548">
        <ele>110.6888428</ele>
        <time>2013-05-19T08:22:33Z</time>
      </trkpt>
      <trkpt lat="44.88915" lon="0.63553">
        <ele>111.6502686</ele>
        <time>2013-05-19T08:22:35Z</time>
      </trkpt>
      <trkpt lat="44.88928" lon="0.63558">
        <ele>113.0922852</ele>
        <time>2013-05-19T08:22:41Z</time>
      </trkpt>
      <trkpt lat="44.88934" lon="0.63559">
        <ele>112.6115723</ele>
        <time>2013-05-19T08:22:43Z</time>
      </trkpt>
      <trkpt lat="44.8894" lon="0.6356">
        <ele>112.6115723</ele>
        <time>2013-05-19T08:22:47Z</time>
      </trkpt>
      <trkpt lat="44.88945" lon="0.63561">
        <ele>114.0535889</ele>
        <time>2013-05-19T08:22:50Z</time>
      </trkpt>
      <trkpt lat="44.88958" lon="0.63564">
        <ele>115.9761963</ele>
        <time>2013-05-19T08:22:57Z</time>
      </trkpt>
      <trkpt lat="44.8896" lon="0.63565">
        <ele>116.4567871</ele>
        <time>2013-05-19T08:22:58Z</time>
      </trkpt>
      <trkpt lat="44.88965" lon="0.63567">
        <ele>114.5341797</ele>
        <time>2013-05-19T08:23:00Z</time>
      </trkpt>
      <trkpt lat="44.8897" lon="0.63566">
        <ele>115.4956055</ele>
        <time>2013-05-19T08:23:02Z</time>
      </trkpt>
      <trkpt lat="44.88985" lon="0.63567">
        <ele>114.5341797</ele>
        <time>2013-05-19T08:23:08Z</time>
      </trkpt>
      <trkpt lat="44.88998" lon="0.63567">
        <ele>115.0148926</ele>
        <time>2013-05-19T08:23:13Z</time>
      </trkpt>
      <trkpt lat="44.89013" lon="0.63566">
        <ele>115.9761963</ele>
        <time>2013-05-19T08:23:18Z</time>
      </trkpt>
      <trkpt lat="44.89025" lon="0.63565">
        <ele>119.3408203</ele>
        <time>2013-05-19T08:23:23Z</time>
      </trkpt>
      <trkpt lat="44.89035" lon="0.63565">
        <ele>122.2247314</ele>
        <time>2013-05-19T08:23:27Z</time>
      </trkpt>
      <trkpt lat="44.89045" lon="0.63567">
        <ele>121.7441406</ele>
        <time>2013-05-19T08:23:31Z</time>
      </trkpt>
      <trkpt lat="44.8906" lon="0.63566">
        <ele>120.7828369</ele>
        <time>2013-05-19T08:23:37Z</time>
      </trkpt>
      <trkpt lat="44.89072" lon="0.63567">
        <ele>120.302124</ele>
        <time>2013-05-19T08:23:42Z</time>
      </trkpt>
      <trkpt lat="44.89086" lon="0.63569">
        <ele>121.2635498</ele>
        <time>2013-05-19T08:23:47Z</time>
      </trkpt>
      <trkpt lat="44.89091" lon="0.6357">
        <ele>120.7828369</ele>
        <time>2013-05-19T08:23:49Z</time>
      </trkpt>
      <trkpt lat="44.89107" lon="0.63572">
        <ele>115.4956055</ele>
        <time>2013-05-19T08:23:55Z</time>
      </trkpt>
      <trkpt lat="44.8912" lon="0.63574">
        <ele>115.9761963</ele>
        <time>2013-05-19T08:23:59Z</time>
      </trkpt>
      <trkpt lat="44.89124" lon="0.63574">
        <ele>116.4567871</ele>
        <time>2013-05-19T08:24:00Z</time>
      </trkpt>
      <trkpt lat="44.89138" lon="0.63579">
        <ele>115.4956055</ele>
        <time>2013-05-19T08:24:05Z</time>
      </trkpt>
      <trkpt lat="44.89149" lon="0.63582">
        <ele>115.0148926</ele>
        <time>2013-05-19T08:24:09Z</time>
      </trkpt>
      <trkpt lat="44.89164" lon="0.63582">
        <ele>114.5341797</ele>
        <time>2013-05-19T08:24:14Z</time>
      </trkpt>
      <trkpt lat="44.89178" lon="0.63583">
        <ele>114.0535889</ele>
        <time>2013-05-19T08:24:19Z</time>
      </trkpt>
      <trkpt lat="44.89197" lon="0.63581">
        <ele>115.4956055</ele>
        <time>2013-05-19T08:24:26Z</time>
      </trkpt>
      <trkpt lat="44.89212" lon="0.63581">
        <ele>115.9761963</ele>
        <time>2013-05-19T08:24:31Z</time>
      </trkpt>
      <trkpt lat="44.89228" lon="0.63579">
        <ele>116.4567871</ele>
        <time>2013-05-19T08:24:37Z</time>
      </trkpt>
      <trkpt lat="44.89246" lon="0.63578">
        <ele>118.3793945</ele>
        <time>2013-05-19T08:24:44Z</time>
      </trkpt>
      <trkpt lat="44.89256" lon="0.63577">
        <ele>120.7828369</ele>
        <time>2013-05-19T08:24:48Z</time>
      </trkpt>
      <trkpt lat="44.89265" lon="0.63575">
        <ele>122.7054443</ele>
        <time>2013-05-19T08:24:52Z</time>
      </trkpt>
      <trkpt lat="44.89267" lon="0.63575">
        <ele>122.7054443</ele>
        <time>2013-05-19T08:24:53Z</time>
      </trkpt>
      <trkpt lat="44.89267" lon="0.63575">
        <ele>122.7054443</ele>
        <time>2013-05-19T08:24:53Z</time>
      </trkpt>
      <trkpt lat="44.89279" lon="0.63573">
        <ele>123.666748</ele>
        <time>2013-05-19T08:24:58Z</time>
      </trkpt>
      <trkpt lat="44.89293" lon="0.63571">
        <ele>126.0699463</ele>
        <time>2013-05-19T08:25:04Z</time>
      </trkpt>
      <trkpt lat="44.8931" lon="0.6357">
        <ele>126.5506592</ele>
        <time>2013-05-19T08:25:11Z</time>
      </trkpt>
      <trkpt lat="44.89326" lon="0.63572">
        <ele>127.0313721</ele>
        <time>2013-05-19T08:25:17Z</time>
      </trkpt>
      <trkpt lat="44.89337" lon="0.63576">
        <ele>126.5506592</ele>
        <time>2013-05-19T08:25:21Z</time>
      </trkpt>
      <trkpt lat="44.89349" lon="0.6358">
        <ele>125.5893555</ele>
        <time>2013-05-19T08:25:26Z</time>
      </trkpt>
      <trkpt lat="44.89364" lon="0.63583">
        <ele>124.1473389</ele>
        <time>2013-05-19T08:25:32Z</time>
      </trkpt>
      <trkpt lat="44.89375" lon="0.63577">
        <ele>123.666748</ele>
        <time>2013-05-19T08:25:37Z</time>
      </trkpt>
      <trkpt lat="44.89386" lon="0.63567">
        <ele>122.2247314</ele>
        <time>2013-05-19T08:25:42Z</time>
      </trkpt>
      <trkpt lat="44.894" lon="0.63558">
        <ele>120.302124</ele>
        <time>2013-05-19T08:25:47Z</time>
      </trkpt>
      <trkpt lat="44.8941" lon="0.63553">
        <ele>118.3793945</ele>
        <time>2013-05-19T08:25:51Z</time>
      </trkpt>
      <trkpt lat="44.89421" lon="0.63544">
        <ele>116.4567871</ele>
        <time>2013-05-19T08:25:56Z</time>
      </trkpt>
      <trkpt lat="44.89429" lon="0.63537">
        <ele>115.0148926</ele>
        <time>2013-05-19T08:26:00Z</time>
      </trkpt>
      <trkpt lat="44.89438" lon="0.63527">
        <ele>113.0922852</ele>
        <time>2013-05-19T08:26:04Z</time>
      </trkpt>
      <trkpt lat="44.89444" lon="0.63508">
        <ele>110.208252</ele>
        <time>2013-05-19T08:26:09Z</time>
      </trkpt>
      <trkpt lat="44.89455" lon="0.63497">
        <ele>108.7662354</ele>
        <time>2013-05-19T08:26:14Z</time>
      </trkpt>
      <trkpt lat="44.89458" lon="0.63496">
        <ele>108.7662354</ele>
        <time>2013-05-19T08:26:15Z</time>
      </trkpt>
      <trkpt lat="44.89475" lon="0.63492">
        <ele>108.2856445</ele>
        <time>2013-05-19T08:26:21Z</time>
      </trkpt>
      <trkpt lat="44.89489" lon="0.63489">
        <ele>107.3243408</ele>
        <time>2013-05-19T08:26:26Z</time>
      </trkpt>
      <trkpt lat="44.89503" lon="0.63485">
        <ele>106.3630371</ele>
        <time>2013-05-19T08:26:31Z</time>
      </trkpt>
      <trkpt lat="44.89514" lon="0.63484">
        <ele>106.3630371</ele>
        <time>2013-05-19T08:26:35Z</time>
      </trkpt>
      <trkpt lat="44.89526" lon="0.63482">
        <ele>106.3630371</ele>
        <time>2013-05-19T08:26:39Z</time>
      </trkpt>
      <trkpt lat="44.89539" lon="0.63479">
        <ele>107.3243408</ele>
        <time>2013-05-19T08:26:44Z</time>
      </trkpt>
      <trkpt lat="44.89553" lon="0.63477">
        <ele>106.8436279</ele>
        <time>2013-05-19T08:26:49Z</time>
      </trkpt>
      <trkpt lat="44.89564" lon="0.63475">
        <ele>109.2469482</ele>
        <time>2013-05-19T08:26:54Z</time>
      </trkpt>
      <trkpt lat="44.8957" lon="0.63476">
        <ele>110.208252</ele>
        <time>2013-05-19T08:26:57Z</time>
      </trkpt>
      <trkpt lat="44.89579" lon="0.63488">
        <ele>112.1309814</ele>
        <time>2013-05-19T08:27:02Z</time>
      </trkpt>
      <trkpt lat="44.89586" lon="0.63508">
        <ele>114.5341797</ele>
        <time>2013-05-19T08:27:08Z</time>
      </trkpt>
      <trkpt lat="44.8959" lon="0.63529">
        <ele>115.9761963</ele>
        <time>2013-05-19T08:27:14Z</time>
      </trkpt>
      <trkpt lat="44.89594" lon="0.6355">
        <ele>115.4956055</ele>
        <time>2013-05-19T08:27:20Z</time>
      </trkpt>
      <trkpt lat="44.89599" lon="0.63575">
        <ele>115.9761963</ele>
        <time>2013-05-19T08:27:27Z</time>
      </trkpt>
      <trkpt lat="44.896" lon="0.63577">
        <ele>115.9761963</ele>
        <time>2013-05-19T08:27:28Z</time>
      </trkpt>
      <trkpt lat="44.89605" lon="0.63571">
        <ele>114.0535889</ele>
        <time>2013-05-19T08:27:33Z</time>
      </trkpt>
      <trkpt lat="44.89606" lon="0.63561">
        <ele>112.6115723</ele>
        <time>2013-05-19T08:27:36Z</time>
      </trkpt>
      <trkpt lat="44.89608" lon="0.63537">
        <ele>108.7662354</ele>
        <time>2013-05-19T08:27:43Z</time>
      </trkpt>
      <trkpt lat="44.89609" lon="0.63516">
        <ele>108.7662354</ele>
        <time>2013-05-19T08:27:49Z</time>
      </trkpt>
      <trkpt lat="44.8961" lon="0.63501">
        <ele>108.2856445</ele>
        <time>2013-05-19T08:27:53Z</time>
      </trkpt>
      <trkpt lat="44.8961" lon="0.6348">
        <ele>107.3243408</ele>
        <time>2013-05-19T08:27:59Z</time>
      </trkpt>
      <trkpt lat="44.89614" lon="0.63466">
        <ele>106.8436279</ele>
        <time>2013-05-19T08:28:04Z</time>
      </trkpt>
      <trkpt lat="44.89625" lon="0.63456">
        <ele>105.4017334</ele>
        <time>2013-05-19T08:28:10Z</time>
      </trkpt>
      <trkpt lat="44.89633" lon="0.63451">
        <ele>111.6502686</ele>
        <time>2013-05-19T08:28:14Z</time>
      </trkpt>
      <trkpt lat="44.89648" lon="0.63445">
        <ele>115.9761963</ele>
        <time>2013-05-19T08:28:21Z</time>
      </trkpt>
      <trkpt lat="44.89657" lon="0.63442">
        <ele>117.4182129</ele>
        <time>2013-05-19T08:28:25Z</time>
      </trkpt>
      <trkpt lat="44.89672" lon="0.63436">
        <ele>118.3793945</ele>
        <time>2013-05-19T08:28:31Z</time>
      </trkpt>
      <trkpt lat="44.89686" lon="0.63428">
        <ele>120.7828369</ele>
        <time>2013-05-19T08:28:37Z</time>
      </trkpt>
      <trkpt lat="44.89703" lon="0.63427">
        <ele>122.2247314</ele>
        <time>2013-05-19T08:28:44Z</time>
      </trkpt>
      <trkpt lat="44.89718" lon="0.63426">
        <ele>124.1473389</ele>
        <time>2013-05-19T08:28:50Z</time>
      </trkpt>
      <trkpt lat="44.89731" lon="0.63424">
        <ele>125.5893555</ele>
        <time>2013-05-19T08:28:55Z</time>
      </trkpt>
      <trkpt lat="44.89743" lon="0.63419">
        <ele>127.0313721</ele>
        <time>2013-05-19T08:29:00Z</time>
      </trkpt>
      <trkpt lat="44.89759" lon="0.63416">
        <ele>127.0313721</ele>
        <time>2013-05-19T08:29:06Z</time>
      </trkpt>
      <trkpt lat="44.89772" lon="0.63411">
        <ele>125.5893555</ele>
        <time>2013-05-19T08:29:11Z</time>
      </trkpt>
      <trkpt lat="44.89783" lon="0.63398">
        <ele>123.666748</ele>
        <time>2013-05-19T08:29:16Z</time>
      </trkpt>
      <trkpt lat="44.89795" lon="0.63373">
        <ele>122.2247314</ele>
        <time>2013-05-19T08:29:23Z</time>
      </trkpt>
      <trkpt lat="44.89807" lon="0.63358">
        <ele>119.3408203</ele>
        <time>2013-05-19T08:29:28Z</time>
      </trkpt>
      <trkpt lat="44.89821" lon="0.63348">
        <ele>115.9761963</ele>
        <time>2013-05-19T08:29:33Z</time>
      </trkpt>
      <trkpt lat="44.89833" lon="0.63348">
        <ele>115.0148926</ele>
        <time>2013-05-19T08:29:37Z</time>
      </trkpt>
      <trkpt lat="44.89848" lon="0.63346">
        <ele>112.6115723</ele>
        <time>2013-05-19T08:29:42Z</time>
      </trkpt>
      <trkpt lat="44.89866" lon="0.63343">
        <ele>110.208252</ele>
        <time>2013-05-19T08:29:48Z</time>
      </trkpt>
      <trkpt lat="44.89881" lon="0.63339">
        <ele>108.7662354</ele>
        <time>2013-05-19T08:29:53Z</time>
      </trkpt>
      <trkpt lat="44.89893" lon="0.63336">
        <ele>107.8050537</ele>
        <time>2013-05-19T08:29:57Z</time>
      </trkpt>
      <trkpt lat="44.89915" lon="0.63331">
        <ele>105.8824463</ele>
        <time>2013-05-19T08:30:04Z</time>
      </trkpt>
      <trkpt lat="44.89939" lon="0.63327">
        <ele>102.998291</ele>
        <time>2013-05-19T08:30:12Z</time>
      </trkpt>
      <trkpt lat="44.89954" lon="0.63322">
        <ele>101.0756836</ele>
        <time>2013-05-19T08:30:17Z</time>
      </trkpt>
      <trkpt lat="44.89968" lon="0.63314">
        <ele>98.1918945</ele>
        <time>2013-05-19T08:30:22Z</time>
      </trkpt>
      <trkpt lat="44.8998" lon="0.63307">
        <ele>94.8271484</ele>
        <time>2013-05-19T08:30:26Z</time>
      </trkpt>
      <trkpt lat="44.89993" lon="0.63297">
        <ele>91.9432373</ele>
        <time>2013-05-19T08:30:31Z</time>
      </trkpt>
      <trkpt lat="44.89993" lon="0.63297">
        <ele>91.9432373</ele>
        <time>2013-05-19T08:30:31Z</time>
      </trkpt>
      <trkpt lat="44.89995" lon="0.63295">
        <ele>91.4625244</ele>
        <time>2013-05-19T08:30:32Z</time>
      </trkpt>
      <trkpt lat="44.90008" lon="0.63289">
        <ele>89.539917</ele>
        <time>2013-05-19T08:30:37Z</time>
      </trkpt>
      <trkpt lat="44.90019" lon="0.63287">
        <ele>87.1365967</ele>
        <time>2013-05-19T08:30:42Z</time>
      </trkpt>
      <trkpt lat="44.9003" lon="0.63287">
        <ele>84.7333984</ele>
        <time>2013-05-19T08:30:47Z</time>
      </trkpt>
      <trkpt lat="44.90041" lon="0.63285">
        <ele>85.2139893</ele>
        <time>2013-05-19T08:30:52Z</time>
      </trkpt>
      <trkpt lat="44.90057" lon="0.63277">
        <ele>83.7719727</ele>
        <time>2013-05-19T08:30:58Z</time>
      </trkpt>
      <trkpt lat="44.90062" lon="0.63274">
        <ele>84.2526855</ele>
        <time>2013-05-19T08:31:00Z</time>
      </trkpt>
      <trkpt lat="44.90076" lon="0.63271">
        <ele>83.7719727</ele>
        <time>2013-05-19T08:31:06Z</time>
      </trkpt>
      <trkpt lat="44.90087" lon="0.63263">
        <ele>82.3300781</ele>
        <time>2013-05-19T08:31:11Z</time>
      </trkpt>
      <trkpt lat="44.90097" lon="0.63261">
        <ele>80.8881836</ele>
        <time>2013-05-19T08:31:16Z</time>
      </trkpt>
      <trkpt lat="44.90107" lon="0.63254">
        <ele>78.9654541</ele>
        <time>2013-05-19T08:31:20Z</time>
      </trkpt>
      <trkpt lat="44.90118" lon="0.63237">
        <ele>75.1202393</ele>
        <time>2013-05-19T08:31:25Z</time>
      </trkpt>
      <trkpt lat="44.90128" lon="0.63234">
        <ele>72.7169189</ele>
        <time>2013-05-19T08:31:30Z</time>
      </trkpt>
      <trkpt lat="44.90136" lon="0.63245">
        <ele>69.8328857</ele>
        <time>2013-05-19T08:31:35Z</time>
      </trkpt>
      <trkpt lat="44.90144" lon="0.63266">
        <ele>66.4682617</ele>
        <time>2013-05-19T08:31:41Z</time>
      </trkpt>
      <trkpt lat="44.90152" lon="0.63279">
        <ele>66.4682617</ele>
        <time>2013-05-19T08:31:45Z</time>
      </trkpt>
      <trkpt lat="44.90159" lon="0.6329">
        <ele>66.9489746</ele>
        <time>2013-05-19T08:31:49Z</time>
      </trkpt>
      <trkpt lat="44.9016" lon="0.63291">
        <ele>68.3908691</ele>
        <time>2013-05-19T08:31:50Z</time>
      </trkpt>
      <trkpt lat="44.90176" lon="0.63299">
        <ele>72.7169189</ele>
        <time>2013-05-19T08:31:56Z</time>
      </trkpt>
      <trkpt lat="44.9018" lon="0.63301">
        <ele>74.1588135</ele>
        <time>2013-05-19T08:31:57Z</time>
      </trkpt>
      <trkpt lat="44.90193" lon="0.63305">
        <ele>77.5234375</ele>
        <time>2013-05-19T08:32:02Z</time>
      </trkpt>
      <trkpt lat="44.90208" lon="0.63302">
        <ele>77.5234375</ele>
        <time>2013-05-19T08:32:07Z</time>
      </trkpt>
      <trkpt lat="44.90215" lon="0.63289">
        <ele>75.1202393</ele>
        <time>2013-05-19T08:32:11Z</time>
      </trkpt>
      <trkpt lat="44.90217" lon="0.63264">
        <ele>71.7554932</ele>
        <time>2013-05-19T08:32:17Z</time>
      </trkpt>
      <trkpt lat="44.90221" lon="0.63253">
        <ele>70.7941895</ele>
        <time>2013-05-19T08:32:20Z</time>
      </trkpt>
      <trkpt lat="44.9023" lon="0.63243">
        <ele>68.871582</ele>
        <time>2013-05-19T08:32:24Z</time>
      </trkpt>
      <trkpt lat="44.90247" lon="0.63231">
        <ele>65.9876709</ele>
        <time>2013-05-19T08:32:30Z</time>
      </trkpt>
      <trkpt lat="44.90261" lon="0.63224">
        <ele>65.0263672</ele>
        <time>2013-05-19T08:32:35Z</time>
      </trkpt>
      <trkpt lat="44.90272" lon="0.63225">
        <ele>65.0263672</ele>
        <time>2013-05-19T08:32:39Z</time>
      </trkpt>
      <trkpt lat="44.90286" lon="0.63232">
        <ele>65.0263672</ele>
        <time>2013-05-19T08:32:44Z</time>
      </trkpt>
      <trkpt lat="44.90297" lon="0.63242">
        <ele>65.9876709</ele>
        <time>2013-05-19T08:32:49Z</time>
      </trkpt>
      <trkpt lat="44.90307" lon="0.63248">
        <ele>66.9489746</ele>
        <time>2013-05-19T08:32:53Z</time>
      </trkpt>
      <trkpt lat="44.90322" lon="0.63258">
        <ele>67.4296875</ele>
        <time>2013-05-19T08:32:59Z</time>
      </trkpt>
      <trkpt lat="44.90333" lon="0.63268">
        <ele>67.4296875</ele>
        <time>2013-05-19T08:33:04Z</time>
      </trkpt>
      <trkpt lat="44.90342" lon="0.63277">
        <ele>66.9489746</ele>
        <time>2013-05-19T08:33:08Z</time>
      </trkpt>
      <trkpt lat="44.90354" lon="0.63273">
        <ele>66.9489746</ele>
        <time>2013-05-19T08:33:14Z</time>
      </trkpt>
      <trkpt lat="44.90356" lon="0.63273">
        <ele>66.9489746</ele>
        <time>2013-05-19T08:33:15Z</time>
      </trkpt>
      <trkpt lat="44.9036" lon="0.63274">
        <ele>66.4682617</ele>
        <time>2013-05-19T08:33:17Z</time>
      </trkpt>
      <trkpt lat="44.90377" lon="0.63271">
        <ele>64.5456543</ele>
        <time>2013-05-19T08:33:23Z</time>
      </trkpt>
      <trkpt lat="44.90395" lon="0.63265">
        <ele>64.5456543</ele>
        <time>2013-05-19T08:33:29Z</time>
      </trkpt>
      <trkpt lat="44.90412" lon="0.6326">
        <ele>65.0263672</ele>
        <time>2013-05-19T08:33:35Z</time>
      </trkpt>
      <trkpt lat="44.90425" lon="0.63255">
        <ele>65.9876709</ele>
        <time>2013-05-19T08:33:40Z</time>
      </trkpt>
      <trkpt lat="44.90438" lon="0.63251">
        <ele>68.3908691</ele>
        <time>2013-05-19T08:33:45Z</time>
      </trkpt>
      <trkpt lat="44.90446" lon="0.63248">
        <ele>69.8328857</ele>
        <time>2013-05-19T08:33:48Z</time>
      </trkpt>
      <trkpt lat="44.90448" lon="0.63236">
        <ele>70.3134766</ele>
        <time>2013-05-19T08:33:52Z</time>
      </trkpt>
      <trkpt lat="44.90444" lon="0.63225">
        <ele>70.7941895</ele>
        <time>2013-05-19T08:33:55Z</time>
      </trkpt>
      <trkpt lat="44.90438" lon="0.63202">
        <ele>70.7941895</ele>
        <time>2013-05-19T08:34:01Z</time>
      </trkpt>
      <trkpt lat="44.90433" lon="0.63184">
        <ele>69.8328857</ele>
        <time>2013-05-19T08:34:06Z</time>
      </trkpt>
      <trkpt lat="44.90427" lon="0.63155">
        <ele>68.871582</ele>
        <time>2013-05-19T08:34:14Z</time>
      </trkpt>
      <trkpt lat="44.90425" lon="0.63135">
        <ele>68.3908691</ele>
        <time>2013-05-19T08:34:19Z</time>
      </trkpt>
      <trkpt lat="44.90421" lon="0.63117">
        <ele>67.4296875</ele>
        <time>2013-05-19T08:34:24Z</time>
      </trkpt>
      <trkpt lat="44.90416" lon="0.63095">
        <ele>67.4296875</ele>
        <time>2013-05-19T08:34:30Z</time>
      </trkpt>
      <trkpt lat="44.90414" lon="0.63076">
        <ele>66.4682617</ele>
        <time>2013-05-19T08:34:35Z</time>
      </trkpt>
      <trkpt lat="44.90411" lon="0.63049">
        <ele>64.5456543</ele>
        <time>2013-05-19T08:34:42Z</time>
      </trkpt>
      <trkpt lat="44.90405" lon="0.63024">
        <ele>64.0650635</ele>
        <time>2013-05-19T08:34:49Z</time>
      </trkpt>
      <trkpt lat="44.90401" lon="0.63001">
        <ele>63.1036377</ele>
        <time>2013-05-19T08:34:55Z</time>
      </trkpt>
      <trkpt lat="44.90399" lon="0.62979">
        <ele>62.6229248</ele>
        <time>2013-05-19T08:35:01Z</time>
      </trkpt>
      <trkpt lat="44.90398" lon="0.6296">
        <ele>61.6617432</ele>
        <time>2013-05-19T08:35:06Z</time>
      </trkpt>
      <trkpt lat="44.90397" lon="0.62945">
        <ele>62.6229248</ele>
        <time>2013-05-19T08:35:10Z</time>
      </trkpt>
      <trkpt lat="44.90395" lon="0.62925">
        <ele>63.1036377</ele>
        <time>2013-05-19T08:35:16Z</time>
      </trkpt>
      <trkpt lat="44.90391" lon="0.62902">
        <ele>65.0263672</ele>
        <time>2013-05-19T08:35:22Z</time>
      </trkpt>
      <trkpt lat="44.90393" lon="0.62895">
        <ele>65.0263672</ele>
        <time>2013-05-19T08:35:24Z</time>
      </trkpt>
      <trkpt lat="44.90408" lon="0.6289">
        <ele>65.9876709</ele>
        <time>2013-05-19T08:35:30Z</time>
      </trkpt>
      <trkpt lat="44.90416" lon="0.62879">
        <ele>66.4682617</ele>
        <time>2013-05-19T08:35:35Z</time>
      </trkpt>
      <trkpt lat="44.90418" lon="0.62862">
        <ele>66.4682617</ele>
        <time>2013-05-19T08:35:40Z</time>
      </trkpt>
      <trkpt lat="44.90418" lon="0.62843">
        <ele>66.9489746</ele>
        <time>2013-05-19T08:35:45Z</time>
      </trkpt>
      <trkpt lat="44.9042" lon="0.62821">
        <ele>66.9489746</ele>
        <time>2013-05-19T08:35:51Z</time>
      </trkpt>
      <trkpt lat="44.90421" lon="0.62799">
        <ele>68.871582</ele>
        <time>2013-05-19T08:35:57Z</time>
      </trkpt>
      <trkpt lat="44.90422" lon="0.62781">
        <ele>69.3522949</ele>
        <time>2013-05-19T08:36:02Z</time>
      </trkpt>
      <trkpt lat="44.90422" lon="0.62763">
        <ele>71.2749023</ele>
        <time>2013-05-19T08:36:07Z</time>
      </trkpt>
      <trkpt lat="44.90423" lon="0.62759">
        <ele>71.2749023</ele>
        <time>2013-05-19T08:36:08Z</time>
      </trkpt>
      <trkpt lat="44.90423" lon="0.62744">
        <ele>71.7554932</ele>
        <time>2013-05-19T08:36:12Z</time>
      </trkpt>
      <trkpt lat="44.90424" lon="0.62725">
        <ele>73.1976318</ele>
        <time>2013-05-19T08:36:17Z</time>
      </trkpt>
      <trkpt lat="44.90426" lon="0.62691">
        <ele>74.1588135</ele>
        <time>2013-05-19T08:36:26Z</time>
      </trkpt>
      <trkpt lat="44.90427" lon="0.62667">
        <ele>75.1202393</ele>
        <time>2013-05-19T08:36:32Z</time>
      </trkpt>
      <trkpt lat="44.9043" lon="0.62636">
        <ele>73.6782227</ele>
        <time>2013-05-19T08:36:40Z</time>
      </trkpt>
      <trkpt lat="44.9043" lon="0.62609">
        <ele>73.1976318</ele>
        <time>2013-05-19T08:36:47Z</time>
      </trkpt>
      <trkpt lat="44.90431" lon="0.62586">
        <ele>73.1976318</ele>
        <time>2013-05-19T08:36:53Z</time>
      </trkpt>
      <trkpt lat="44.90432" lon="0.62558">
        <ele>73.6782227</ele>
        <time>2013-05-19T08:37:00Z</time>
      </trkpt>
      <trkpt lat="44.90437" lon="0.62535">
        <ele>74.1588135</ele>
        <time>2013-05-19T08:37:06Z</time>
      </trkpt>
      <trkpt lat="44.90434" lon="0.62517">
        <ele>73.1976318</ele>
        <time>2013-05-19T08:37:11Z</time>
      </trkpt>
      <trkpt lat="44.90427" lon="0.62506">
        <ele>72.2362061</ele>
        <time>2013-05-19T08:37:15Z</time>
      </trkpt>
      <trkpt lat="44.90426" lon="0.62489">
        <ele>70.3134766</ele>
        <time>2013-05-19T08:37:20Z</time>
      </trkpt>
      <trkpt lat="44.90422" lon="0.62477">
        <ele>69.8328857</ele>
        <time>2013-05-19T08:37:25Z</time>
      </trkpt>
      <trkpt lat="44.90417" lon="0.62458">
        <ele>67.4296875</ele>
        <time>2013-05-19T08:37:32Z</time>
      </trkpt>
      <trkpt lat="44.90411" lon="0.6244">
        <ele>66.4682617</ele>
        <time>2013-05-19T08:37:38Z</time>
      </trkpt>
      <trkpt lat="44.90406" lon="0.62425">
        <ele>66.4682617</ele>
        <time>2013-05-19T08:37:43Z</time>
      </trkpt>
      <trkpt lat="44.90399" lon="0.62404">
        <ele>66.9489746</ele>
        <time>2013-05-19T08:37:49Z</time>
      </trkpt>
      <trkpt lat="44.90393" lon="0.62387">
        <ele>66.4682617</ele>
        <time>2013-05-19T08:37:54Z</time>
      </trkpt>
      <trkpt lat="44.90384" lon="0.62364">
        <ele>69.3522949</ele>
        <time>2013-05-19T08:38:00Z</time>
      </trkpt>
      <trkpt lat="44.90383" lon="0.6236">
        <ele>69.3522949</ele>
        <time>2013-05-19T08:38:01Z</time>
      </trkpt>
      <trkpt lat="44.90372" lon="0.62344">
        <ele>68.871582</ele>
        <time>2013-05-19T08:38:06Z</time>
      </trkpt>
      <trkpt lat="44.9037" lon="0.6234">
        <ele>68.871582</ele>
        <time>2013-05-19T08:38:07Z</time>
      </trkpt>
      <trkpt lat="44.9036" lon="0.62318">
        <ele>71.2749023</ele>
        <time>2013-05-19T08:38:13Z</time>
      </trkpt>
      <trkpt lat="44.90355" lon="0.62305">
        <ele>71.2749023</ele>
        <time>2013-05-19T08:38:17Z</time>
      </trkpt>
      <trkpt lat="44.90354" lon="0.62298">
        <ele>70.3134766</ele>
        <time>2013-05-19T08:38:19Z</time>
      </trkpt>
      <trkpt lat="44.90347" lon="0.62279">
        <ele>67.9102783</ele>
        <time>2013-05-19T08:38:25Z</time>
      </trkpt>
      <trkpt lat="44.90344" lon="0.62264">
        <ele>65.0263672</ele>
        <time>2013-05-19T08:38:29Z</time>
      </trkpt>
      <trkpt lat="44.90332" lon="0.62246">
        <ele>64.5456543</ele>
        <time>2013-05-19T08:38:35Z</time>
      </trkpt>
      <trkpt lat="44.9032" lon="0.62225">
        <ele>66.4682617</ele>
        <time>2013-05-19T08:38:41Z</time>
      </trkpt>
      <trkpt lat="44.90316" lon="0.62209">
        <ele>63.1036377</ele>
        <time>2013-05-19T08:38:46Z</time>
      </trkpt>
      <trkpt lat="44.90316" lon="0.62205">
        <ele>63.1036377</ele>
        <time>2013-05-19T08:38:47Z</time>
      </trkpt>
      <trkpt lat="44.90308" lon="0.62182">
        <ele>57.8165283</ele>
        <time>2013-05-19T08:38:54Z</time>
      </trkpt>
      <trkpt lat="44.903" lon="0.62166">
        <ele>60.7003174</ele>
        <time>2013-05-19T08:38:58Z</time>
      </trkpt>
      <trkpt lat="44.90291" lon="0.62145">
        <ele>65.9876709</ele>
        <time>2013-05-19T08:39:03Z</time>
      </trkpt>
      <trkpt lat="44.90286" lon="0.62126">
        <ele>69.8328857</ele>
        <time>2013-05-19T08:39:08Z</time>
      </trkpt>
      <trkpt lat="44.90284" lon="0.62105">
        <ele>72.7169189</ele>
        <time>2013-05-19T08:39:14Z</time>
      </trkpt>
      <trkpt lat="44.90282" lon="0.62086">
        <ele>74.1588135</ele>
        <time>2013-05-19T08:39:19Z</time>
      </trkpt>
      <trkpt lat="44.90281" lon="0.62077">
        <ele>72.2362061</ele>
        <time>2013-05-19T08:39:22Z</time>
      </trkpt>
      <trkpt lat="44.90282" lon="0.62056">
        <ele>63.5843506</ele>
        <time>2013-05-19T08:39:28Z</time>
      </trkpt>
      <trkpt lat="44.90282" lon="0.62041">
        <ele>57.3358154</ele>
        <time>2013-05-19T08:39:33Z</time>
      </trkpt>
      <trkpt lat="44.90282" lon="0.62023">
        <ele>58.2971191</ele>
        <time>2013-05-19T08:39:38Z</time>
      </trkpt>
      <trkpt lat="44.90282" lon="0.62008">
        <ele>55.8937988</ele>
        <time>2013-05-19T08:39:43Z</time>
      </trkpt>
      <trkpt lat="44.90279" lon="0.61988">
        <ele>56.8551025</ele>
        <time>2013-05-19T08:39:48Z</time>
      </trkpt>
      <trkpt lat="44.90273" lon="0.61969">
        <ele>56.8551025</ele>
        <time>2013-05-19T08:39:53Z</time>
      </trkpt>
      <trkpt lat="44.90268" lon="0.61955">
        <ele>56.8551025</ele>
        <time>2013-05-19T08:39:57Z</time>
      </trkpt>
      <trkpt lat="44.90262" lon="0.61936">
        <ele>57.3358154</ele>
        <time>2013-05-19T08:40:03Z</time>
      </trkpt>
      <trkpt lat="44.90254" lon="0.6192">
        <ele>57.8165283</ele>
        <time>2013-05-19T08:40:08Z</time>
      </trkpt>
      <trkpt lat="44.90247" lon="0.61905">
        <ele>56.3745117</ele>
        <time>2013-05-19T08:40:13Z</time>
      </trkpt>
      <trkpt lat="44.90235" lon="0.61882">
        <ele>64.5456543</ele>
        <time>2013-05-19T08:40:19Z</time>
      </trkpt>
      <trkpt lat="44.90227" lon="0.6186">
        <ele>63.5843506</ele>
        <time>2013-05-19T08:40:25Z</time>
      </trkpt>
      <trkpt lat="44.90216" lon="0.61842">
        <ele>65.9876709</ele>
        <time>2013-05-19T08:40:30Z</time>
      </trkpt>
      <trkpt lat="44.90211" lon="0.61828">
        <ele>66.9489746</ele>
        <time>2013-05-19T08:40:34Z</time>
      </trkpt>
      <trkpt lat="44.9021" lon="0.61825">
        <ele>66.9489746</ele>
        <time>2013-05-19T08:40:35Z</time>
      </trkpt>
      <trkpt lat="44.90201" lon="0.61816">
        <ele>67.4296875</ele>
        <time>2013-05-19T08:40:40Z</time>
      </trkpt>
      <trkpt lat="44.90191" lon="0.61799">
        <ele>66.4682617</ele>
        <time>2013-05-19T08:40:46Z</time>
      </trkpt>
      <trkpt lat="44.90177" lon="0.61777">
        <ele>66.4682617</ele>
        <time>2013-05-19T08:40:54Z</time>
      </trkpt>
      <trkpt lat="44.90167" lon="0.61759">
        <ele>66.4682617</ele>
        <time>2013-05-19T08:41:00Z</time>
      </trkpt>
      <trkpt lat="44.90159" lon="0.61743">
        <ele>66.9489746</ele>
        <time>2013-05-19T08:41:05Z</time>
      </trkpt>
      <trkpt lat="44.90152" lon="0.61725">
        <ele>68.3908691</ele>
        <time>2013-05-19T08:41:11Z</time>
      </trkpt>
      <trkpt lat="44.9015" lon="0.61708">
        <ele>70.3134766</ele>
        <time>2013-05-19T08:41:16Z</time>
      </trkpt>
      <trkpt lat="44.90149" lon="0.61695">
        <ele>70.7941895</ele>
        <time>2013-05-19T08:41:20Z</time>
      </trkpt>
      <trkpt lat="44.90146" lon="0.61678">
        <ele>71.2749023</ele>
        <time>2013-05-19T08:41:25Z</time>
      </trkpt>
      <trkpt lat="44.90142" lon="0.61657">
        <ele>71.7554932</ele>
        <time>2013-05-19T08:41:31Z</time>
      </trkpt>
      <trkpt lat="44.90137" lon="0.6164">
        <ele>72.2362061</ele>
        <time>2013-05-19T08:41:36Z</time>
      </trkpt>
      <trkpt lat="44.90131" lon="0.61623">
        <ele>72.7169189</ele>
        <time>2013-05-19T08:41:41Z</time>
      </trkpt>
      <trkpt lat="44.90129" lon="0.61616">
        <ele>72.7169189</ele>
        <time>2013-05-19T08:41:43Z</time>
      </trkpt>
      <trkpt lat="44.90129" lon="0.61616">
        <ele>72.7169189</ele>
        <time>2013-05-19T08:41:43Z</time>
      </trkpt>
      <trkpt lat="44.90126" lon="0.61602">
        <ele>73.1976318</ele>
        <time>2013-05-19T08:41:47Z</time>
      </trkpt>
      <trkpt lat="44.90121" lon="0.61582">
        <ele>73.1976318</ele>
        <time>2013-05-19T08:41:53Z</time>
      </trkpt>
      <trkpt lat="44.90115" lon="0.61566">
        <ele>74.6395264</ele>
        <time>2013-05-19T08:41:58Z</time>
      </trkpt>
      <trkpt lat="44.90108" lon="0.61553">
        <ele>76.0814209</ele>
        <time>2013-05-19T08:42:03Z</time>
      </trkpt>
      <trkpt lat="44.90099" lon="0.61545">
        <ele>78.9654541</ele>
        <time>2013-05-19T08:42:08Z</time>
      </trkpt>
      <trkpt lat="44.90097" lon="0.61544">
        <ele>78.9654541</ele>
        <time>2013-05-19T08:42:09Z</time>
      </trkpt>
      <trkpt lat="44.90089" lon="0.61536">
        <ele>81.3687744</ele>
        <time>2013-05-19T08:42:14Z</time>
      </trkpt>
      <trkpt lat="44.90078" lon="0.61528">
        <ele>83.2913818</ele>
        <time>2013-05-19T08:42:20Z</time>
      </trkpt>
      <trkpt lat="44.90065" lon="0.61521">
        <ele>87.6171875</ele>
        <time>2013-05-19T08:42:26Z</time>
      </trkpt>
      <trkpt lat="44.90053" lon="0.61512">
        <ele>90.0206299</ele>
        <time>2013-05-19T08:42:31Z</time>
      </trkpt>
      <trkpt lat="44.90047" lon="0.61505">
        <ele>91.9432373</ele>
        <time>2013-05-19T08:42:35Z</time>
      </trkpt>
      <trkpt lat="44.90036" lon="0.61504">
        <ele>92.4239502</ele>
        <time>2013-05-19T08:42:40Z</time>
      </trkpt>
      <trkpt lat="44.90034" lon="0.61505">
        <ele>93.3851318</ele>
        <time>2013-05-19T08:42:42Z</time>
      </trkpt>
      <trkpt lat="44.90027" lon="0.61509">
        <ele>93.3851318</ele>
        <time>2013-05-19T08:42:46Z</time>
      </trkpt>
      <trkpt lat="44.90014" lon="0.61515">
        <ele>91.4625244</ele>
        <time>2013-05-19T08:42:53Z</time>
      </trkpt>
      <trkpt lat="44.90004" lon="0.61524">
        <ele>88.5787354</ele>
        <time>2013-05-19T08:42:58Z</time>
      </trkpt>
      <trkpt lat="44.89999" lon="0.6153">
        <ele>85.6945801</ele>
        <time>2013-05-19T08:43:01Z</time>
      </trkpt>
      <trkpt lat="44.89992" lon="0.61538">
        <ele>83.2913818</ele>
        <time>2013-05-19T08:43:06Z</time>
      </trkpt>
      <trkpt lat="44.89986" lon="0.6154">
        <ele>81.8493652</ele>
        <time>2013-05-19T08:43:09Z</time>
      </trkpt>
      <trkpt lat="44.89976" lon="0.61548">
        <ele>79.9266357</ele>
        <time>2013-05-19T08:43:14Z</time>
      </trkpt>
      <trkpt lat="44.89969" lon="0.61554">
        <ele>80.4074707</ele>
        <time>2013-05-19T08:43:18Z</time>
      </trkpt>
      <trkpt lat="44.89964" lon="0.61558">
        <ele>80.8881836</ele>
        <time>2013-05-19T08:43:21Z</time>
      </trkpt>
      <trkpt lat="44.89952" lon="0.61565">
        <ele>78.9654541</ele>
        <time>2013-05-19T08:43:27Z</time>
      </trkpt>
      <trkpt lat="44.89939" lon="0.61565">
        <ele>79.4460449</ele>
        <time>2013-05-19T08:43:33Z</time>
      </trkpt>
      <trkpt lat="44.89931" lon="0.61564">
        <ele>77.0428467</ele>
        <time>2013-05-19T08:43:37Z</time>
      </trkpt>
      <trkpt lat="44.89916" lon="0.61563">
        <ele>72.2362061</ele>
        <time>2013-05-19T08:43:43Z</time>
      </trkpt>
      <trkpt lat="44.89907" lon="0.61563">
        <ele>67.9102783</ele>
        <time>2013-05-19T08:43:47Z</time>
      </trkpt>
      <trkpt lat="44.89895" lon="0.61562">
        <ele>66.4682617</ele>
        <time>2013-05-19T08:43:51Z</time>
      </trkpt>
      <trkpt lat="44.89885" lon="0.61569">
        <ele>66.4682617</ele>
        <time>2013-05-19T08:43:55Z</time>
      </trkpt>
      <trkpt lat="44.89874" lon="0.6158">
        <ele>65.0263672</ele>
        <time>2013-05-19T08:44:00Z</time>
      </trkpt>
      <trkpt lat="44.89861" lon="0.61593">
        <ele>63.5843506</ele>
        <time>2013-05-19T08:44:06Z</time>
      </trkpt>
      <trkpt lat="44.89851" lon="0.61604">
        <ele>64.5456543</ele>
        <time>2013-05-19T08:44:11Z</time>
      </trkpt>
      <trkpt lat="44.89842" lon="0.61615">
        <ele>64.0650635</ele>
        <time>2013-05-19T08:44:15Z</time>
      </trkpt>
      <trkpt lat="44.89827" lon="0.6163">
        <ele>65.0263672</ele>
        <time>2013-05-19T08:44:22Z</time>
      </trkpt>
      <trkpt lat="44.89815" lon="0.61643">
        <ele>65.9876709</ele>
        <time>2013-05-19T08:44:28Z</time>
      </trkpt>
      <trkpt lat="44.89803" lon="0.61657">
        <ele>66.9489746</ele>
        <time>2013-05-19T08:44:34Z</time>
      </trkpt>
      <trkpt lat="44.89793" lon="0.61669">
        <ele>68.3908691</ele>
        <time>2013-05-19T08:44:39Z</time>
      </trkpt>
      <trkpt lat="44.89785" lon="0.61682">
        <ele>68.871582</ele>
        <time>2013-05-19T08:44:44Z</time>
      </trkpt>
      <trkpt lat="44.89779" lon="0.61693">
        <ele>68.871582</ele>
        <time>2013-05-19T08:44:48Z</time>
      </trkpt>
      <trkpt lat="44.89769" lon="0.61711">
        <ele>69.3522949</ele>
        <time>2013-05-19T08:44:54Z</time>
      </trkpt>
      <trkpt lat="44.89758" lon="0.6173">
        <ele>71.7554932</ele>
        <time>2013-05-19T08:45:01Z</time>
      </trkpt>
      <trkpt lat="44.89748" lon="0.6174">
        <ele>73.1976318</ele>
        <time>2013-05-19T08:45:06Z</time>
      </trkpt>
      <trkpt lat="44.89739" lon="0.61743">
        <ele>73.1976318</ele>
        <time>2013-05-19T08:45:10Z</time>
      </trkpt>
      <trkpt lat="44.89735" lon="0.61744">
        <ele>73.6782227</ele>
        <time>2013-05-19T08:45:12Z</time>
      </trkpt>
      <trkpt lat="44.89727" lon="0.61745">
        <ele>75.1202393</ele>
        <time>2013-05-19T08:45:16Z</time>
      </trkpt>
      <trkpt lat="44.89721" lon="0.6174">
        <ele>77.5234375</ele>
        <time>2013-05-19T08:45:20Z</time>
      </trkpt>
      <trkpt lat="44.89708" lon="0.61727">
        <ele>86.6560059</ele>
        <time>2013-05-19T08:45:26Z</time>
      </trkpt>
      <trkpt lat="44.89699" lon="0.61718">
        <ele>86.175293</ele>
        <time>2013-05-19T08:45:30Z</time>
      </trkpt>
      <trkpt lat="44.89691" lon="0.61703">
        <ele>86.6560059</ele>
        <time>2013-05-19T08:45:35Z</time>
      </trkpt>
      <trkpt lat="44.89684" lon="0.61694">
        <ele>86.6560059</ele>
        <time>2013-05-19T08:45:39Z</time>
      </trkpt>
      <trkpt lat="44.89672" lon="0.61669">
        <ele>91.9432373</ele>
        <time>2013-05-19T08:45:46Z</time>
      </trkpt>
      <trkpt lat="44.89667" lon="0.61656">
        <ele>90.9819336</ele>
        <time>2013-05-19T08:45:50Z</time>
      </trkpt>
      <trkpt lat="44.89665" lon="0.61635">
        <ele>89.539917</ele>
        <time>2013-05-19T08:45:57Z</time>
      </trkpt>
      <trkpt lat="44.89665" lon="0.61621">
        <ele>89.0593262</ele>
        <time>2013-05-19T08:46:01Z</time>
      </trkpt>
      <trkpt lat="44.89665" lon="0.61614">
        <ele>86.175293</ele>
        <time>2013-05-19T08:46:03Z</time>
      </trkpt>
      <trkpt lat="44.89667" lon="0.61594">
        <ele>80.8881836</ele>
        <time>2013-05-19T08:46:09Z</time>
      </trkpt>
      <trkpt lat="44.89665" lon="0.61577">
        <ele>80.4074707</ele>
        <time>2013-05-19T08:46:13Z</time>
      </trkpt>
      <trkpt lat="44.89664" lon="0.61559">
        <ele>77.0428467</ele>
        <time>2013-05-19T08:46:18Z</time>
      </trkpt>
      <trkpt lat="44.89664" lon="0.61537">
        <ele>76.0814209</ele>
        <time>2013-05-19T08:46:24Z</time>
      </trkpt>
      <trkpt lat="44.89664" lon="0.61528">
        <ele>74.6395264</ele>
        <time>2013-05-19T08:46:27Z</time>
      </trkpt>
      <trkpt lat="44.89661" lon="0.61509">
        <ele>75.1202393</ele>
        <time>2013-05-19T08:46:32Z</time>
      </trkpt>
      <trkpt lat="44.8966" lon="0.61497">
        <ele>75.1202393</ele>
        <time>2013-05-19T08:46:36Z</time>
      </trkpt>
      <trkpt lat="44.89658" lon="0.61477">
        <ele>73.1976318</ele>
        <time>2013-05-19T08:46:42Z</time>
      </trkpt>
      <trkpt lat="44.89658" lon="0.61455">
        <ele>68.3908691</ele>
        <time>2013-05-19T08:46:48Z</time>
      </trkpt>
      <trkpt lat="44.89653" lon="0.61429">
        <ele>71.7554932</ele>
        <time>2013-05-19T08:46:54Z</time>
      </trkpt>
      <trkpt lat="44.8965" lon="0.61409">
        <ele>75.1202393</ele>
        <time>2013-05-19T08:46:59Z</time>
      </trkpt>
      <trkpt lat="44.89652" lon="0.6138">
        <ele>76.5621338</ele>
        <time>2013-05-19T08:47:06Z</time>
      </trkpt>
      <trkpt lat="44.89656" lon="0.6136">
        <ele>71.2749023</ele>
        <time>2013-05-19T08:47:12Z</time>
      </trkpt>
      <trkpt lat="44.8966" lon="0.61342">
        <ele>62.142334</ele>
        <time>2013-05-19T08:47:18Z</time>
      </trkpt>
      <trkpt lat="44.8966" lon="0.61325">
        <ele>67.9102783</ele>
        <time>2013-05-19T08:47:22Z</time>
      </trkpt>
      <trkpt lat="44.89659" lon="0.61302">
        <ele>77.0428467</ele>
        <time>2013-05-19T08:47:27Z</time>
      </trkpt>
      <trkpt lat="44.89659" lon="0.61286">
        <ele>80.4074707</ele>
        <time>2013-05-19T08:47:31Z</time>
      </trkpt>
      <trkpt lat="44.8966" lon="0.61262">
        <ele>80.4074707</ele>
        <time>2013-05-19T08:47:38Z</time>
      </trkpt>
      <trkpt lat="44.89662" lon="0.61248">
        <ele>74.1588135</ele>
        <time>2013-05-19T08:47:42Z</time>
      </trkpt>
      <trkpt lat="44.8966" lon="0.61235">
        <ele>70.7941895</ele>
        <time>2013-05-19T08:47:46Z</time>
      </trkpt>
      <trkpt lat="44.89656" lon="0.61216">
        <ele>71.2749023</ele>
        <time>2013-05-19T08:47:51Z</time>
      </trkpt>
      <trkpt lat="44.89656" lon="0.61216">
        <ele>71.2749023</ele>
        <time>2013-05-19T08:47:51Z</time>
      </trkpt>
      <trkpt lat="44.89655" lon="0.61198">
        <ele>63.5843506</ele>
        <time>2013-05-19T08:47:56Z</time>
      </trkpt>
      <trkpt lat="44.89648" lon="0.61177">
        <ele>68.3908691</ele>
        <time>2013-05-19T08:48:01Z</time>
      </trkpt>
      <trkpt lat="44.89644" lon="0.61161">
        <ele>69.3522949</ele>
        <time>2013-05-19T08:48:05Z</time>
      </trkpt>
      <trkpt lat="44.89635" lon="0.61139">
        <ele>73.1976318</ele>
        <time>2013-05-19T08:48:10Z</time>
      </trkpt>
      <trkpt lat="44.89628" lon="0.61121">
        <ele>74.1588135</ele>
        <time>2013-05-19T08:48:15Z</time>
      </trkpt>
      <trkpt lat="44.8962" lon="0.61104">
        <ele>78.9654541</ele>
        <time>2013-05-19T08:48:20Z</time>
      </trkpt>
      <trkpt lat="44.89611" lon="0.61088">
        <ele>82.3300781</ele>
        <time>2013-05-19T08:48:25Z</time>
      </trkpt>
      <trkpt lat="44.89602" lon="0.61073">
        <ele>86.6560059</ele>
        <time>2013-05-19T08:48:30Z</time>
      </trkpt>
      <trkpt lat="44.89593" lon="0.61057">
        <ele>88.5787354</ele>
        <time>2013-05-19T08:48:35Z</time>
      </trkpt>
      <trkpt lat="44.89579" lon="0.61041">
        <ele>81.3687744</ele>
        <time>2013-05-19T08:48:41Z</time>
      </trkpt>
      <trkpt lat="44.89565" lon="0.61025">
        <ele>81.3687744</ele>
        <time>2013-05-19T08:48:47Z</time>
      </trkpt>
      <trkpt lat="44.89547" lon="0.61006">
        <ele>81.8493652</ele>
        <time>2013-05-19T08:48:54Z</time>
      </trkpt>
      <trkpt lat="44.89532" lon="0.60993">
        <ele>78.0040283</ele>
        <time>2013-05-19T08:49:00Z</time>
      </trkpt>
      <trkpt lat="44.8952" lon="0.60988">
        <ele>78.0040283</ele>
        <time>2013-05-19T08:49:05Z</time>
      </trkpt>
      <trkpt lat="44.89507" lon="0.60982">
        <ele>77.5234375</ele>
        <time>2013-05-19T08:49:10Z</time>
      </trkpt>
      <trkpt lat="44.8949" lon="0.60976">
        <ele>77.5234375</ele>
        <time>2013-05-19T08:49:17Z</time>
      </trkpt>
      <trkpt lat="44.89476" lon="0.60974">
        <ele>76.0814209</ele>
        <time>2013-05-19T08:49:22Z</time>
      </trkpt>
      <trkpt lat="44.8946" lon="0.6097">
        <ele>74.1588135</ele>
        <time>2013-05-19T08:49:28Z</time>
      </trkpt>
      <trkpt lat="44.89445" lon="0.6097">
        <ele>74.1588135</ele>
        <time>2013-05-19T08:49:33Z</time>
      </trkpt>
      <trkpt lat="44.89425" lon="0.60963">
        <ele>72.7169189</ele>
        <time>2013-05-19T08:49:40Z</time>
      </trkpt>
      <trkpt lat="44.89414" lon="0.60963">
        <ele>70.7941895</ele>
        <time>2013-05-19T08:49:44Z</time>
      </trkpt>
      <trkpt lat="44.89403" lon="0.60967">
        <ele>70.3134766</ele>
        <time>2013-05-19T08:49:48Z</time>
      </trkpt>
      <trkpt lat="44.89386" lon="0.60974">
        <ele>69.8328857</ele>
        <time>2013-05-19T08:49:54Z</time>
      </trkpt>
      <trkpt lat="44.89366" lon="0.60974">
        <ele>70.3134766</ele>
        <time>2013-05-19T08:50:01Z</time>
      </trkpt>
      <trkpt lat="44.89354" lon="0.60963">
        <ele>69.8328857</ele>
        <time>2013-05-19T08:50:06Z</time>
      </trkpt>
      <trkpt lat="44.89344" lon="0.6095">
        <ele>68.871582</ele>
        <time>2013-05-19T08:50:12Z</time>
      </trkpt>
      <trkpt lat="44.89334" lon="0.6094">
        <ele>70.3134766</ele>
        <time>2013-05-19T08:50:17Z</time>
      </trkpt>
      <trkpt lat="44.89326" lon="0.60927">
        <ele>70.7941895</ele>
        <time>2013-05-19T08:50:22Z</time>
      </trkpt>
      <trkpt lat="44.89314" lon="0.60912">
        <ele>70.3134766</ele>
        <time>2013-05-19T08:50:28Z</time>
      </trkpt>
      <trkpt lat="44.89313" lon="0.60894">
        <ele>69.8328857</ele>
        <time>2013-05-19T08:50:34Z</time>
      </trkpt>
      <trkpt lat="44.89314" lon="0.60871">
        <ele>67.4296875</ele>
        <time>2013-05-19T08:50:40Z</time>
      </trkpt>
      <trkpt lat="44.89311" lon="0.60844">
        <ele>68.3908691</ele>
        <time>2013-05-19T08:50:47Z</time>
      </trkpt>
      <trkpt lat="44.89306" lon="0.60828">
        <ele>69.3522949</ele>
        <time>2013-05-19T08:50:52Z</time>
      </trkpt>
      <trkpt lat="44.89296" lon="0.60818">
        <ele>67.9102783</ele>
        <time>2013-05-19T08:50:58Z</time>
      </trkpt>
      <trkpt lat="44.89288" lon="0.60814">
        <ele>68.871582</ele>
        <time>2013-05-19T08:51:02Z</time>
      </trkpt>
      <trkpt lat="44.8928" lon="0.60809">
        <ele>70.3134766</ele>
        <time>2013-05-19T08:51:07Z</time>
      </trkpt>
      <trkpt lat="44.89271" lon="0.60803">
        <ele>73.6782227</ele>
        <time>2013-05-19T08:51:12Z</time>
      </trkpt>
      <trkpt lat="44.89259" lon="0.60796">
        <ele>77.5234375</ele>
        <time>2013-05-19T08:51:19Z</time>
      </trkpt>
      <trkpt lat="44.89258" lon="0.60796">
        <ele>77.5234375</ele>
        <time>2013-05-19T08:51:20Z</time>
      </trkpt>
      <trkpt lat="44.89247" lon="0.60784">
        <ele>81.8493652</ele>
        <time>2013-05-19T08:51:27Z</time>
      </trkpt>
      <trkpt lat="44.89239" lon="0.60773">
        <ele>84.2526855</ele>
        <time>2013-05-19T08:51:32Z</time>
      </trkpt>
      <trkpt lat="44.8923" lon="0.60758">
        <ele>87.6171875</ele>
        <time>2013-05-19T08:51:38Z</time>
      </trkpt>
      <trkpt lat="44.89225" lon="0.60746">
        <ele>87.6171875</ele>
        <time>2013-05-19T08:51:43Z</time>
      </trkpt>
      <trkpt lat="44.89218" lon="0.60732">
        <ele>92.4239502</ele>
        <time>2013-05-19T08:51:49Z</time>
      </trkpt>
      <trkpt lat="44.89212" lon="0.60719">
        <ele>94.8271484</ele>
        <time>2013-05-19T08:51:55Z</time>
      </trkpt>
      <trkpt lat="44.89211" lon="0.60718">
        <ele>94.8271484</ele>
        <time>2013-05-19T08:51:56Z</time>
      </trkpt>
      <trkpt lat="44.89205" lon="0.60704">
        <ele>98.1918945</ele>
        <time>2013-05-19T08:52:03Z</time>
      </trkpt>
      <trkpt lat="44.89203" lon="0.607">
        <ele>100.114502</ele>
        <time>2013-05-19T08:52:05Z</time>
      </trkpt>
      <trkpt lat="44.89198" lon="0.60687">
        <ele>103.9597168</ele>
        <time>2013-05-19T08:52:11Z</time>
      </trkpt>
      <trkpt lat="44.89196" lon="0.60675">
        <ele>103.9597168</ele>
        <time>2013-05-19T08:52:15Z</time>
      </trkpt>
      <trkpt lat="44.89194" lon="0.60669">
        <ele>103.4790039</ele>
        <time>2013-05-19T08:52:17Z</time>
      </trkpt>
      <trkpt lat="44.89187" lon="0.60661">
        <ele>103.9597168</ele>
        <time>2013-05-19T08:52:23Z</time>
      </trkpt>
      <trkpt lat="44.89179" lon="0.60653">
        <ele>106.3630371</ele>
        <time>2013-05-19T08:52:29Z</time>
      </trkpt>
      <trkpt lat="44.8917" lon="0.60646">
        <ele>106.3630371</ele>
        <time>2013-05-19T08:52:34Z</time>
      </trkpt>
      <trkpt lat="44.89158" lon="0.60634">
        <ele>107.8050537</ele>
        <time>2013-05-19T08:52:41Z</time>
      </trkpt>
      <trkpt lat="44.89155" lon="0.6063">
        <ele>108.7662354</ele>
        <time>2013-05-19T08:52:43Z</time>
      </trkpt>
      <trkpt lat="44.89147" lon="0.60617">
        <ele>109.2469482</ele>
        <time>2013-05-19T08:52:51Z</time>
      </trkpt>
      <trkpt lat="44.89145" lon="0.60603">
        <ele>106.8436279</ele>
        <time>2013-05-19T08:52:57Z</time>
      </trkpt>
      <trkpt lat="44.89143" lon="0.6059">
        <ele>105.4017334</ele>
        <time>2013-05-19T08:53:02Z</time>
      </trkpt>
      <trkpt lat="44.89137" lon="0.60577">
        <ele>107.8050537</ele>
        <time>2013-05-19T08:53:07Z</time>
      </trkpt>
      <trkpt lat="44.89128" lon="0.60553">
        <ele>108.2856445</ele>
        <time>2013-05-19T08:53:15Z</time>
      </trkpt>
      <trkpt lat="44.89123" lon="0.60539">
        <ele>107.3243408</ele>
        <time>2013-05-19T08:53:21Z</time>
      </trkpt>
      <trkpt lat="44.89115" lon="0.60524">
        <ele>105.8824463</ele>
        <time>2013-05-19T08:53:27Z</time>
      </trkpt>
      <trkpt lat="44.89099" lon="0.60502">
        <ele>109.7276611</ele>
        <time>2013-05-19T08:53:35Z</time>
      </trkpt>
      <trkpt lat="44.89085" lon="0.60483">
        <ele>114.0535889</ele>
        <time>2013-05-19T08:53:42Z</time>
      </trkpt>
      <trkpt lat="44.89075" lon="0.60466">
        <ele>115.9761963</ele>
        <time>2013-05-19T08:53:48Z</time>
      </trkpt>
      <trkpt lat="44.89066" lon="0.6045">
        <ele>117.4182129</ele>
        <time>2013-05-19T08:53:54Z</time>
      </trkpt>
      <trkpt lat="44.89062" lon="0.6043">
        <ele>117.4182129</ele>
        <time>2013-05-19T08:54:00Z</time>
      </trkpt>
      <trkpt lat="44.89061" lon="0.60424">
        <ele>116.9375</ele>
        <time>2013-05-19T08:54:02Z</time>
      </trkpt>
      <trkpt lat="44.89061" lon="0.60424">
        <ele>116.9375</ele>
        <time>2013-05-19T08:54:02Z</time>
      </trkpt>
      <trkpt lat="44.8906" lon="0.60417">
        <ele>117.4182129</ele>
        <time>2013-05-19T08:54:04Z</time>
      </trkpt>
      <trkpt lat="44.89058" lon="0.60408">
        <ele>116.4567871</ele>
        <time>2013-05-19T08:54:07Z</time>
      </trkpt>
      <trkpt lat="44.8905" lon="0.60397">
        <ele>115.9761963</ele>
        <time>2013-05-19T08:54:12Z</time>
      </trkpt>
      <trkpt lat="44.89041" lon="0.60386">
        <ele>115.4956055</ele>
        <time>2013-05-19T08:54:17Z</time>
      </trkpt>
      <trkpt lat="44.89033" lon="0.60366">
        <ele>115.0148926</ele>
        <time>2013-05-19T08:54:23Z</time>
      </trkpt>
      <trkpt lat="44.89034" lon="0.60342">
        <ele>115.4956055</ele>
        <time>2013-05-19T08:54:29Z</time>
      </trkpt>
      <trkpt lat="44.89033" lon="0.60318">
        <ele>115.0148926</ele>
        <time>2013-05-19T08:54:35Z</time>
      </trkpt>
      <trkpt lat="44.89029" lon="0.60303">
        <ele>115.0148926</ele>
        <time>2013-05-19T08:54:39Z</time>
      </trkpt>
      <trkpt lat="44.89024" lon="0.6028">
        <ele>114.0535889</ele>
        <time>2013-05-19T08:54:45Z</time>
      </trkpt>
      <trkpt lat="44.89019" lon="0.60257">
        <ele>114.0535889</ele>
        <time>2013-05-19T08:54:51Z</time>
      </trkpt>
      <trkpt lat="44.89014" lon="0.6023">
        <ele>113.572998</ele>
        <time>2013-05-19T08:54:58Z</time>
      </trkpt>
      <trkpt lat="44.89013" lon="0.60206">
        <ele>112.6115723</ele>
        <time>2013-05-19T08:55:04Z</time>
      </trkpt>
      <trkpt lat="44.89015" lon="0.60186">
        <ele>111.1695557</ele>
        <time>2013-05-19T08:55:09Z</time>
      </trkpt>
      <trkpt lat="44.89016" lon="0.60172">
        <ele>110.6888428</ele>
        <time>2013-05-19T08:55:13Z</time>
      </trkpt>
      <trkpt lat="44.89016" lon="0.60152">
        <ele>107.8050537</ele>
        <time>2013-05-19T08:55:18Z</time>
      </trkpt>
      <trkpt lat="44.89016" lon="0.60134">
        <ele>106.3630371</ele>
        <time>2013-05-19T08:55:22Z</time>
      </trkpt>
      <trkpt lat="44.89018" lon="0.60109">
        <ele>104.9210205</ele>
        <time>2013-05-19T08:55:28Z</time>
      </trkpt>
      <trkpt lat="44.89021" lon="0.60086">
        <ele>103.4790039</ele>
        <time>2013-05-19T08:55:34Z</time>
      </trkpt>
      <trkpt lat="44.89019" lon="0.60067">
        <ele>105.4017334</ele>
        <time>2013-05-19T08:55:39Z</time>
      </trkpt>
      <trkpt lat="44.89015" lon="0.60045">
        <ele>108.2856445</ele>
        <time>2013-05-19T08:55:45Z</time>
      </trkpt>
      <trkpt lat="44.89011" lon="0.60023">
        <ele>110.6888428</ele>
        <time>2013-05-19T08:55:51Z</time>
      </trkpt>
      <trkpt lat="44.89006" lon="0.60004">
        <ele>113.0922852</ele>
        <time>2013-05-19T08:55:57Z</time>
      </trkpt>
      <trkpt lat="44.89003" lon="0.59999">
        <ele>113.0922852</ele>
        <time>2013-05-19T08:55:59Z</time>
      </trkpt>
      <trkpt lat="44.88988" lon="0.59997">
        <ele>116.4567871</ele>
        <time>2013-05-19T08:56:05Z</time>
      </trkpt>
      <trkpt lat="44.88977" lon="0.60003">
        <ele>117.4182129</ele>
        <time>2013-05-19T08:56:10Z</time>
      </trkpt>
      <trkpt lat="44.88964" lon="0.60009">
        <ele>118.8601074</ele>
        <time>2013-05-19T08:56:15Z</time>
      </trkpt>
      <trkpt lat="44.88945" lon="0.60018">
        <ele>119.8214111</ele>
        <time>2013-05-19T08:56:22Z</time>
      </trkpt>
      <trkpt lat="44.88928" lon="0.60029">
        <ele>119.8214111</ele>
        <time>2013-05-19T08:56:29Z</time>
      </trkpt>
      <trkpt lat="44.88916" lon="0.60038">
        <ele>119.3408203</ele>
        <time>2013-05-19T08:56:34Z</time>
      </trkpt>
      <trkpt lat="44.88901" lon="0.60048">
        <ele>117.8988037</ele>
        <time>2013-05-19T08:56:40Z</time>
      </trkpt>
      <trkpt lat="44.88882" lon="0.60062">
        <ele>116.9375</ele>
        <time>2013-05-19T08:56:47Z</time>
      </trkpt>
      <trkpt lat="44.88869" lon="0.60071">
        <ele>116.9375</ele>
        <time>2013-05-19T08:56:52Z</time>
      </trkpt>
      <trkpt lat="44.88853" lon="0.60081">
        <ele>116.4567871</ele>
        <time>2013-05-19T08:56:58Z</time>
      </trkpt>
      <trkpt lat="44.88838" lon="0.60091">
        <ele>115.4956055</ele>
        <time>2013-05-19T08:57:04Z</time>
      </trkpt>
      <trkpt lat="44.88818" lon="0.60104">
        <ele>115.0148926</ele>
        <time>2013-05-19T08:57:11Z</time>
      </trkpt>
      <trkpt lat="44.88803" lon="0.60115">
        <ele>115.0148926</ele>
        <time>2013-05-19T08:57:17Z</time>
      </trkpt>
      <trkpt lat="44.88789" lon="0.60122">
        <ele>116.4567871</ele>
        <time>2013-05-19T08:57:22Z</time>
      </trkpt>
      <trkpt lat="44.88775" lon="0.60132">
        <ele>117.8988037</ele>
        <time>2013-05-19T08:57:27Z</time>
      </trkpt>
      <trkpt lat="44.88761" lon="0.60143">
        <ele>118.3793945</ele>
        <time>2013-05-19T08:57:32Z</time>
      </trkpt>
      <trkpt lat="44.88745" lon="0.60156">
        <ele>119.3408203</ele>
        <time>2013-05-19T08:57:38Z</time>
      </trkpt>
      <trkpt lat="44.88727" lon="0.60171">
        <ele>119.3408203</ele>
        <time>2013-05-19T08:57:45Z</time>
      </trkpt>
      <trkpt lat="44.8871" lon="0.60185">
        <ele>118.3793945</ele>
        <time>2013-05-19T08:57:52Z</time>
      </trkpt>
      <trkpt lat="44.88694" lon="0.60198">
        <ele>117.4182129</ele>
        <time>2013-05-19T08:57:58Z</time>
      </trkpt>
      <trkpt lat="44.8868" lon="0.60208">
        <ele>117.4182129</ele>
        <time>2013-05-19T08:58:03Z</time>
      </trkpt>
      <trkpt lat="44.88667" lon="0.60219">
        <ele>116.4567871</ele>
        <time>2013-05-19T08:58:08Z</time>
      </trkpt>
      <trkpt lat="44.88654" lon="0.6023">
        <ele>116.9375</ele>
        <time>2013-05-19T08:58:13Z</time>
      </trkpt>
      <trkpt lat="44.88636" lon="0.60244">
        <ele>117.4182129</ele>
        <time>2013-05-19T08:58:20Z</time>
      </trkpt>
      <trkpt lat="44.88623" lon="0.60253">
        <ele>117.4182129</ele>
        <time>2013-05-19T08:58:25Z</time>
      </trkpt>
      <trkpt lat="44.88607" lon="0.60264">
        <ele>118.3793945</ele>
        <time>2013-05-19T08:58:31Z</time>
      </trkpt>
      <trkpt lat="44.88592" lon="0.60273">
        <ele>119.8214111</ele>
        <time>2013-05-19T08:58:37Z</time>
      </trkpt>
      <trkpt lat="44.88576" lon="0.60281">
        <ele>121.2635498</ele>
        <time>2013-05-19T08:58:43Z</time>
      </trkpt>
      <trkpt lat="44.88574" lon="0.6028">
        <ele>120.7828369</ele>
        <time>2013-05-19T08:58:44Z</time>
      </trkpt>
      <trkpt lat="44.88565" lon="0.60265">
        <ele>119.3408203</ele>
        <time>2013-05-19T08:58:49Z</time>
      </trkpt>
      <trkpt lat="44.88562" lon="0.60255">
        <ele>117.4182129</ele>
        <time>2013-05-19T08:58:52Z</time>
      </trkpt>
      <trkpt lat="44.88555" lon="0.60233">
        <ele>116.4567871</ele>
        <time>2013-05-19T08:58:58Z</time>
      </trkpt>
      <trkpt lat="44.88545" lon="0.60209">
        <ele>116.9375</ele>
        <time>2013-05-19T08:59:05Z</time>
      </trkpt>
      <trkpt lat="44.88537" lon="0.60187">
        <ele>116.4567871</ele>
        <time>2013-05-19T08:59:11Z</time>
      </trkpt>
      <trkpt lat="44.88529" lon="0.60165">
        <ele>115.4956055</ele>
        <time>2013-05-19T08:59:17Z</time>
      </trkpt>
      <trkpt lat="44.88524" lon="0.60154">
        <ele>115.0148926</ele>
        <time>2013-05-19T08:59:20Z</time>
      </trkpt>
      <trkpt lat="44.88524" lon="0.60154">
        <ele>115.0148926</ele>
        <time>2013-05-19T08:59:20Z</time>
      </trkpt>
      <trkpt lat="44.8852" lon="0.60144">
        <ele>114.5341797</ele>
        <time>2013-05-19T08:59:23Z</time>
      </trkpt>
      <trkpt lat="44.88515" lon="0.60125">
        <ele>114.0535889</ele>
        <time>2013-05-19T08:59:28Z</time>
      </trkpt>
      <trkpt lat="44.88508" lon="0.60106">
        <ele>113.0922852</ele>
        <time>2013-05-19T08:59:33Z</time>
      </trkpt>
      <trkpt lat="44.88505" lon="0.60089">
        <ele>112.1309814</ele>
        <time>2013-05-19T08:59:38Z</time>
      </trkpt>
      <trkpt lat="44.885" lon="0.60072">
        <ele>111.6502686</ele>
        <time>2013-05-19T08:59:43Z</time>
      </trkpt>
      <trkpt lat="44.88496" lon="0.60053">
        <ele>111.6502686</ele>
        <time>2013-05-19T08:59:48Z</time>
      </trkpt>
      <trkpt lat="44.88497" lon="0.60038">
        <ele>112.1309814</ele>
        <time>2013-05-19T08:59:52Z</time>
      </trkpt>
      <trkpt lat="44.88495" lon="0.60027">
        <ele>109.7276611</ele>
        <time>2013-05-19T08:59:55Z</time>
      </trkpt>
      <trkpt lat="44.88492" lon="0.60003">
        <ele>103.4790039</ele>
        <time>2013-05-19T09:00:01Z</time>
      </trkpt>
      <trkpt lat="44.88483" lon="0.59984">
        <ele>101.5563965</ele>
        <time>2013-05-19T09:00:06Z</time>
      </trkpt>
      <trkpt lat="44.8847" lon="0.59965">
        <ele>102.998291</ele>
        <time>2013-05-19T09:00:12Z</time>
      </trkpt>
      <trkpt lat="44.88461" lon="0.59951">
        <ele>103.4790039</ele>
        <time>2013-05-19T09:00:17Z</time>
      </trkpt>
      <trkpt lat="44.88448" lon="0.59934">
        <ele>104.9210205</ele>
        <time>2013-05-19T09:00:23Z</time>
      </trkpt>
      <trkpt lat="44.8844" lon="0.5992">
        <ele>105.4017334</ele>
        <time>2013-05-19T09:00:28Z</time>
      </trkpt>
      <trkpt lat="44.88428" lon="0.59904">
        <ele>104.4404297</ele>
        <time>2013-05-19T09:00:35Z</time>
      </trkpt>
      <trkpt lat="44.88418" lon="0.59892">
        <ele>105.8824463</ele>
        <time>2013-05-19T09:00:40Z</time>
      </trkpt>
      <trkpt lat="44.88404" lon="0.59878">
        <ele>107.8050537</ele>
        <time>2013-05-19T09:00:46Z</time>
      </trkpt>
      <trkpt lat="44.8839" lon="0.59872">
        <ele>107.8050537</ele>
        <time>2013-05-19T09:00:52Z</time>
      </trkpt>
      <trkpt lat="44.88375" lon="0.59873">
        <ele>108.2856445</ele>
        <time>2013-05-19T09:00:58Z</time>
      </trkpt>
      <trkpt lat="44.8836" lon="0.59881">
        <ele>108.2856445</ele>
        <time>2013-05-19T09:01:04Z</time>
      </trkpt>
      <trkpt lat="44.88346" lon="0.59886">
        <ele>108.7662354</ele>
        <time>2013-05-19T09:01:09Z</time>
      </trkpt>
      <trkpt lat="44.88328" lon="0.59893">
        <ele>109.2469482</ele>
        <time>2013-05-19T09:01:16Z</time>
      </trkpt>
      <trkpt lat="44.88313" lon="0.59898">
        <ele>110.6888428</ele>
        <time>2013-05-19T09:01:22Z</time>
      </trkpt>
      <trkpt lat="44.883" lon="0.59903">
        <ele>112.1309814</ele>
        <time>2013-05-19T09:01:27Z</time>
      </trkpt>
      <trkpt lat="44.88285" lon="0.59908">
        <ele>115.0148926</ele>
        <time>2013-05-19T09:01:32Z</time>
      </trkpt>
      <trkpt lat="44.88276" lon="0.59907">
        <ele>117.4182129</ele>
        <time>2013-05-19T09:01:35Z</time>
      </trkpt>
      <trkpt lat="44.88262" lon="0.59909">
        <ele>118.8601074</ele>
        <time>2013-05-19T09:01:40Z</time>
      </trkpt>
      <trkpt lat="44.88259" lon="0.59908">
        <ele>119.3408203</ele>
        <time>2013-05-19T09:01:41Z</time>
      </trkpt>
      <trkpt lat="44.88239" lon="0.59898">
        <ele>118.3793945</ele>
        <time>2013-05-19T09:01:49Z</time>
      </trkpt>
      <trkpt lat="44.88223" lon="0.59887">
        <ele>118.3793945</ele>
        <time>2013-05-19T09:01:56Z</time>
      </trkpt>
      <trkpt lat="44.88211" lon="0.59874">
        <ele>117.8988037</ele>
        <time>2013-05-19T09:02:02Z</time>
      </trkpt>
      <trkpt lat="44.88197" lon="0.59868">
        <ele>119.8214111</ele>
        <time>2013-05-19T09:02:08Z</time>
      </trkpt>
      <trkpt lat="44.88187" lon="0.59862">
        <ele>119.3408203</ele>
        <time>2013-05-19T09:02:12Z</time>
      </trkpt>
      <trkpt lat="44.88175" lon="0.5985">
        <ele>121.7441406</ele>
        <time>2013-05-19T09:02:17Z</time>
      </trkpt>
      <trkpt lat="44.88162" lon="0.59833">
        <ele>120.302124</ele>
        <time>2013-05-19T09:02:24Z</time>
      </trkpt>
      <trkpt lat="44.88154" lon="0.59822">
        <ele>117.4182129</ele>
        <time>2013-05-19T09:02:28Z</time>
      </trkpt>
      <trkpt lat="44.88144" lon="0.59813">
        <ele>118.3793945</ele>
        <time>2013-05-19T09:02:32Z</time>
      </trkpt>
      <trkpt lat="44.88131" lon="0.5981">
        <ele>117.4182129</ele>
        <time>2013-05-19T09:02:37Z</time>
      </trkpt>
      <trkpt lat="44.88122" lon="0.59804">
        <ele>115.4956055</ele>
        <time>2013-05-19T09:02:41Z</time>
      </trkpt>
      <trkpt lat="44.8811" lon="0.59797">
        <ele>115.0148926</ele>
        <time>2013-05-19T09:02:46Z</time>
      </trkpt>
      <trkpt lat="44.88093" lon="0.59788">
        <ele>115.4956055</ele>
        <time>2013-05-19T09:02:52Z</time>
      </trkpt>
      <trkpt lat="44.88077" lon="0.59781">
        <ele>115.9761963</ele>
        <time>2013-05-19T09:02:58Z</time>
      </trkpt>
      <trkpt lat="44.88065" lon="0.59775">
        <ele>118.3793945</ele>
        <time>2013-05-19T09:03:03Z</time>
      </trkpt>
      <trkpt lat="44.88063" lon="0.59774">
        <ele>118.8601074</ele>
        <time>2013-05-19T09:03:04Z</time>
      </trkpt>
      <trkpt lat="44.88046" lon="0.59767">
        <ele>119.3408203</ele>
        <time>2013-05-19T09:03:10Z</time>
      </trkpt>
      <trkpt lat="44.8803" lon="0.59761">
        <ele>118.8601074</ele>
        <time>2013-05-19T09:03:16Z</time>
      </trkpt>
      <trkpt lat="44.88019" lon="0.59761">
        <ele>118.8601074</ele>
        <time>2013-05-19T09:03:20Z</time>
      </trkpt>
      <trkpt lat="44.88004" lon="0.59759">
        <ele>120.302124</ele>
        <time>2013-05-19T09:03:25Z</time>
      </trkpt>
      <trkpt lat="44.8799" lon="0.5976">
        <ele>121.7441406</ele>
        <time>2013-05-19T09:03:30Z</time>
      </trkpt>
      <trkpt lat="44.87975" lon="0.59757">
        <ele>121.7441406</ele>
        <time>2013-05-19T09:03:35Z</time>
      </trkpt>
      <trkpt lat="44.87959" lon="0.59755">
        <ele>122.7054443</ele>
        <time>2013-05-19T09:03:41Z</time>
      </trkpt>
      <trkpt lat="44.87947" lon="0.59752">
        <ele>122.7054443</ele>
        <time>2013-05-19T09:03:45Z</time>
      </trkpt>
      <trkpt lat="44.87933" lon="0.59759">
        <ele>123.1861572</ele>
        <time>2013-05-19T09:03:51Z</time>
      </trkpt>
      <trkpt lat="44.87923" lon="0.59776">
        <ele>122.2247314</ele>
        <time>2013-05-19T09:03:57Z</time>
      </trkpt>
      <trkpt lat="44.87912" lon="0.59792">
        <ele>122.7054443</ele>
        <time>2013-05-19T09:04:03Z</time>
      </trkpt>
      <trkpt lat="44.87904" lon="0.59805">
        <ele>122.2247314</ele>
        <time>2013-05-19T09:04:08Z</time>
      </trkpt>
      <trkpt lat="44.87893" lon="0.59828">
        <ele>121.2635498</ele>
        <time>2013-05-19T09:04:15Z</time>
      </trkpt>
      <trkpt lat="44.87884" lon="0.59844">
        <ele>120.7828369</ele>
        <time>2013-05-19T09:04:20Z</time>
      </trkpt>
      <trkpt lat="44.87875" lon="0.59859">
        <ele>119.8214111</ele>
        <time>2013-05-19T09:04:25Z</time>
      </trkpt>
      <trkpt lat="44.87865" lon="0.59874">
        <ele>120.7828369</ele>
        <time>2013-05-19T09:04:30Z</time>
      </trkpt>
      <trkpt lat="44.87851" lon="0.59876">
        <ele>120.302124</ele>
        <time>2013-05-19T09:04:35Z</time>
      </trkpt>
      <trkpt lat="44.87838" lon="0.59874">
        <ele>119.8214111</ele>
        <time>2013-05-19T09:04:40Z</time>
      </trkpt>
      <trkpt lat="44.87824" lon="0.59871">
        <ele>121.2635498</ele>
        <time>2013-05-19T09:04:45Z</time>
      </trkpt>
      <trkpt lat="44.87817" lon="0.59868">
        <ele>121.7441406</ele>
        <time>2013-05-19T09:04:48Z</time>
      </trkpt>
      <trkpt lat="44.87815" lon="0.59867">
        <ele>120.7828369</ele>
        <time>2013-05-19T09:04:49Z</time>
      </trkpt>
      <trkpt lat="44.87815" lon="0.59867">
        <ele>120.7828369</ele>
        <time>2013-05-19T09:04:49Z</time>
      </trkpt>
      <trkpt lat="44.87804" lon="0.59863">
        <ele>122.7054443</ele>
        <time>2013-05-19T09:04:53Z</time>
      </trkpt>
      <trkpt lat="44.87787" lon="0.59862">
        <ele>127.0313721</ele>
        <time>2013-05-19T09:04:58Z</time>
      </trkpt>
      <trkpt lat="44.87772" lon="0.59858">
        <ele>126.0699463</ele>
        <time>2013-05-19T09:05:03Z</time>
      </trkpt>
      <trkpt lat="44.8776" lon="0.5985">
        <ele>125.5893555</ele>
        <time>2013-05-19T09:05:08Z</time>
      </trkpt>
      <trkpt lat="44.87746" lon="0.59844">
        <ele>126.0699463</ele>
        <time>2013-05-19T09:05:13Z</time>
      </trkpt>
      <trkpt lat="44.87726" lon="0.59838">
        <ele>123.666748</ele>
        <time>2013-05-19T09:05:19Z</time>
      </trkpt>
      <trkpt lat="44.87711" lon="0.59834">
        <ele>124.1473389</ele>
        <time>2013-05-19T09:05:24Z</time>
      </trkpt>
      <trkpt lat="44.87695" lon="0.59832">
        <ele>124.6280518</ele>
        <time>2013-05-19T09:05:29Z</time>
      </trkpt>
      <trkpt lat="44.87682" lon="0.59823">
        <ele>117.8988037</ele>
        <time>2013-05-19T09:05:34Z</time>
      </trkpt>
      <trkpt lat="44.87665" lon="0.5981">
        <ele>113.572998</ele>
        <time>2013-05-19T09:05:40Z</time>
      </trkpt>
      <trkpt lat="44.8765" lon="0.59804">
        <ele>111.1695557</ele>
        <time>2013-05-19T09:05:45Z</time>
      </trkpt>
      <trkpt lat="44.87637" lon="0.598">
        <ele>111.1695557</ele>
        <time>2013-05-19T09:05:49Z</time>
      </trkpt>
      <trkpt lat="44.87622" lon="0.59795">
        <ele>111.1695557</ele>
        <time>2013-05-19T09:05:54Z</time>
      </trkpt>
      <trkpt lat="44.87606" lon="0.59791">
        <ele>110.6888428</ele>
        <time>2013-05-19T09:05:59Z</time>
      </trkpt>
      <trkpt lat="44.87588" lon="0.59788">
        <ele>108.7662354</ele>
        <time>2013-05-19T09:06:05Z</time>
      </trkpt>
      <trkpt lat="44.8757" lon="0.59784">
        <ele>106.8436279</ele>
        <time>2013-05-19T09:06:11Z</time>
      </trkpt>
      <trkpt lat="44.87555" lon="0.59783">
        <ele>106.3630371</ele>
        <time>2013-05-19T09:06:16Z</time>
      </trkpt>
      <trkpt lat="44.87539" lon="0.59782">
        <ele>106.3630371</ele>
        <time>2013-05-19T09:06:21Z</time>
      </trkpt>
      <trkpt lat="44.8752" lon="0.59781">
        <ele>105.8824463</ele>
        <time>2013-05-19T09:06:27Z</time>
      </trkpt>
      <trkpt lat="44.87504" lon="0.59779">
        <ele>105.8824463</ele>
        <time>2013-05-19T09:06:32Z</time>
      </trkpt>
      <trkpt lat="44.87495" lon="0.59777">
        <ele>105.8824463</ele>
        <time>2013-05-19T09:06:35Z</time>
      </trkpt>
      <trkpt lat="44.87476" lon="0.59777">
        <ele>105.8824463</ele>
        <time>2013-05-19T09:06:41Z</time>
      </trkpt>
      <trkpt lat="44.87457" lon="0.59777">
        <ele>106.3630371</ele>
        <time>2013-05-19T09:06:47Z</time>
      </trkpt>
      <trkpt lat="44.87438" lon="0.5978">
        <ele>106.8436279</ele>
        <time>2013-05-19T09:06:53Z</time>
      </trkpt>
      <trkpt lat="44.87423" lon="0.59781">
        <ele>106.8436279</ele>
        <time>2013-05-19T09:06:58Z</time>
      </trkpt>
      <trkpt lat="44.87407" lon="0.59781">
        <ele>106.8436279</ele>
        <time>2013-05-19T09:07:03Z</time>
      </trkpt>
      <trkpt lat="44.87402" lon="0.59783">
        <ele>106.8436279</ele>
        <time>2013-05-19T09:07:05Z</time>
      </trkpt>
      <trkpt lat="44.87404" lon="0.59797">
        <ele>107.3243408</ele>
        <time>2013-05-19T09:07:09Z</time>
      </trkpt>
      <trkpt lat="44.87406" lon="0.598">
        <ele>107.3243408</ele>
        <time>2013-05-19T09:07:10Z</time>
      </trkpt>
      <trkpt lat="44.87419" lon="0.59829">
        <ele>107.8050537</ele>
        <time>2013-05-19T09:07:17Z</time>
      </trkpt>
      <trkpt lat="44.87427" lon="0.5986">
        <ele>108.2856445</ele>
        <time>2013-05-19T09:07:24Z</time>
      </trkpt>
      <trkpt lat="44.87431" lon="0.59885">
        <ele>106.3630371</ele>
        <time>2013-05-19T09:07:30Z</time>
      </trkpt>
      <trkpt lat="44.87435" lon="0.59912">
        <ele>105.4017334</ele>
        <time>2013-05-19T09:07:36Z</time>
      </trkpt>
      <trkpt lat="44.87438" lon="0.59932">
        <ele>104.4404297</ele>
        <time>2013-05-19T09:07:41Z</time>
      </trkpt>
      <trkpt lat="44.87439" lon="0.59949">
        <ele>105.4017334</ele>
        <time>2013-05-19T09:07:45Z</time>
      </trkpt>
      <trkpt lat="44.8744" lon="0.59966">
        <ele>106.3630371</ele>
        <time>2013-05-19T09:07:49Z</time>
      </trkpt>
      <trkpt lat="44.87444" lon="0.59986">
        <ele>106.8436279</ele>
        <time>2013-05-19T09:07:54Z</time>
      </trkpt>
      <trkpt lat="44.87448" lon="0.60005">
        <ele>107.3243408</ele>
        <time>2013-05-19T09:07:59Z</time>
      </trkpt>
      <trkpt lat="44.87451" lon="0.6001">
        <ele>107.8050537</ele>
        <time>2013-05-19T09:08:01Z</time>
      </trkpt>
      <trkpt lat="44.8746" lon="0.60009">
        <ele>109.2469482</ele>
        <time>2013-05-19T09:08:05Z</time>
      </trkpt>
      <trkpt lat="44.87478" lon="0.60007">
        <ele>110.6888428</ele>
        <time>2013-05-19T09:08:12Z</time>
      </trkpt>
      <trkpt lat="44.87481" lon="0.60008">
        <ele>111.1695557</ele>
        <time>2013-05-19T09:08:13Z</time>
      </trkpt>
      <trkpt lat="44.87485" lon="0.60013">
        <ele>112.1309814</ele>
        <time>2013-05-19T09:08:16Z</time>
      </trkpt>
      <trkpt lat="44.87485" lon="0.60014">
        <ele>112.1309814</ele>
        <time>2013-05-19T09:08:17Z</time>
      </trkpt>
    </trkseg>
  </trk>
</gpx>